<?xml version="1.0" encoding="UTF-8" standalone="no" ?>
<gpx xmlns="http://www.topografix.com/GPX/1/1" xmlns:xsi="http://www.w3.org/2001/XMLSchema-instance" xsi:schemaLocation="http://www.topografix.com/GPX/1/1 http://www.topografix.com/GPX/1/1/gpx.xsd" version="1.1" creator="VisuGPX - https://www.visugpx.com">
  <metadata>
    <name>Fort Montavie</name>
    <desc><![CDATA[Bon spot de trail accessible depuis la vallée mais attention souvent boueux à la redescente.
]]></desc>
  </metadata>
  <trk>
    <name><![CDATA[Fort de Montavie avec le Vinvin :)]]></name>
    <trkseg>
      <trkpt lat="45.16059" lon="5.76657">
        <ele>221.1</ele>
        <time>2018-02-18T07:34:09Z</time>
      </trkpt>
      <trkpt lat="45.16055" lon="5.76656">
        <ele>220.8</ele>
        <time>2018-02-18T07:34:12Z</time>
      </trkpt>
      <trkpt lat="45.16048" lon="5.76653">
        <ele>220.4</ele>
        <time>2018-02-18T07:34:18Z</time>
      </trkpt>
      <trkpt lat="45.16047" lon="5.76653">
        <ele>220.3</ele>
        <time>2018-02-18T07:34:19Z</time>
      </trkpt>
      <trkpt lat="45.16044" lon="5.76651">
        <ele>220.1</ele>
        <time>2018-02-18T07:34:22Z</time>
      </trkpt>
      <trkpt lat="45.16042" lon="5.7665">
        <ele>220</ele>
        <time>2018-02-18T07:34:23Z</time>
      </trkpt>
      <trkpt lat="45.16037" lon="5.76649">
        <ele>220</ele>
        <time>2018-02-18T07:34:26Z</time>
      </trkpt>
      <trkpt lat="45.1603" lon="5.76642">
        <ele>220</ele>
        <time>2018-02-18T07:34:31Z</time>
      </trkpt>
      <trkpt lat="45.16016" lon="5.76634">
        <ele>220</ele>
        <time>2018-02-18T07:34:36Z</time>
      </trkpt>
      <trkpt lat="45.16007" lon="5.76629">
        <ele>220.4</ele>
        <time>2018-02-18T07:34:41Z</time>
      </trkpt>
      <trkpt lat="45.16006" lon="5.76628">
        <ele>220.7</ele>
        <time>2018-02-18T07:34:42Z</time>
      </trkpt>
      <trkpt lat="45.16002" lon="5.76624">
        <ele>222.1</ele>
        <time>2018-02-18T07:34:45Z</time>
      </trkpt>
      <trkpt lat="45.16" lon="5.76623">
        <ele>222.6</ele>
        <time>2018-02-18T07:34:47Z</time>
      </trkpt>
      <trkpt lat="45.15995" lon="5.76618">
        <ele>223</ele>
        <time>2018-02-18T07:34:51Z</time>
      </trkpt>
      <trkpt lat="45.15987" lon="5.76614">
        <ele>223</ele>
        <time>2018-02-18T07:34:55Z</time>
      </trkpt>
      <trkpt lat="45.15975" lon="5.76613">
        <ele>223</ele>
        <time>2018-02-18T07:34:58Z</time>
      </trkpt>
      <trkpt lat="45.15963" lon="5.7661">
        <ele>223.3</ele>
        <time>2018-02-18T07:35:03Z</time>
      </trkpt>
      <trkpt lat="45.15948" lon="5.76604">
        <ele>223.6</ele>
        <time>2018-02-18T07:35:09Z</time>
      </trkpt>
      <trkpt lat="45.15935" lon="5.76595">
        <ele>224</ele>
        <time>2018-02-18T07:35:15Z</time>
      </trkpt>
      <trkpt lat="45.15924" lon="5.76587">
        <ele>224.4</ele>
        <time>2018-02-18T07:35:21Z</time>
      </trkpt>
      <trkpt lat="45.1592" lon="5.76585">
        <ele>224.4</ele>
        <time>2018-02-18T07:35:23Z</time>
      </trkpt>
      <trkpt lat="45.15906" lon="5.76575">
        <ele>224.7</ele>
        <time>2018-02-18T07:35:30Z</time>
      </trkpt>
      <trkpt lat="45.15893" lon="5.76565">
        <ele>225</ele>
        <time>2018-02-18T07:35:36Z</time>
      </trkpt>
      <trkpt lat="45.15884" lon="5.76557">
        <ele>225</ele>
        <time>2018-02-18T07:35:39Z</time>
      </trkpt>
      <trkpt lat="45.15876" lon="5.76552">
        <ele>225</ele>
        <time>2018-02-18T07:35:44Z</time>
      </trkpt>
      <trkpt lat="45.15866" lon="5.76544">
        <ele>225.1</ele>
        <time>2018-02-18T07:35:49Z</time>
      </trkpt>
      <trkpt lat="45.15853" lon="5.76533">
        <ele>224.9</ele>
        <time>2018-02-18T07:35:55Z</time>
      </trkpt>
      <trkpt lat="45.15836" lon="5.76521">
        <ele>225.3</ele>
        <time>2018-02-18T07:36:03Z</time>
      </trkpt>
      <trkpt lat="45.15827" lon="5.7651">
        <ele>225.9</ele>
        <time>2018-02-18T07:36:08Z</time>
      </trkpt>
      <trkpt lat="45.15818" lon="5.76494">
        <ele>226.7</ele>
        <time>2018-02-18T07:36:14Z</time>
      </trkpt>
      <trkpt lat="45.15808" lon="5.76473">
        <ele>228</ele>
        <time>2018-02-18T07:36:21Z</time>
      </trkpt>
      <trkpt lat="45.15799" lon="5.76453">
        <ele>229.4</ele>
        <time>2018-02-18T07:36:28Z</time>
      </trkpt>
      <trkpt lat="45.15791" lon="5.76439">
        <ele>231.4</ele>
        <time>2018-02-18T07:36:33Z</time>
      </trkpt>
      <trkpt lat="45.15781" lon="5.76423">
        <ele>232.9</ele>
        <time>2018-02-18T07:36:39Z</time>
      </trkpt>
      <trkpt lat="45.15773" lon="5.76409">
        <ele>227.1</ele>
        <time>2018-02-18T07:36:44Z</time>
      </trkpt>
      <trkpt lat="45.15765" lon="5.76394">
        <ele>230.6</ele>
        <time>2018-02-18T07:36:49Z</time>
      </trkpt>
      <trkpt lat="45.15759" lon="5.76381">
        <ele>233.4</ele>
        <time>2018-02-18T07:36:54Z</time>
      </trkpt>
      <trkpt lat="45.1575" lon="5.76369">
        <ele>237</ele>
        <time>2018-02-18T07:37:01Z</time>
      </trkpt>
      <trkpt lat="45.1574" lon="5.76366">
        <ele>237.1</ele>
        <time>2018-02-18T07:37:06Z</time>
      </trkpt>
      <trkpt lat="45.15733" lon="5.76374">
        <ele>237.3</ele>
        <time>2018-02-18T07:37:12Z</time>
      </trkpt>
      <trkpt lat="45.15727" lon="5.76384">
        <ele>237.4</ele>
        <time>2018-02-18T07:37:17Z</time>
      </trkpt>
      <trkpt lat="45.1572" lon="5.76396">
        <ele>237.3</ele>
        <time>2018-02-18T07:37:23Z</time>
      </trkpt>
      <trkpt lat="45.15713" lon="5.76408">
        <ele>237.2</ele>
        <time>2018-02-18T07:37:29Z</time>
      </trkpt>
      <trkpt lat="45.15708" lon="5.76417">
        <ele>237.4</ele>
        <time>2018-02-18T07:37:34Z</time>
      </trkpt>
      <trkpt lat="45.15704" lon="5.76425">
        <ele>238.6</ele>
        <time>2018-02-18T07:37:39Z</time>
      </trkpt>
      <trkpt lat="45.15697" lon="5.76431">
        <ele>240</ele>
        <time>2018-02-18T07:37:44Z</time>
      </trkpt>
      <trkpt lat="45.15693" lon="5.76435">
        <ele>240.9</ele>
        <time>2018-02-18T07:37:47Z</time>
      </trkpt>
      <trkpt lat="45.15683" lon="5.76442">
        <ele>242.9</ele>
        <time>2018-02-18T07:37:53Z</time>
      </trkpt>
      <trkpt lat="45.15676" lon="5.76447">
        <ele>245</ele>
        <time>2018-02-18T07:37:57Z</time>
      </trkpt>
      <trkpt lat="45.15668" lon="5.76451">
        <ele>247.2</ele>
        <time>2018-02-18T07:38:00Z</time>
      </trkpt>
      <trkpt lat="45.15662" lon="5.76451">
        <ele>248.6</ele>
        <time>2018-02-18T07:38:04Z</time>
      </trkpt>
      <trkpt lat="45.15652" lon="5.76453">
        <ele>249.5</ele>
        <time>2018-02-18T07:38:09Z</time>
      </trkpt>
      <trkpt lat="45.15648" lon="5.76454">
        <ele>249.8</ele>
        <time>2018-02-18T07:38:12Z</time>
      </trkpt>
      <trkpt lat="45.15645" lon="5.76455">
        <ele>250.1</ele>
        <time>2018-02-18T07:38:14Z</time>
      </trkpt>
      <trkpt lat="45.15636" lon="5.76456">
        <ele>252</ele>
        <time>2018-02-18T07:38:19Z</time>
      </trkpt>
      <trkpt lat="45.15628" lon="5.76456">
        <ele>253</ele>
        <time>2018-02-18T07:38:24Z</time>
      </trkpt>
      <trkpt lat="45.15624" lon="5.76456">
        <ele>253</ele>
        <time>2018-02-18T07:38:26Z</time>
      </trkpt>
      <trkpt lat="45.15609" lon="5.76449">
        <ele>253</ele>
        <time>2018-02-18T07:38:35Z</time>
      </trkpt>
      <trkpt lat="45.15602" lon="5.76446">
        <ele>253</ele>
        <time>2018-02-18T07:38:39Z</time>
      </trkpt>
      <trkpt lat="45.15592" lon="5.76441">
        <ele>253</ele>
        <time>2018-02-18T07:38:41Z</time>
      </trkpt>
      <trkpt lat="45.15585" lon="5.76435">
        <ele>257</ele>
        <time>2018-02-18T07:38:46Z</time>
      </trkpt>
      <trkpt lat="45.15577" lon="5.76427">
        <ele>269.3</ele>
        <time>2018-02-18T07:38:51Z</time>
      </trkpt>
      <trkpt lat="45.15568" lon="5.76417">
        <ele>271.3</ele>
        <time>2018-02-18T07:38:56Z</time>
      </trkpt>
      <trkpt lat="45.15557" lon="5.76402">
        <ele>270.2</ele>
        <time>2018-02-18T07:39:04Z</time>
      </trkpt>
      <trkpt lat="45.15549" lon="5.76394">
        <ele>269.6</ele>
        <time>2018-02-18T07:39:09Z</time>
      </trkpt>
      <trkpt lat="45.1554" lon="5.76386">
        <ele>269.1</ele>
        <time>2018-02-18T07:39:14Z</time>
      </trkpt>
      <trkpt lat="45.15529" lon="5.76376">
        <ele>268.4</ele>
        <time>2018-02-18T07:39:20Z</time>
      </trkpt>
      <trkpt lat="45.15519" lon="5.76365">
        <ele>267.5</ele>
        <time>2018-02-18T07:39:26Z</time>
      </trkpt>
      <trkpt lat="45.15508" lon="5.76354">
        <ele>266.5</ele>
        <time>2018-02-18T07:39:31Z</time>
      </trkpt>
      <trkpt lat="45.15499" lon="5.76342">
        <ele>265.4</ele>
        <time>2018-02-18T07:39:38Z</time>
      </trkpt>
      <trkpt lat="45.15498" lon="5.76341">
        <ele>265.3</ele>
        <time>2018-02-18T07:39:39Z</time>
      </trkpt>
      <trkpt lat="45.15491" lon="5.76329">
        <ele>265</ele>
        <time>2018-02-18T07:39:45Z</time>
      </trkpt>
      <trkpt lat="45.1549" lon="5.76328">
        <ele>265</ele>
        <time>2018-02-18T07:39:46Z</time>
      </trkpt>
      <trkpt lat="45.15484" lon="5.76318">
        <ele>265.2</ele>
        <time>2018-02-18T07:39:51Z</time>
      </trkpt>
      <trkpt lat="45.15478" lon="5.76307">
        <ele>265.7</ele>
        <time>2018-02-18T07:39:57Z</time>
      </trkpt>
      <trkpt lat="45.15473" lon="5.76298">
        <ele>266.1</ele>
        <time>2018-02-18T07:40:01Z</time>
      </trkpt>
      <trkpt lat="45.15469" lon="5.76293">
        <ele>266.4</ele>
        <time>2018-02-18T07:40:05Z</time>
      </trkpt>
      <trkpt lat="45.15465" lon="5.76285">
        <ele>266.8</ele>
        <time>2018-02-18T07:40:09Z</time>
      </trkpt>
      <trkpt lat="45.1546" lon="5.76282">
        <ele>267.1</ele>
        <time>2018-02-18T07:40:12Z</time>
      </trkpt>
      <trkpt lat="45.15451" lon="5.76268">
        <ele>267.7</ele>
        <time>2018-02-18T07:40:19Z</time>
      </trkpt>
      <trkpt lat="45.15449" lon="5.76264">
        <ele>267.9</ele>
        <time>2018-02-18T07:40:21Z</time>
      </trkpt>
      <trkpt lat="45.15439" lon="5.76257">
        <ele>268.5</ele>
        <time>2018-02-18T07:40:27Z</time>
      </trkpt>
      <trkpt lat="45.15427" lon="5.76248">
        <ele>269.2</ele>
        <time>2018-02-18T07:40:33Z</time>
      </trkpt>
      <trkpt lat="45.15417" lon="5.76241">
        <ele>269.9</ele>
        <time>2018-02-18T07:40:39Z</time>
      </trkpt>
      <trkpt lat="45.15406" lon="5.76235">
        <ele>270.9</ele>
        <time>2018-02-18T07:40:44Z</time>
      </trkpt>
      <trkpt lat="45.15394" lon="5.76228">
        <ele>272.1</ele>
        <time>2018-02-18T07:40:50Z</time>
      </trkpt>
      <trkpt lat="45.15392" lon="5.76227">
        <ele>272.3</ele>
        <time>2018-02-18T07:40:51Z</time>
      </trkpt>
      <trkpt lat="45.15385" lon="5.76221">
        <ele>273.1</ele>
        <time>2018-02-18T07:40:55Z</time>
      </trkpt>
      <trkpt lat="45.15374" lon="5.76215">
        <ele>274</ele>
        <time>2018-02-18T07:41:00Z</time>
      </trkpt>
      <trkpt lat="45.15361" lon="5.76204">
        <ele>274</ele>
        <time>2018-02-18T07:41:06Z</time>
      </trkpt>
      <trkpt lat="45.15356" lon="5.76201">
        <ele>275.9</ele>
        <time>2018-02-18T07:41:10Z</time>
      </trkpt>
      <trkpt lat="45.15347" lon="5.76196">
        <ele>277.4</ele>
        <time>2018-02-18T07:41:16Z</time>
      </trkpt>
      <trkpt lat="45.1534" lon="5.76192">
        <ele>278.6</ele>
        <time>2018-02-18T07:41:21Z</time>
      </trkpt>
      <trkpt lat="45.15339" lon="5.7619">
        <ele>278.8</ele>
        <time>2018-02-18T07:41:22Z</time>
      </trkpt>
      <trkpt lat="45.15336" lon="5.76187">
        <ele>279.3</ele>
        <time>2018-02-18T07:41:24Z</time>
      </trkpt>
      <trkpt lat="45.15328" lon="5.76184">
        <ele>280.6</ele>
        <time>2018-02-18T07:41:30Z</time>
      </trkpt>
      <trkpt lat="45.15326" lon="5.76182">
        <ele>281</ele>
        <time>2018-02-18T07:41:31Z</time>
      </trkpt>
      <trkpt lat="45.15319" lon="5.76174">
        <ele>282.4</ele>
        <time>2018-02-18T07:41:38Z</time>
      </trkpt>
      <trkpt lat="45.15317" lon="5.76172">
        <ele>282.7</ele>
        <time>2018-02-18T07:41:39Z</time>
      </trkpt>
      <trkpt lat="45.15315" lon="5.76168">
        <ele>283.3</ele>
        <time>2018-02-18T07:41:42Z</time>
      </trkpt>
      <trkpt lat="45.15309" lon="5.76159">
        <ele>284.7</ele>
        <time>2018-02-18T07:41:49Z</time>
      </trkpt>
      <trkpt lat="45.15304" lon="5.7615">
        <ele>286</ele>
        <time>2018-02-18T07:41:54Z</time>
      </trkpt>
      <trkpt lat="45.153" lon="5.76146">
        <ele>286.8</ele>
        <time>2018-02-18T07:41:57Z</time>
      </trkpt>
      <trkpt lat="45.15293" lon="5.76136">
        <ele>288.4</ele>
        <time>2018-02-18T07:42:03Z</time>
      </trkpt>
      <trkpt lat="45.15287" lon="5.76126">
        <ele>290.3</ele>
        <time>2018-02-18T07:42:10Z</time>
      </trkpt>
      <trkpt lat="45.15285" lon="5.76125">
        <ele>290.5</ele>
        <time>2018-02-18T07:42:11Z</time>
      </trkpt>
      <trkpt lat="45.1528" lon="5.76125">
        <ele>291.7</ele>
        <time>2018-02-18T07:42:16Z</time>
      </trkpt>
      <trkpt lat="45.15274" lon="5.7613">
        <ele>293.2</ele>
        <time>2018-02-18T07:42:21Z</time>
      </trkpt>
      <trkpt lat="45.15272" lon="5.76132">
        <ele>295.9</ele>
        <time>2018-02-18T07:42:23Z</time>
      </trkpt>
      <trkpt lat="45.15268" lon="5.76136">
        <ele>296.5</ele>
        <time>2018-02-18T07:42:26Z</time>
      </trkpt>
      <trkpt lat="45.15263" lon="5.76141">
        <ele>297.4</ele>
        <time>2018-02-18T07:42:31Z</time>
      </trkpt>
      <trkpt lat="45.15254" lon="5.76147">
        <ele>298.5</ele>
        <time>2018-02-18T07:42:39Z</time>
      </trkpt>
      <trkpt lat="45.15253" lon="5.76148">
        <ele>298.7</ele>
        <time>2018-02-18T07:42:40Z</time>
      </trkpt>
      <trkpt lat="45.15252" lon="5.76149">
        <ele>298.9</ele>
        <time>2018-02-18T07:42:41Z</time>
      </trkpt>
      <trkpt lat="45.15242" lon="5.76156">
        <ele>300.3</ele>
        <time>2018-02-18T07:42:48Z</time>
      </trkpt>
      <trkpt lat="45.15238" lon="5.7616">
        <ele>300.8</ele>
        <time>2018-02-18T07:42:51Z</time>
      </trkpt>
      <trkpt lat="45.15238" lon="5.7616">
        <ele>300.8</ele>
        <time>2018-02-18T07:42:53Z</time>
      </trkpt>
      <trkpt lat="45.15224" lon="5.76172">
        <ele>303</ele>
        <time>2018-02-18T07:43:00Z</time>
      </trkpt>
      <trkpt lat="45.15217" lon="5.76175">
        <ele>303.9</ele>
        <time>2018-02-18T07:43:05Z</time>
      </trkpt>
      <trkpt lat="45.1521" lon="5.7618">
        <ele>303.9</ele>
        <time>2018-02-18T07:43:10Z</time>
      </trkpt>
      <trkpt lat="45.15208" lon="5.76181">
        <ele>303.9</ele>
        <time>2018-02-18T07:43:11Z</time>
      </trkpt>
      <trkpt lat="45.15206" lon="5.76183">
        <ele>303.9</ele>
        <time>2018-02-18T07:43:13Z</time>
      </trkpt>
      <trkpt lat="45.15201" lon="5.76187">
        <ele>303.9</ele>
        <time>2018-02-18T07:43:17Z</time>
      </trkpt>
      <trkpt lat="45.1519" lon="5.76192">
        <ele>303.8</ele>
        <time>2018-02-18T07:43:24Z</time>
      </trkpt>
      <trkpt lat="45.15188" lon="5.76194">
        <ele>303.8</ele>
        <time>2018-02-18T07:43:25Z</time>
      </trkpt>
      <trkpt lat="45.15181" lon="5.76195">
        <ele>303.7</ele>
        <time>2018-02-18T07:43:29Z</time>
      </trkpt>
      <trkpt lat="45.15169" lon="5.76198">
        <ele>303.7</ele>
        <time>2018-02-18T07:43:36Z</time>
      </trkpt>
      <trkpt lat="45.1516" lon="5.76198">
        <ele>303.6</ele>
        <time>2018-02-18T07:43:41Z</time>
      </trkpt>
      <trkpt lat="45.15159" lon="5.762">
        <ele>303.6</ele>
        <time>2018-02-18T07:43:42Z</time>
      </trkpt>
      <trkpt lat="45.15153" lon="5.762">
        <ele>303.6</ele>
        <time>2018-02-18T07:43:46Z</time>
      </trkpt>
      <trkpt lat="45.15146" lon="5.76199">
        <ele>303.5</ele>
        <time>2018-02-18T07:43:50Z</time>
      </trkpt>
      <trkpt lat="45.1514" lon="5.76198">
        <ele>303.5</ele>
        <time>2018-02-18T07:43:53Z</time>
      </trkpt>
      <trkpt lat="45.15135" lon="5.76198">
        <ele>303.4</ele>
        <time>2018-02-18T07:43:56Z</time>
      </trkpt>
      <trkpt lat="45.15132" lon="5.76197">
        <ele>303.4</ele>
        <time>2018-02-18T07:43:58Z</time>
      </trkpt>
      <trkpt lat="45.1512" lon="5.76193">
        <ele>303.2</ele>
        <time>2018-02-18T07:44:05Z</time>
      </trkpt>
      <trkpt lat="45.15113" lon="5.76191">
        <ele>303.2</ele>
        <time>2018-02-18T07:44:10Z</time>
      </trkpt>
      <trkpt lat="45.1511" lon="5.76191">
        <ele>303.1</ele>
        <time>2018-02-18T07:44:12Z</time>
      </trkpt>
      <trkpt lat="45.15101" lon="5.76187">
        <ele>303</ele>
        <time>2018-02-18T07:44:18Z</time>
      </trkpt>
      <trkpt lat="45.15091" lon="5.76184">
        <ele>302.9</ele>
        <time>2018-02-18T07:44:24Z</time>
      </trkpt>
      <trkpt lat="45.15086" lon="5.76183">
        <ele>302.8</ele>
        <time>2018-02-18T07:44:27Z</time>
      </trkpt>
      <trkpt lat="45.15084" lon="5.76181">
        <ele>302.8</ele>
        <time>2018-02-18T07:44:29Z</time>
      </trkpt>
      <trkpt lat="45.15075" lon="5.76179">
        <ele>302.7</ele>
        <time>2018-02-18T07:44:34Z</time>
      </trkpt>
      <trkpt lat="45.15074" lon="5.76178">
        <ele>302.7</ele>
        <time>2018-02-18T07:44:35Z</time>
      </trkpt>
      <trkpt lat="45.15063" lon="5.76172">
        <ele>302.7</ele>
        <time>2018-02-18T07:44:42Z</time>
      </trkpt>
      <trkpt lat="45.15055" lon="5.76167">
        <ele>302.7</ele>
        <time>2018-02-18T07:44:47Z</time>
      </trkpt>
      <trkpt lat="45.15045" lon="5.76162">
        <ele>302.8</ele>
        <time>2018-02-18T07:44:53Z</time>
      </trkpt>
      <trkpt lat="45.15043" lon="5.76161">
        <ele>302.8</ele>
        <time>2018-02-18T07:44:54Z</time>
      </trkpt>
      <trkpt lat="45.15043" lon="5.76161">
        <ele>302.8</ele>
        <time>2018-02-18T07:45:01Z</time>
      </trkpt>
      <trkpt lat="45.15021" lon="5.76155">
        <ele>302.8</ele>
        <time>2018-02-18T07:45:08Z</time>
      </trkpt>
      <trkpt lat="45.15008" lon="5.76157">
        <ele>302.6</ele>
        <time>2018-02-18T07:45:16Z</time>
      </trkpt>
      <trkpt lat="45.15002" lon="5.76158">
        <ele>302.4</ele>
        <time>2018-02-18T07:45:20Z</time>
      </trkpt>
      <trkpt lat="45.14992" lon="5.76158">
        <ele>302.1</ele>
        <time>2018-02-18T07:45:27Z</time>
      </trkpt>
      <trkpt lat="45.14988" lon="5.76159">
        <ele>301.9</ele>
        <time>2018-02-18T07:45:30Z</time>
      </trkpt>
      <trkpt lat="45.14977" lon="5.76159">
        <ele>301.4</ele>
        <time>2018-02-18T07:45:36Z</time>
      </trkpt>
      <trkpt lat="45.1497" lon="5.76159">
        <ele>300.9</ele>
        <time>2018-02-18T07:45:42Z</time>
      </trkpt>
      <trkpt lat="45.14963" lon="5.7616">
        <ele>300.6</ele>
        <time>2018-02-18T07:45:46Z</time>
      </trkpt>
      <trkpt lat="45.14951" lon="5.76159">
        <ele>300.1</ele>
        <time>2018-02-18T07:45:54Z</time>
      </trkpt>
      <trkpt lat="45.1494" lon="5.76158">
        <ele>299.7</ele>
        <time>2018-02-18T07:46:01Z</time>
      </trkpt>
      <trkpt lat="45.14931" lon="5.76159">
        <ele>299.4</ele>
        <time>2018-02-18T07:46:06Z</time>
      </trkpt>
      <trkpt lat="45.14919" lon="5.76161">
        <ele>298.7</ele>
        <time>2018-02-18T07:46:14Z</time>
      </trkpt>
      <trkpt lat="45.14912" lon="5.76164">
        <ele>298.2</ele>
        <time>2018-02-18T07:46:18Z</time>
      </trkpt>
      <trkpt lat="45.14909" lon="5.76166">
        <ele>298</ele>
        <time>2018-02-18T07:46:20Z</time>
      </trkpt>
      <trkpt lat="45.14901" lon="5.76182">
        <ele>297.8</ele>
        <time>2018-02-18T07:46:26Z</time>
      </trkpt>
      <trkpt lat="45.14899" lon="5.762">
        <ele>297.5</ele>
        <time>2018-02-18T07:46:31Z</time>
      </trkpt>
      <trkpt lat="45.14896" lon="5.76213">
        <ele>297.3</ele>
        <time>2018-02-18T07:46:36Z</time>
      </trkpt>
      <trkpt lat="45.14894" lon="5.76221">
        <ele>297.2</ele>
        <time>2018-02-18T07:46:40Z</time>
      </trkpt>
      <trkpt lat="45.14889" lon="5.76242">
        <ele>296.9</ele>
        <time>2018-02-18T07:46:46Z</time>
      </trkpt>
      <trkpt lat="45.14888" lon="5.76261">
        <ele>296.4</ele>
        <time>2018-02-18T07:46:52Z</time>
      </trkpt>
      <trkpt lat="45.14886" lon="5.7628">
        <ele>296.4</ele>
        <time>2018-02-18T07:46:58Z</time>
      </trkpt>
      <trkpt lat="45.14884" lon="5.76286">
        <ele>296.5</ele>
        <time>2018-02-18T07:47:01Z</time>
      </trkpt>
      <trkpt lat="45.14876" lon="5.7631">
        <ele>297.2</ele>
        <time>2018-02-18T07:47:08Z</time>
      </trkpt>
      <trkpt lat="45.14871" lon="5.76321">
        <ele>297.5</ele>
        <time>2018-02-18T07:47:12Z</time>
      </trkpt>
      <trkpt lat="45.14866" lon="5.76333">
        <ele>297.8</ele>
        <time>2018-02-18T07:47:16Z</time>
      </trkpt>
      <trkpt lat="45.14865" lon="5.76336">
        <ele>297.8</ele>
        <time>2018-02-18T07:47:17Z</time>
      </trkpt>
      <trkpt lat="45.14857" lon="5.76346">
        <ele>298.1</ele>
        <time>2018-02-18T07:47:22Z</time>
      </trkpt>
      <trkpt lat="45.14855" lon="5.76348">
        <ele>298.2</ele>
        <time>2018-02-18T07:47:23Z</time>
      </trkpt>
      <trkpt lat="45.14854" lon="5.76351">
        <ele>298.2</ele>
        <time>2018-02-18T07:47:24Z</time>
      </trkpt>
      <trkpt lat="45.14848" lon="5.76362">
        <ele>298.5</ele>
        <time>2018-02-18T07:47:28Z</time>
      </trkpt>
      <trkpt lat="45.14845" lon="5.7637">
        <ele>298.7</ele>
        <time>2018-02-18T07:47:31Z</time>
      </trkpt>
      <trkpt lat="45.14836" lon="5.76381">
        <ele>299</ele>
        <time>2018-02-18T07:47:36Z</time>
      </trkpt>
      <trkpt lat="45.1483" lon="5.76394">
        <ele>299.3</ele>
        <time>2018-02-18T07:47:42Z</time>
      </trkpt>
      <trkpt lat="45.14824" lon="5.76403">
        <ele>299.6</ele>
        <time>2018-02-18T07:47:48Z</time>
      </trkpt>
      <trkpt lat="45.14822" lon="5.76405">
        <ele>299.7</ele>
        <time>2018-02-18T07:47:49Z</time>
      </trkpt>
      <trkpt lat="45.1482" lon="5.76407">
        <ele>299.8</ele>
        <time>2018-02-18T07:47:50Z</time>
      </trkpt>
      <trkpt lat="45.14806" lon="5.76424">
        <ele>300.7</ele>
        <time>2018-02-18T07:47:57Z</time>
      </trkpt>
      <trkpt lat="45.14795" lon="5.76439">
        <ele>301.8</ele>
        <time>2018-02-18T07:48:02Z</time>
      </trkpt>
      <trkpt lat="45.14793" lon="5.76441">
        <ele>302</ele>
        <time>2018-02-18T07:48:04Z</time>
      </trkpt>
      <trkpt lat="45.14785" lon="5.76447">
        <ele>302.5</ele>
        <time>2018-02-18T07:48:08Z</time>
      </trkpt>
      <trkpt lat="45.14782" lon="5.76451">
        <ele>302.7</ele>
        <time>2018-02-18T07:48:09Z</time>
      </trkpt>
      <trkpt lat="45.14775" lon="5.76465">
        <ele>303.4</ele>
        <time>2018-02-18T07:48:13Z</time>
      </trkpt>
      <trkpt lat="45.14765" lon="5.76481">
        <ele>304.8</ele>
        <time>2018-02-18T07:48:18Z</time>
      </trkpt>
      <trkpt lat="45.14758" lon="5.76495">
        <ele>306.1</ele>
        <time>2018-02-18T07:48:22Z</time>
      </trkpt>
      <trkpt lat="45.14756" lon="5.76498">
        <ele>306.5</ele>
        <time>2018-02-18T07:48:23Z</time>
      </trkpt>
      <trkpt lat="45.14748" lon="5.76511">
        <ele>308.1</ele>
        <time>2018-02-18T07:48:28Z</time>
      </trkpt>
      <trkpt lat="45.14743" lon="5.76524">
        <ele>309.7</ele>
        <time>2018-02-18T07:48:31Z</time>
      </trkpt>
      <trkpt lat="45.1474" lon="5.76531">
        <ele>310.4</ele>
        <time>2018-02-18T07:48:34Z</time>
      </trkpt>
      <trkpt lat="45.14731" lon="5.76552">
        <ele>312.6</ele>
        <time>2018-02-18T07:48:40Z</time>
      </trkpt>
      <trkpt lat="45.14727" lon="5.7656">
        <ele>313.5</ele>
        <time>2018-02-18T07:48:43Z</time>
      </trkpt>
      <trkpt lat="45.14718" lon="5.76567">
        <ele>314.9</ele>
        <time>2018-02-18T07:48:48Z</time>
      </trkpt>
      <trkpt lat="45.14705" lon="5.76574">
        <ele>316.2</ele>
        <time>2018-02-18T07:48:54Z</time>
      </trkpt>
      <trkpt lat="45.14695" lon="5.7658">
        <ele>317.1</ele>
        <time>2018-02-18T07:48:59Z</time>
      </trkpt>
      <trkpt lat="45.14685" lon="5.76586">
        <ele>318.1</ele>
        <time>2018-02-18T07:49:04Z</time>
      </trkpt>
      <trkpt lat="45.14678" lon="5.76591">
        <ele>319.1</ele>
        <time>2018-02-18T07:49:08Z</time>
      </trkpt>
      <trkpt lat="45.14672" lon="5.766">
        <ele>321</ele>
        <time>2018-02-18T07:49:12Z</time>
      </trkpt>
      <trkpt lat="45.14664" lon="5.76613">
        <ele>323.4</ele>
        <time>2018-02-18T07:49:18Z</time>
      </trkpt>
      <trkpt lat="45.14659" lon="5.76626">
        <ele>325.3</ele>
        <time>2018-02-18T07:49:23Z</time>
      </trkpt>
      <trkpt lat="45.14658" lon="5.76631">
        <ele>325.8</ele>
        <time>2018-02-18T07:49:25Z</time>
      </trkpt>
      <trkpt lat="45.14653" lon="5.76643">
        <ele>327.6</ele>
        <time>2018-02-18T07:49:30Z</time>
      </trkpt>
      <trkpt lat="45.14648" lon="5.76658">
        <ele>329.5</ele>
        <time>2018-02-18T07:49:36Z</time>
      </trkpt>
      <trkpt lat="45.14644" lon="5.76671">
        <ele>331.4</ele>
        <time>2018-02-18T07:49:42Z</time>
      </trkpt>
      <trkpt lat="45.1464" lon="5.76684">
        <ele>333.3</ele>
        <time>2018-02-18T07:49:48Z</time>
      </trkpt>
      <trkpt lat="45.14638" lon="5.76696">
        <ele>334.7</ele>
        <time>2018-02-18T07:49:53Z</time>
      </trkpt>
      <trkpt lat="45.14638" lon="5.76698">
        <ele>334.9</ele>
        <time>2018-02-18T07:49:54Z</time>
      </trkpt>
      <trkpt lat="45.14637" lon="5.76705">
        <ele>335.8</ele>
        <time>2018-02-18T07:49:58Z</time>
      </trkpt>
      <trkpt lat="45.14634" lon="5.76717">
        <ele>336.9</ele>
        <time>2018-02-18T07:50:03Z</time>
      </trkpt>
      <trkpt lat="45.14631" lon="5.76729">
        <ele>338</ele>
        <time>2018-02-18T07:50:09Z</time>
      </trkpt>
      <trkpt lat="45.1463" lon="5.76731">
        <ele>338.2</ele>
        <time>2018-02-18T07:50:10Z</time>
      </trkpt>
      <trkpt lat="45.14628" lon="5.76744">
        <ele>339.3</ele>
        <time>2018-02-18T07:50:16Z</time>
      </trkpt>
      <trkpt lat="45.14626" lon="5.76748">
        <ele>339.6</ele>
        <time>2018-02-18T07:50:18Z</time>
      </trkpt>
      <trkpt lat="45.14623" lon="5.76755">
        <ele>340.2</ele>
        <time>2018-02-18T07:50:22Z</time>
      </trkpt>
      <trkpt lat="45.14621" lon="5.76762">
        <ele>340.9</ele>
        <time>2018-02-18T07:50:26Z</time>
      </trkpt>
      <trkpt lat="45.14613" lon="5.76773">
        <ele>342</ele>
        <time>2018-02-18T07:50:33Z</time>
      </trkpt>
      <trkpt lat="45.14604" lon="5.76783">
        <ele>343.1</ele>
        <time>2018-02-18T07:50:39Z</time>
      </trkpt>
      <trkpt lat="45.14602" lon="5.76784">
        <ele>343.2</ele>
        <time>2018-02-18T07:50:40Z</time>
      </trkpt>
      <trkpt lat="45.146" lon="5.76787">
        <ele>343.5</ele>
        <time>2018-02-18T07:50:42Z</time>
      </trkpt>
      <trkpt lat="45.14591" lon="5.76803">
        <ele>344.6</ele>
        <time>2018-02-18T07:50:49Z</time>
      </trkpt>
      <trkpt lat="45.14585" lon="5.7682">
        <ele>345.2</ele>
        <time>2018-02-18T07:50:55Z</time>
      </trkpt>
      <trkpt lat="45.14582" lon="5.76833">
        <ele>345.4</ele>
        <time>2018-02-18T07:50:59Z</time>
      </trkpt>
      <trkpt lat="45.14579" lon="5.76846">
        <ele>345.6</ele>
        <time>2018-02-18T07:51:03Z</time>
      </trkpt>
      <trkpt lat="45.14575" lon="5.76861">
        <ele>345.8</ele>
        <time>2018-02-18T07:51:08Z</time>
      </trkpt>
      <trkpt lat="45.14568" lon="5.76878">
        <ele>346</ele>
        <time>2018-02-18T07:51:13Z</time>
      </trkpt>
      <trkpt lat="45.14559" lon="5.76893">
        <ele>346.3</ele>
        <time>2018-02-18T07:51:20Z</time>
      </trkpt>
      <trkpt lat="45.14549" lon="5.76908">
        <ele>346.5</ele>
        <time>2018-02-18T07:51:26Z</time>
      </trkpt>
      <trkpt lat="45.1454" lon="5.76924">
        <ele>346.7</ele>
        <time>2018-02-18T07:51:32Z</time>
      </trkpt>
      <trkpt lat="45.14533" lon="5.76938">
        <ele>346.9</ele>
        <time>2018-02-18T07:51:37Z</time>
      </trkpt>
      <trkpt lat="45.1452" lon="5.76956">
        <ele>347.2</ele>
        <time>2018-02-18T07:51:44Z</time>
      </trkpt>
      <trkpt lat="45.14516" lon="5.76962">
        <ele>347.3</ele>
        <time>2018-02-18T07:51:47Z</time>
      </trkpt>
      <trkpt lat="45.14509" lon="5.76971">
        <ele>347.5</ele>
        <time>2018-02-18T07:51:52Z</time>
      </trkpt>
      <trkpt lat="45.14499" lon="5.7698">
        <ele>347.6</ele>
        <time>2018-02-18T07:51:57Z</time>
      </trkpt>
      <trkpt lat="45.1449" lon="5.76988">
        <ele>347.8</ele>
        <time>2018-02-18T07:52:02Z</time>
      </trkpt>
      <trkpt lat="45.1448" lon="5.76996">
        <ele>348</ele>
        <time>2018-02-18T07:52:07Z</time>
      </trkpt>
      <trkpt lat="45.14471" lon="5.77006">
        <ele>348.1</ele>
        <time>2018-02-18T07:52:12Z</time>
      </trkpt>
      <trkpt lat="45.14461" lon="5.77015">
        <ele>348.3</ele>
        <time>2018-02-18T07:52:17Z</time>
      </trkpt>
      <trkpt lat="45.14459" lon="5.77019">
        <ele>348.3</ele>
        <time>2018-02-18T07:52:18Z</time>
      </trkpt>
      <trkpt lat="45.14452" lon="5.77028">
        <ele>348.5</ele>
        <time>2018-02-18T07:52:23Z</time>
      </trkpt>
      <trkpt lat="45.14446" lon="5.77039">
        <ele>348.6</ele>
        <time>2018-02-18T07:52:27Z</time>
      </trkpt>
      <trkpt lat="45.14445" lon="5.77042">
        <ele>348.6</ele>
        <time>2018-02-18T07:52:28Z</time>
      </trkpt>
      <trkpt lat="45.14439" lon="5.77055">
        <ele>348.8</ele>
        <time>2018-02-18T07:52:32Z</time>
      </trkpt>
      <trkpt lat="45.1443" lon="5.77062">
        <ele>349</ele>
        <time>2018-02-18T07:52:36Z</time>
      </trkpt>
      <trkpt lat="45.14428" lon="5.77062">
        <ele>349</ele>
        <time>2018-02-18T07:52:37Z</time>
      </trkpt>
      <trkpt lat="45.14418" lon="5.77067">
        <ele>349.7</ele>
        <time>2018-02-18T07:52:41Z</time>
      </trkpt>
      <trkpt lat="45.14406" lon="5.77073">
        <ele>351</ele>
        <time>2018-02-18T07:52:47Z</time>
      </trkpt>
      <trkpt lat="45.14404" lon="5.77074">
        <ele>351.2</ele>
        <time>2018-02-18T07:52:48Z</time>
      </trkpt>
      <trkpt lat="45.14391" lon="5.7708">
        <ele>352.5</ele>
        <time>2018-02-18T07:52:54Z</time>
      </trkpt>
      <trkpt lat="45.14381" lon="5.77084">
        <ele>353.7</ele>
        <time>2018-02-18T07:52:59Z</time>
      </trkpt>
      <trkpt lat="45.1438" lon="5.77082">
        <ele>353.9</ele>
        <time>2018-02-18T07:53:00Z</time>
      </trkpt>
      <trkpt lat="45.1437" lon="5.77084">
        <ele>354.9</ele>
        <time>2018-02-18T07:53:04Z</time>
      </trkpt>
      <trkpt lat="45.14366" lon="5.77085">
        <ele>355.4</ele>
        <time>2018-02-18T07:53:06Z</time>
      </trkpt>
      <trkpt lat="45.14361" lon="5.77089">
        <ele>356</ele>
        <time>2018-02-18T07:53:08Z</time>
      </trkpt>
      <trkpt lat="45.14351" lon="5.77094">
        <ele>357.4</ele>
        <time>2018-02-18T07:53:13Z</time>
      </trkpt>
      <trkpt lat="45.14348" lon="5.77095">
        <ele>357.8</ele>
        <time>2018-02-18T07:53:14Z</time>
      </trkpt>
      <trkpt lat="45.14344" lon="5.77095">
        <ele>358.4</ele>
        <time>2018-02-18T07:53:16Z</time>
      </trkpt>
      <trkpt lat="45.14334" lon="5.77099">
        <ele>360.1</ele>
        <time>2018-02-18T07:53:21Z</time>
      </trkpt>
      <trkpt lat="45.14323" lon="5.77102">
        <ele>362.2</ele>
        <time>2018-02-18T07:53:26Z</time>
      </trkpt>
      <trkpt lat="45.14319" lon="5.77102">
        <ele>363</ele>
        <time>2018-02-18T07:53:28Z</time>
      </trkpt>
      <trkpt lat="45.14309" lon="5.77096">
        <ele>362.8</ele>
        <time>2018-02-18T07:53:33Z</time>
      </trkpt>
      <trkpt lat="45.14303" lon="5.77093">
        <ele>362.7</ele>
        <time>2018-02-18T07:53:36Z</time>
      </trkpt>
      <trkpt lat="45.14289" lon="5.7708">
        <ele>362.3</ele>
        <time>2018-02-18T07:53:44Z</time>
      </trkpt>
      <trkpt lat="45.14286" lon="5.77077">
        <ele>362.2</ele>
        <time>2018-02-18T07:53:46Z</time>
      </trkpt>
      <trkpt lat="45.14276" lon="5.77072">
        <ele>361.9</ele>
        <time>2018-02-18T07:53:51Z</time>
      </trkpt>
      <trkpt lat="45.14263" lon="5.77063">
        <ele>361.5</ele>
        <time>2018-02-18T07:53:57Z</time>
      </trkpt>
      <trkpt lat="45.14253" lon="5.77054">
        <ele>361.1</ele>
        <time>2018-02-18T07:54:02Z</time>
      </trkpt>
      <trkpt lat="45.14251" lon="5.77053">
        <ele>361</ele>
        <time>2018-02-18T07:54:03Z</time>
      </trkpt>
      <trkpt lat="45.14243" lon="5.7705">
        <ele>360.2</ele>
        <time>2018-02-18T07:54:06Z</time>
      </trkpt>
      <trkpt lat="45.14232" lon="5.77052">
        <ele>358.7</ele>
        <time>2018-02-18T07:54:10Z</time>
      </trkpt>
      <trkpt lat="45.14218" lon="5.77051">
        <ele>357.5</ele>
        <time>2018-02-18T07:54:14Z</time>
      </trkpt>
      <trkpt lat="45.14209" lon="5.77049">
        <ele>356.9</ele>
        <time>2018-02-18T07:54:18Z</time>
      </trkpt>
      <trkpt lat="45.142" lon="5.77047">
        <ele>355.9</ele>
        <time>2018-02-18T07:54:22Z</time>
      </trkpt>
      <trkpt lat="45.14181" lon="5.77042">
        <ele>354.2</ele>
        <time>2018-02-18T07:54:29Z</time>
      </trkpt>
      <trkpt lat="45.14169" lon="5.7704">
        <ele>353.2</ele>
        <time>2018-02-18T07:54:34Z</time>
      </trkpt>
      <trkpt lat="45.14158" lon="5.77044">
        <ele>351.9</ele>
        <time>2018-02-18T07:54:39Z</time>
      </trkpt>
      <trkpt lat="45.14146" lon="5.7705">
        <ele>350.4</ele>
        <time>2018-02-18T07:54:44Z</time>
      </trkpt>
      <trkpt lat="45.14134" lon="5.77055">
        <ele>349.2</ele>
        <time>2018-02-18T07:54:49Z</time>
      </trkpt>
      <trkpt lat="45.14131" lon="5.77055">
        <ele>349</ele>
        <time>2018-02-18T07:54:50Z</time>
      </trkpt>
      <trkpt lat="45.14121" lon="5.77057">
        <ele>348.4</ele>
        <time>2018-02-18T07:54:54Z</time>
      </trkpt>
      <trkpt lat="45.14104" lon="5.77062">
        <ele>347.9</ele>
        <time>2018-02-18T07:55:00Z</time>
      </trkpt>
      <trkpt lat="45.14085" lon="5.77063">
        <ele>347.4</ele>
        <time>2018-02-18T07:55:07Z</time>
      </trkpt>
      <trkpt lat="45.1407" lon="5.77061">
        <ele>347.1</ele>
        <time>2018-02-18T07:55:13Z</time>
      </trkpt>
      <trkpt lat="45.14064" lon="5.7706">
        <ele>347.5</ele>
        <time>2018-02-18T07:55:15Z</time>
      </trkpt>
      <trkpt lat="45.14055" lon="5.77061">
        <ele>348</ele>
        <time>2018-02-18T07:55:19Z</time>
      </trkpt>
      <trkpt lat="45.1404" lon="5.77065">
        <ele>349</ele>
        <time>2018-02-18T07:55:26Z</time>
      </trkpt>
      <trkpt lat="45.14038" lon="5.77066">
        <ele>349.1</ele>
        <time>2018-02-18T07:55:27Z</time>
      </trkpt>
      <trkpt lat="45.14026" lon="5.77071">
        <ele>349.7</ele>
        <time>2018-02-18T07:55:33Z</time>
      </trkpt>
      <trkpt lat="45.1402" lon="5.77072">
        <ele>349.9</ele>
        <time>2018-02-18T07:55:36Z</time>
      </trkpt>
      <trkpt lat="45.14008" lon="5.77079">
        <ele>350.2</ele>
        <time>2018-02-18T07:55:42Z</time>
      </trkpt>
      <trkpt lat="45.13996" lon="5.77084">
        <ele>350.4</ele>
        <time>2018-02-18T07:55:47Z</time>
      </trkpt>
      <trkpt lat="45.13983" lon="5.77091">
        <ele>350.5</ele>
        <time>2018-02-18T07:55:53Z</time>
      </trkpt>
      <trkpt lat="45.13973" lon="5.77094">
        <ele>350.7</ele>
        <time>2018-02-18T07:55:57Z</time>
      </trkpt>
      <trkpt lat="45.13957" lon="5.77095">
        <ele>350.9</ele>
        <time>2018-02-18T07:56:03Z</time>
      </trkpt>
      <trkpt lat="45.13941" lon="5.77093">
        <ele>351.1</ele>
        <time>2018-02-18T07:56:10Z</time>
      </trkpt>
      <trkpt lat="45.13926" lon="5.77092">
        <ele>351.3</ele>
        <time>2018-02-18T07:56:16Z</time>
      </trkpt>
      <trkpt lat="45.1391" lon="5.77087">
        <ele>351.8</ele>
        <time>2018-02-18T07:56:23Z</time>
      </trkpt>
      <trkpt lat="45.13893" lon="5.77084">
        <ele>352.6</ele>
        <time>2018-02-18T07:56:30Z</time>
      </trkpt>
      <trkpt lat="45.13878" lon="5.77079">
        <ele>353.4</ele>
        <time>2018-02-18T07:56:36Z</time>
      </trkpt>
      <trkpt lat="45.13867" lon="5.77077">
        <ele>353.8</ele>
        <time>2018-02-18T07:56:41Z</time>
      </trkpt>
      <trkpt lat="45.1385" lon="5.77072">
        <ele>354.1</ele>
        <time>2018-02-18T07:56:48Z</time>
      </trkpt>
      <trkpt lat="45.13837" lon="5.77069">
        <ele>354.2</ele>
        <time>2018-02-18T07:56:54Z</time>
      </trkpt>
      <trkpt lat="45.13823" lon="5.77072">
        <ele>354.4</ele>
        <time>2018-02-18T07:57:00Z</time>
      </trkpt>
      <trkpt lat="45.1381" lon="5.77079">
        <ele>354.6</ele>
        <time>2018-02-18T07:57:06Z</time>
      </trkpt>
      <trkpt lat="45.13802" lon="5.7708">
        <ele>354.7</ele>
        <time>2018-02-18T07:57:10Z</time>
      </trkpt>
      <trkpt lat="45.138" lon="5.7708">
        <ele>354.7</ele>
        <time>2018-02-18T07:57:11Z</time>
      </trkpt>
      <trkpt lat="45.13785" lon="5.7707">
        <ele>354.9</ele>
        <time>2018-02-18T07:57:18Z</time>
      </trkpt>
      <trkpt lat="45.13775" lon="5.77062">
        <ele>355</ele>
        <time>2018-02-18T07:57:23Z</time>
      </trkpt>
      <trkpt lat="45.13757" lon="5.77049">
        <ele>354.9</ele>
        <time>2018-02-18T07:57:31Z</time>
      </trkpt>
      <trkpt lat="45.13743" lon="5.77046">
        <ele>355.1</ele>
        <time>2018-02-18T07:57:37Z</time>
      </trkpt>
      <trkpt lat="45.1373" lon="5.77048">
        <ele>355.5</ele>
        <time>2018-02-18T07:57:42Z</time>
      </trkpt>
      <trkpt lat="45.13714" lon="5.77053">
        <ele>356</ele>
        <time>2018-02-18T07:57:49Z</time>
      </trkpt>
      <trkpt lat="45.13706" lon="5.77048">
        <ele>356</ele>
        <time>2018-02-18T07:57:54Z</time>
      </trkpt>
      <trkpt lat="45.13698" lon="5.77035">
        <ele>356</ele>
        <time>2018-02-18T07:57:59Z</time>
      </trkpt>
      <trkpt lat="45.13686" lon="5.77025">
        <ele>357.8</ele>
        <time>2018-02-18T07:58:05Z</time>
      </trkpt>
      <trkpt lat="45.13672" lon="5.77014">
        <ele>358.5</ele>
        <time>2018-02-18T07:58:12Z</time>
      </trkpt>
      <trkpt lat="45.13661" lon="5.77004">
        <ele>358.8</ele>
        <time>2018-02-18T07:58:18Z</time>
      </trkpt>
      <trkpt lat="45.13657" lon="5.77">
        <ele>358.9</ele>
        <time>2018-02-18T07:58:22Z</time>
      </trkpt>
      <trkpt lat="45.13649" lon="5.76986">
        <ele>359.2</ele>
        <time>2018-02-18T07:58:28Z</time>
      </trkpt>
      <trkpt lat="45.13642" lon="5.76977">
        <ele>359.5</ele>
        <time>2018-02-18T07:58:32Z</time>
      </trkpt>
      <trkpt lat="45.13635" lon="5.76966">
        <ele>360</ele>
        <time>2018-02-18T07:58:37Z</time>
      </trkpt>
      <trkpt lat="45.13634" lon="5.76962">
        <ele>360.2</ele>
        <time>2018-02-18T07:58:38Z</time>
      </trkpt>
      <trkpt lat="45.13632" lon="5.76948">
        <ele>360.8</ele>
        <time>2018-02-18T07:58:42Z</time>
      </trkpt>
      <trkpt lat="45.13632" lon="5.76938">
        <ele>361.2</ele>
        <time>2018-02-18T07:58:45Z</time>
      </trkpt>
      <trkpt lat="45.13634" lon="5.76912">
        <ele>361.7</ele>
        <time>2018-02-18T07:58:53Z</time>
      </trkpt>
      <trkpt lat="45.13635" lon="5.76906">
        <ele>361.8</ele>
        <time>2018-02-18T07:58:55Z</time>
      </trkpt>
      <trkpt lat="45.13639" lon="5.76888">
        <ele>362.3</ele>
        <time>2018-02-18T07:59:02Z</time>
      </trkpt>
      <trkpt lat="45.13648" lon="5.76871">
        <ele>363.9</ele>
        <time>2018-02-18T07:59:09Z</time>
      </trkpt>
      <trkpt lat="45.13656" lon="5.76857">
        <ele>366</ele>
        <time>2018-02-18T07:59:16Z</time>
      </trkpt>
      <trkpt lat="45.13667" lon="5.76846">
        <ele>367.8</ele>
        <time>2018-02-18T07:59:23Z</time>
      </trkpt>
      <trkpt lat="45.13683" lon="5.76841">
        <ele>370.5</ele>
        <time>2018-02-18T07:59:31Z</time>
      </trkpt>
      <trkpt lat="45.13695" lon="5.76838">
        <ele>372.4</ele>
        <time>2018-02-18T07:59:37Z</time>
      </trkpt>
      <trkpt lat="45.1371" lon="5.76835">
        <ele>374.8</ele>
        <time>2018-02-18T07:59:44Z</time>
      </trkpt>
      <trkpt lat="45.13723" lon="5.76833">
        <ele>375.9</ele>
        <time>2018-02-18T07:59:50Z</time>
      </trkpt>
      <trkpt lat="45.13737" lon="5.76829">
        <ele>377</ele>
        <time>2018-02-18T07:59:56Z</time>
      </trkpt>
      <trkpt lat="45.13751" lon="5.76824">
        <ele>377.1</ele>
        <time>2018-02-18T08:00:03Z</time>
      </trkpt>
      <trkpt lat="45.13763" lon="5.76821">
        <ele>377.2</ele>
        <time>2018-02-18T08:00:09Z</time>
      </trkpt>
      <trkpt lat="45.13771" lon="5.76819">
        <ele>377.5</ele>
        <time>2018-02-18T08:00:15Z</time>
      </trkpt>
      <trkpt lat="45.1378" lon="5.76817">
        <ele>378.2</ele>
        <time>2018-02-18T08:00:21Z</time>
      </trkpt>
      <trkpt lat="45.13784" lon="5.76817">
        <ele>378.4</ele>
        <time>2018-02-18T08:00:23Z</time>
      </trkpt>
      <trkpt lat="45.13786" lon="5.76817">
        <ele>378.7</ele>
        <time>2018-02-18T08:00:28Z</time>
      </trkpt>
      <trkpt lat="45.13792" lon="5.76815">
        <ele>379.2</ele>
        <time>2018-02-18T08:00:34Z</time>
      </trkpt>
      <trkpt lat="45.13797" lon="5.76812">
        <ele>379.7</ele>
        <time>2018-02-18T08:00:39Z</time>
      </trkpt>
      <trkpt lat="45.13804" lon="5.76809">
        <ele>380.3</ele>
        <time>2018-02-18T08:00:45Z</time>
      </trkpt>
      <trkpt lat="45.13809" lon="5.76807">
        <ele>380.7</ele>
        <time>2018-02-18T08:00:50Z</time>
      </trkpt>
      <trkpt lat="45.13812" lon="5.76806">
        <ele>381</ele>
        <time>2018-02-18T08:00:53Z</time>
      </trkpt>
      <trkpt lat="45.1382" lon="5.76801">
        <ele>381.8</ele>
        <time>2018-02-18T08:01:00Z</time>
      </trkpt>
      <trkpt lat="45.13828" lon="5.76797">
        <ele>382.6</ele>
        <time>2018-02-18T08:01:07Z</time>
      </trkpt>
      <trkpt lat="45.13836" lon="5.76792">
        <ele>383.4</ele>
        <time>2018-02-18T08:01:14Z</time>
      </trkpt>
      <trkpt lat="45.13841" lon="5.76788">
        <ele>383.9</ele>
        <time>2018-02-18T08:01:20Z</time>
      </trkpt>
      <trkpt lat="45.13846" lon="5.76781">
        <ele>384.5</ele>
        <time>2018-02-18T08:01:27Z</time>
      </trkpt>
      <trkpt lat="45.13847" lon="5.7678">
        <ele>384.7</ele>
        <time>2018-02-18T08:01:29Z</time>
      </trkpt>
      <trkpt lat="45.13853" lon="5.76775">
        <ele>385.3</ele>
        <time>2018-02-18T08:01:35Z</time>
      </trkpt>
      <trkpt lat="45.13857" lon="5.76771">
        <ele>385.8</ele>
        <time>2018-02-18T08:01:40Z</time>
      </trkpt>
      <trkpt lat="45.13862" lon="5.76766">
        <ele>386.5</ele>
        <time>2018-02-18T08:01:45Z</time>
      </trkpt>
      <trkpt lat="45.13863" lon="5.76765">
        <ele>386.7</ele>
        <time>2018-02-18T08:01:46Z</time>
      </trkpt>
      <trkpt lat="45.13867" lon="5.76759">
        <ele>387.8</ele>
        <time>2018-02-18T08:01:50Z</time>
      </trkpt>
      <trkpt lat="45.13877" lon="5.76748">
        <ele>390.7</ele>
        <time>2018-02-18T08:01:58Z</time>
      </trkpt>
      <trkpt lat="45.13888" lon="5.76736">
        <ele>393.4</ele>
        <time>2018-02-18T08:02:05Z</time>
      </trkpt>
      <trkpt lat="45.13897" lon="5.76727">
        <ele>395.7</ele>
        <time>2018-02-18T08:02:11Z</time>
      </trkpt>
      <trkpt lat="45.13898" lon="5.76725">
        <ele>396</ele>
        <time>2018-02-18T08:02:12Z</time>
      </trkpt>
      <trkpt lat="45.13905" lon="5.76717">
        <ele>397.9</ele>
        <time>2018-02-18T08:02:17Z</time>
      </trkpt>
      <trkpt lat="45.13911" lon="5.76707">
        <ele>400.1</ele>
        <time>2018-02-18T08:02:22Z</time>
      </trkpt>
      <trkpt lat="45.1392" lon="5.76695">
        <ele>402.9</ele>
        <time>2018-02-18T08:02:29Z</time>
      </trkpt>
      <trkpt lat="45.13927" lon="5.76684">
        <ele>405</ele>
        <time>2018-02-18T08:02:35Z</time>
      </trkpt>
      <trkpt lat="45.13928" lon="5.7668">
        <ele>405.7</ele>
        <time>2018-02-18T08:02:37Z</time>
      </trkpt>
      <trkpt lat="45.13932" lon="5.76671">
        <ele>407.3</ele>
        <time>2018-02-18T08:02:43Z</time>
      </trkpt>
      <trkpt lat="45.13933" lon="5.76668">
        <ele>407.9</ele>
        <time>2018-02-18T08:02:45Z</time>
      </trkpt>
      <trkpt lat="45.13936" lon="5.76663">
        <ele>408.8</ele>
        <time>2018-02-18T08:02:48Z</time>
      </trkpt>
      <trkpt lat="45.13934" lon="5.76656">
        <ele>409.5</ele>
        <time>2018-02-18T08:02:54Z</time>
      </trkpt>
      <trkpt lat="45.13934" lon="5.76656">
        <ele>410</ele>
        <time>2018-02-18T08:02:57Z</time>
      </trkpt>
      <trkpt lat="45.13928" lon="5.76655">
        <ele>410</ele>
        <time>2018-02-18T08:03:03Z</time>
      </trkpt>
      <trkpt lat="45.13927" lon="5.76661">
        <ele>410</ele>
        <time>2018-02-18T08:03:08Z</time>
      </trkpt>
      <trkpt lat="45.13927" lon="5.76662">
        <ele>410</ele>
        <time>2018-02-18T08:03:09Z</time>
      </trkpt>
      <trkpt lat="45.13927" lon="5.76663">
        <ele>410</ele>
        <time>2018-02-18T08:03:10Z</time>
      </trkpt>
      <trkpt lat="45.13929" lon="5.76665">
        <ele>410</ele>
        <time>2018-02-18T08:03:15Z</time>
      </trkpt>
      <trkpt lat="45.1393" lon="5.76664">
        <ele>410</ele>
        <time>2018-02-18T08:03:21Z</time>
      </trkpt>
      <trkpt lat="45.13929" lon="5.76664">
        <ele>410</ele>
        <time>2018-02-18T08:03:34Z</time>
      </trkpt>
      <trkpt lat="45.1393" lon="5.76664">
        <ele>410</ele>
        <time>2018-02-18T08:03:44Z</time>
      </trkpt>
      <trkpt lat="45.13929" lon="5.76661">
        <ele>410</ele>
        <time>2018-02-18T08:03:57Z</time>
      </trkpt>
      <trkpt lat="45.13927" lon="5.76662">
        <ele>410</ele>
        <time>2018-02-18T08:04:01Z</time>
      </trkpt>
      <trkpt lat="45.13925" lon="5.76662">
        <ele>410</ele>
        <time>2018-02-18T08:04:03Z</time>
      </trkpt>
      <trkpt lat="45.13924" lon="5.76659">
        <ele>410</ele>
        <time>2018-02-18T08:04:07Z</time>
      </trkpt>
      <trkpt lat="45.13926" lon="5.76649">
        <ele>410</ele>
        <time>2018-02-18T08:04:14Z</time>
      </trkpt>
      <trkpt lat="45.13927" lon="5.76648">
        <ele>410</ele>
        <time>2018-02-18T08:04:15Z</time>
      </trkpt>
      <trkpt lat="45.13929" lon="5.7665">
        <ele>410</ele>
        <time>2018-02-18T08:04:18Z</time>
      </trkpt>
      <trkpt lat="45.13933" lon="5.76652">
        <ele>410</ele>
        <time>2018-02-18T08:04:24Z</time>
      </trkpt>
      <trkpt lat="45.13934" lon="5.76652">
        <ele>410</ele>
        <time>2018-02-18T08:04:25Z</time>
      </trkpt>
      <trkpt lat="45.13935" lon="5.76646">
        <ele>410</ele>
        <time>2018-02-18T08:04:28Z</time>
      </trkpt>
      <trkpt lat="45.13934" lon="5.76628">
        <ele>410.2</ele>
        <time>2018-02-18T08:04:35Z</time>
      </trkpt>
      <trkpt lat="45.13933" lon="5.76613">
        <ele>412.5</ele>
        <time>2018-02-18T08:04:41Z</time>
      </trkpt>
      <trkpt lat="45.13933" lon="5.76593">
        <ele>415</ele>
        <time>2018-02-18T08:04:48Z</time>
      </trkpt>
      <trkpt lat="45.13934" lon="5.76572">
        <ele>417.4</ele>
        <time>2018-02-18T08:04:56Z</time>
      </trkpt>
      <trkpt lat="45.13931" lon="5.76556">
        <ele>419.2</ele>
        <time>2018-02-18T08:05:02Z</time>
      </trkpt>
      <trkpt lat="45.13927" lon="5.76531">
        <ele>423.1</ele>
        <time>2018-02-18T08:05:12Z</time>
      </trkpt>
      <trkpt lat="45.13926" lon="5.76519">
        <ele>425</ele>
        <time>2018-02-18T08:05:17Z</time>
      </trkpt>
      <trkpt lat="45.13923" lon="5.76503">
        <ele>427.1</ele>
        <time>2018-02-18T08:05:24Z</time>
      </trkpt>
      <trkpt lat="45.13922" lon="5.76495">
        <ele>428</ele>
        <time>2018-02-18T08:05:27Z</time>
      </trkpt>
      <trkpt lat="45.13917" lon="5.76475">
        <ele>430.4</ele>
        <time>2018-02-18T08:05:35Z</time>
      </trkpt>
      <trkpt lat="45.13913" lon="5.7646">
        <ele>432.1</ele>
        <time>2018-02-18T08:05:41Z</time>
      </trkpt>
      <trkpt lat="45.13907" lon="5.76442">
        <ele>434.2</ele>
        <time>2018-02-18T08:05:48Z</time>
      </trkpt>
      <trkpt lat="45.13903" lon="5.76425">
        <ele>436</ele>
        <time>2018-02-18T08:05:55Z</time>
      </trkpt>
      <trkpt lat="45.139" lon="5.76417">
        <ele>437.1</ele>
        <time>2018-02-18T08:05:59Z</time>
      </trkpt>
      <trkpt lat="45.13897" lon="5.76408">
        <ele>438.3</ele>
        <time>2018-02-18T08:06:05Z</time>
      </trkpt>
      <trkpt lat="45.13895" lon="5.76394">
        <ele>439.8</ele>
        <time>2018-02-18T08:06:14Z</time>
      </trkpt>
      <trkpt lat="45.13895" lon="5.76392">
        <ele>440</ele>
        <time>2018-02-18T08:06:15Z</time>
      </trkpt>
      <trkpt lat="45.13893" lon="5.76385">
        <ele>440.2</ele>
        <time>2018-02-18T08:06:18Z</time>
      </trkpt>
      <trkpt lat="45.13891" lon="5.76368">
        <ele>440.6</ele>
        <time>2018-02-18T08:06:27Z</time>
      </trkpt>
      <trkpt lat="45.13891" lon="5.76365">
        <ele>440.6</ele>
        <time>2018-02-18T08:06:28Z</time>
      </trkpt>
      <trkpt lat="45.13889" lon="5.76351">
        <ele>441</ele>
        <time>2018-02-18T08:06:35Z</time>
      </trkpt>
      <trkpt lat="45.13887" lon="5.76337">
        <ele>441.2</ele>
        <time>2018-02-18T08:06:42Z</time>
      </trkpt>
      <trkpt lat="45.13884" lon="5.76321">
        <ele>441.7</ele>
        <time>2018-02-18T08:06:50Z</time>
      </trkpt>
      <trkpt lat="45.1388" lon="5.76302">
        <ele>442.2</ele>
        <time>2018-02-18T08:06:59Z</time>
      </trkpt>
      <trkpt lat="45.13876" lon="5.7629">
        <ele>442.4</ele>
        <time>2018-02-18T08:07:06Z</time>
      </trkpt>
      <trkpt lat="45.13873" lon="5.7628">
        <ele>442.7</ele>
        <time>2018-02-18T08:07:12Z</time>
      </trkpt>
      <trkpt lat="45.13871" lon="5.76269">
        <ele>442.8</ele>
        <time>2018-02-18T08:07:18Z</time>
      </trkpt>
      <trkpt lat="45.13871" lon="5.76268">
        <ele>442.4</ele>
        <time>2018-02-18T08:07:19Z</time>
      </trkpt>
      <trkpt lat="45.13869" lon="5.76249">
        <ele>437.3</ele>
        <time>2018-02-18T08:07:25Z</time>
      </trkpt>
      <trkpt lat="45.13866" lon="5.76223">
        <ele>433.2</ele>
        <time>2018-02-18T08:07:32Z</time>
      </trkpt>
      <trkpt lat="45.13866" lon="5.7622">
        <ele>433.3</ele>
        <time>2018-02-18T08:07:33Z</time>
      </trkpt>
      <trkpt lat="45.13868" lon="5.76206">
        <ele>433.6</ele>
        <time>2018-02-18T08:07:40Z</time>
      </trkpt>
      <trkpt lat="45.13868" lon="5.76205">
        <ele>433.7</ele>
        <time>2018-02-18T08:07:41Z</time>
      </trkpt>
      <trkpt lat="45.13868" lon="5.76204">
        <ele>433.7</ele>
        <time>2018-02-18T08:07:49Z</time>
      </trkpt>
      <trkpt lat="45.13868" lon="5.76202">
        <ele>433.7</ele>
        <time>2018-02-18T08:08:01Z</time>
      </trkpt>
      <trkpt lat="45.13868" lon="5.76201">
        <ele>433.8</ele>
        <time>2018-02-18T08:08:46Z</time>
      </trkpt>
      <trkpt lat="45.13869" lon="5.76204">
        <ele>433.7</ele>
        <time>2018-02-18T08:10:58Z</time>
      </trkpt>
      <trkpt lat="45.1387" lon="5.76208">
        <ele>433.6</ele>
        <time>2018-02-18T08:11:04Z</time>
      </trkpt>
      <trkpt lat="45.13869" lon="5.76204">
        <ele>433</ele>
        <time>2018-02-18T08:11:08Z</time>
      </trkpt>
      <trkpt lat="45.13869" lon="5.76204">
        <ele>433.1</ele>
        <time>2018-02-18T08:11:13Z</time>
      </trkpt>
      <trkpt lat="45.13869" lon="5.7621">
        <ele>433.8</ele>
        <time>2018-02-18T08:11:20Z</time>
      </trkpt>
      <trkpt lat="45.13868" lon="5.76212">
        <ele>434.1</ele>
        <time>2018-02-18T08:11:21Z</time>
      </trkpt>
      <trkpt lat="45.13868" lon="5.76235">
        <ele>436.7</ele>
        <time>2018-02-18T08:11:30Z</time>
      </trkpt>
      <trkpt lat="45.13872" lon="5.76254">
        <ele>438.9</ele>
        <time>2018-02-18T08:11:37Z</time>
      </trkpt>
      <trkpt lat="45.13866" lon="5.76261">
        <ele>443.8</ele>
        <time>2018-02-18T08:11:41Z</time>
      </trkpt>
      <trkpt lat="45.13865" lon="5.76259">
        <ele>444</ele>
        <time>2018-02-18T08:11:42Z</time>
      </trkpt>
      <trkpt lat="45.13859" lon="5.76245">
        <ele>445.4</ele>
        <time>2018-02-18T08:11:48Z</time>
      </trkpt>
      <trkpt lat="45.13852" lon="5.76231">
        <ele>446.5</ele>
        <time>2018-02-18T08:11:54Z</time>
      </trkpt>
      <trkpt lat="45.13844" lon="5.76219">
        <ele>447.8</ele>
        <time>2018-02-18T08:12:00Z</time>
      </trkpt>
      <trkpt lat="45.13835" lon="5.76209">
        <ele>449.3</ele>
        <time>2018-02-18T08:12:07Z</time>
      </trkpt>
      <trkpt lat="45.13826" lon="5.76201">
        <ele>450.2</ele>
        <time>2018-02-18T08:12:13Z</time>
      </trkpt>
      <trkpt lat="45.13818" lon="5.76199">
        <ele>451.1</ele>
        <time>2018-02-18T08:12:17Z</time>
      </trkpt>
      <trkpt lat="45.13808" lon="5.76196">
        <ele>452.2</ele>
        <time>2018-02-18T08:12:23Z</time>
      </trkpt>
      <trkpt lat="45.13803" lon="5.76193">
        <ele>452.8</ele>
        <time>2018-02-18T08:12:26Z</time>
      </trkpt>
      <trkpt lat="45.13797" lon="5.76191">
        <ele>453.6</ele>
        <time>2018-02-18T08:12:30Z</time>
      </trkpt>
      <trkpt lat="45.13796" lon="5.7619">
        <ele>453.7</ele>
        <time>2018-02-18T08:12:31Z</time>
      </trkpt>
      <trkpt lat="45.13793" lon="5.76188">
        <ele>454.2</ele>
        <time>2018-02-18T08:12:33Z</time>
      </trkpt>
      <trkpt lat="45.13785" lon="5.76182">
        <ele>454.7</ele>
        <time>2018-02-18T08:12:39Z</time>
      </trkpt>
      <trkpt lat="45.13778" lon="5.76178">
        <ele>455.5</ele>
        <time>2018-02-18T08:12:44Z</time>
      </trkpt>
      <trkpt lat="45.13774" lon="5.76174">
        <ele>456</ele>
        <time>2018-02-18T08:12:47Z</time>
      </trkpt>
      <trkpt lat="45.1377" lon="5.76171">
        <ele>456.3</ele>
        <time>2018-02-18T08:12:50Z</time>
      </trkpt>
      <trkpt lat="45.13761" lon="5.7616">
        <ele>457.4</ele>
        <time>2018-02-18T08:12:57Z</time>
      </trkpt>
      <trkpt lat="45.13754" lon="5.7615">
        <ele>458.5</ele>
        <time>2018-02-18T08:13:03Z</time>
      </trkpt>
      <trkpt lat="45.13745" lon="5.76139">
        <ele>459.7</ele>
        <time>2018-02-18T08:13:09Z</time>
      </trkpt>
      <trkpt lat="45.13739" lon="5.7613">
        <ele>460.6</ele>
        <time>2018-02-18T08:13:14Z</time>
      </trkpt>
      <trkpt lat="45.13732" lon="5.76118">
        <ele>461.9</ele>
        <time>2018-02-18T08:13:20Z</time>
      </trkpt>
      <trkpt lat="45.13724" lon="5.76106">
        <ele>462.6</ele>
        <time>2018-02-18T08:13:26Z</time>
      </trkpt>
      <trkpt lat="45.13717" lon="5.76094">
        <ele>464</ele>
        <time>2018-02-18T08:13:32Z</time>
      </trkpt>
      <trkpt lat="45.1371" lon="5.76082">
        <ele>464.7</ele>
        <time>2018-02-18T08:13:38Z</time>
      </trkpt>
      <trkpt lat="45.13704" lon="5.76065">
        <ele>465.9</ele>
        <time>2018-02-18T08:13:45Z</time>
      </trkpt>
      <trkpt lat="45.13699" lon="5.76052">
        <ele>466.8</ele>
        <time>2018-02-18T08:13:51Z</time>
      </trkpt>
      <trkpt lat="45.13699" lon="5.76052">
        <ele>466.8</ele>
        <time>2018-02-18T08:13:56Z</time>
      </trkpt>
      <trkpt lat="45.13691" lon="5.76028">
        <ele>468.9</ele>
        <time>2018-02-18T08:14:02Z</time>
      </trkpt>
      <trkpt lat="45.1369" lon="5.76024">
        <ele>469.1</ele>
        <time>2018-02-18T08:14:04Z</time>
      </trkpt>
      <trkpt lat="45.13685" lon="5.76012">
        <ele>470.1</ele>
        <time>2018-02-18T08:14:11Z</time>
      </trkpt>
      <trkpt lat="45.1368" lon="5.75998">
        <ele>471.3</ele>
        <time>2018-02-18T08:14:18Z</time>
      </trkpt>
      <trkpt lat="45.13679" lon="5.75996">
        <ele>471.4</ele>
        <time>2018-02-18T08:14:19Z</time>
      </trkpt>
      <trkpt lat="45.13672" lon="5.75982">
        <ele>473</ele>
        <time>2018-02-18T08:14:25Z</time>
      </trkpt>
      <trkpt lat="45.13666" lon="5.75971">
        <ele>473.5</ele>
        <time>2018-02-18T08:14:30Z</time>
      </trkpt>
      <trkpt lat="45.13665" lon="5.75968">
        <ele>473.8</ele>
        <time>2018-02-18T08:14:32Z</time>
      </trkpt>
      <trkpt lat="45.13661" lon="5.7596">
        <ele>474.8</ele>
        <time>2018-02-18T08:14:36Z</time>
      </trkpt>
      <trkpt lat="45.13655" lon="5.75949">
        <ele>475.7</ele>
        <time>2018-02-18T08:14:42Z</time>
      </trkpt>
      <trkpt lat="45.13653" lon="5.75945">
        <ele>476.2</ele>
        <time>2018-02-18T08:14:44Z</time>
      </trkpt>
      <trkpt lat="45.13649" lon="5.75937">
        <ele>476.9</ele>
        <time>2018-02-18T08:14:48Z</time>
      </trkpt>
      <trkpt lat="45.13642" lon="5.75922">
        <ele>477.8</ele>
        <time>2018-02-18T08:14:55Z</time>
      </trkpt>
      <trkpt lat="45.13638" lon="5.75916">
        <ele>478.6</ele>
        <time>2018-02-18T08:15:00Z</time>
      </trkpt>
      <trkpt lat="45.13635" lon="5.75914">
        <ele>479</ele>
        <time>2018-02-18T08:15:13Z</time>
      </trkpt>
      <trkpt lat="45.13635" lon="5.75911">
        <ele>479.3</ele>
        <time>2018-02-18T08:15:39Z</time>
      </trkpt>
      <trkpt lat="45.13632" lon="5.75904">
        <ele>479.9</ele>
        <time>2018-02-18T08:16:21Z</time>
      </trkpt>
      <trkpt lat="45.1363" lon="5.75903">
        <ele>480</ele>
        <time>2018-02-18T08:16:23Z</time>
      </trkpt>
      <trkpt lat="45.13622" lon="5.75897">
        <ele>481</ele>
        <time>2018-02-18T08:16:29Z</time>
      </trkpt>
      <trkpt lat="45.13621" lon="5.75896">
        <ele>481.1</ele>
        <time>2018-02-18T08:16:30Z</time>
      </trkpt>
      <trkpt lat="45.13619" lon="5.75894">
        <ele>481.2</ele>
        <time>2018-02-18T08:16:31Z</time>
      </trkpt>
      <trkpt lat="45.13614" lon="5.75892">
        <ele>481.5</ele>
        <time>2018-02-18T08:16:35Z</time>
      </trkpt>
      <trkpt lat="45.13604" lon="5.75887">
        <ele>482.5</ele>
        <time>2018-02-18T08:16:41Z</time>
      </trkpt>
      <trkpt lat="45.13596" lon="5.75884">
        <ele>483.6</ele>
        <time>2018-02-18T08:16:46Z</time>
      </trkpt>
      <trkpt lat="45.13586" lon="5.75875">
        <ele>484.8</ele>
        <time>2018-02-18T08:16:51Z</time>
      </trkpt>
      <trkpt lat="45.13586" lon="5.75874">
        <ele>484.9</ele>
        <time>2018-02-18T08:16:52Z</time>
      </trkpt>
      <trkpt lat="45.13579" lon="5.75868">
        <ele>485.7</ele>
        <time>2018-02-18T08:16:56Z</time>
      </trkpt>
      <trkpt lat="45.13575" lon="5.75858">
        <ele>486.2</ele>
        <time>2018-02-18T08:17:01Z</time>
      </trkpt>
      <trkpt lat="45.13567" lon="5.75845">
        <ele>487.8</ele>
        <time>2018-02-18T08:17:07Z</time>
      </trkpt>
      <trkpt lat="45.1356" lon="5.75835">
        <ele>488.5</ele>
        <time>2018-02-18T08:17:12Z</time>
      </trkpt>
      <trkpt lat="45.13559" lon="5.75832">
        <ele>488.7</ele>
        <time>2018-02-18T08:17:13Z</time>
      </trkpt>
      <trkpt lat="45.13556" lon="5.75826">
        <ele>492.2</ele>
        <time>2018-02-18T08:17:16Z</time>
      </trkpt>
      <trkpt lat="45.13548" lon="5.75809">
        <ele>491.2</ele>
        <time>2018-02-18T08:17:23Z</time>
      </trkpt>
      <trkpt lat="45.1354" lon="5.758">
        <ele>492.8</ele>
        <time>2018-02-18T08:17:28Z</time>
      </trkpt>
      <trkpt lat="45.13533" lon="5.75797">
        <ele>494.8</ele>
        <time>2018-02-18T08:17:32Z</time>
      </trkpt>
      <trkpt lat="45.13527" lon="5.75803">
        <ele>495.7</ele>
        <time>2018-02-18T08:17:37Z</time>
      </trkpt>
      <trkpt lat="45.13527" lon="5.75812">
        <ele>496.2</ele>
        <time>2018-02-18T08:17:41Z</time>
      </trkpt>
      <trkpt lat="45.13531" lon="5.75821">
        <ele>496.6</ele>
        <time>2018-02-18T08:17:46Z</time>
      </trkpt>
      <trkpt lat="45.13532" lon="5.75823">
        <ele>496.7</ele>
        <time>2018-02-18T08:17:47Z</time>
      </trkpt>
      <trkpt lat="45.13534" lon="5.75825">
        <ele>496.9</ele>
        <time>2018-02-18T08:17:49Z</time>
      </trkpt>
      <trkpt lat="45.13534" lon="5.75825">
        <ele>496.9</ele>
        <time>2018-02-18T08:17:54Z</time>
      </trkpt>
      <trkpt lat="45.13543" lon="5.75835">
        <ele>498.2</ele>
        <time>2018-02-18T08:17:56Z</time>
      </trkpt>
      <trkpt lat="45.13549" lon="5.75847">
        <ele>498.9</ele>
        <time>2018-02-18T08:18:02Z</time>
      </trkpt>
      <trkpt lat="45.13554" lon="5.75859">
        <ele>500.2</ele>
        <time>2018-02-18T08:18:08Z</time>
      </trkpt>
      <trkpt lat="45.13557" lon="5.75872">
        <ele>500.9</ele>
        <time>2018-02-18T08:18:13Z</time>
      </trkpt>
      <trkpt lat="45.13558" lon="5.75874">
        <ele>501.1</ele>
        <time>2018-02-18T08:18:14Z</time>
      </trkpt>
      <trkpt lat="45.1356" lon="5.75884">
        <ele>502.1</ele>
        <time>2018-02-18T08:18:18Z</time>
      </trkpt>
      <trkpt lat="45.13561" lon="5.75891">
        <ele>502.4</ele>
        <time>2018-02-18T08:18:21Z</time>
      </trkpt>
      <trkpt lat="45.13562" lon="5.75895">
        <ele>502.6</ele>
        <time>2018-02-18T08:18:23Z</time>
      </trkpt>
      <trkpt lat="45.13565" lon="5.75906">
        <ele>503.2</ele>
        <time>2018-02-18T08:18:27Z</time>
      </trkpt>
      <trkpt lat="45.13568" lon="5.75914">
        <ele>504</ele>
        <time>2018-02-18T08:18:31Z</time>
      </trkpt>
      <trkpt lat="45.13572" lon="5.75923">
        <ele>504.7</ele>
        <time>2018-02-18T08:18:35Z</time>
      </trkpt>
      <trkpt lat="45.13574" lon="5.75925">
        <ele>504.8</ele>
        <time>2018-02-18T08:18:36Z</time>
      </trkpt>
      <trkpt lat="45.13578" lon="5.75937">
        <ele>505.5</ele>
        <time>2018-02-18T08:18:41Z</time>
      </trkpt>
      <trkpt lat="45.1358" lon="5.75939">
        <ele>505.7</ele>
        <time>2018-02-18T08:18:42Z</time>
      </trkpt>
      <trkpt lat="45.13586" lon="5.7595">
        <ele>506.5</ele>
        <time>2018-02-18T08:18:48Z</time>
      </trkpt>
      <trkpt lat="45.13587" lon="5.75953">
        <ele>506.6</ele>
        <time>2018-02-18T08:18:49Z</time>
      </trkpt>
      <trkpt lat="45.13587" lon="5.75956">
        <ele>506.7</ele>
        <time>2018-02-18T08:18:50Z</time>
      </trkpt>
      <trkpt lat="45.1359" lon="5.75965">
        <ele>507.6</ele>
        <time>2018-02-18T08:18:54Z</time>
      </trkpt>
      <trkpt lat="45.1359" lon="5.75966">
        <ele>507.8</ele>
        <time>2018-02-18T08:18:55Z</time>
      </trkpt>
      <trkpt lat="45.13592" lon="5.75969">
        <ele>508.1</ele>
        <time>2018-02-18T08:18:56Z</time>
      </trkpt>
      <trkpt lat="45.13596" lon="5.75979">
        <ele>508.7</ele>
        <time>2018-02-18T08:19:00Z</time>
      </trkpt>
      <trkpt lat="45.13599" lon="5.75984">
        <ele>508.9</ele>
        <time>2018-02-18T08:19:02Z</time>
      </trkpt>
      <trkpt lat="45.13603" lon="5.75993">
        <ele>509.5</ele>
        <time>2018-02-18T08:19:06Z</time>
      </trkpt>
      <trkpt lat="45.13607" lon="5.76002">
        <ele>510.4</ele>
        <time>2018-02-18T08:19:10Z</time>
      </trkpt>
      <trkpt lat="45.13611" lon="5.76014">
        <ele>511</ele>
        <time>2018-02-18T08:19:15Z</time>
      </trkpt>
      <trkpt lat="45.13612" lon="5.76016">
        <ele>511.1</ele>
        <time>2018-02-18T08:19:16Z</time>
      </trkpt>
      <trkpt lat="45.13613" lon="5.76022">
        <ele>511.4</ele>
        <time>2018-02-18T08:19:18Z</time>
      </trkpt>
      <trkpt lat="45.13618" lon="5.76034">
        <ele>512.6</ele>
        <time>2018-02-18T08:19:23Z</time>
      </trkpt>
      <trkpt lat="45.13619" lon="5.76039">
        <ele>512.9</ele>
        <time>2018-02-18T08:19:25Z</time>
      </trkpt>
      <trkpt lat="45.13622" lon="5.76054">
        <ele>513.6</ele>
        <time>2018-02-18T08:19:31Z</time>
      </trkpt>
      <trkpt lat="45.13622" lon="5.76056">
        <ele>513.8</ele>
        <time>2018-02-18T08:19:32Z</time>
      </trkpt>
      <trkpt lat="45.13623" lon="5.7607">
        <ele>514.9</ele>
        <time>2018-02-18T08:19:37Z</time>
      </trkpt>
      <trkpt lat="45.13619" lon="5.76079">
        <ele>515.5</ele>
        <time>2018-02-18T08:19:41Z</time>
      </trkpt>
      <trkpt lat="45.1361" lon="5.76079">
        <ele>516.6</ele>
        <time>2018-02-18T08:19:46Z</time>
      </trkpt>
      <trkpt lat="45.13606" lon="5.76076">
        <ele>516.9</ele>
        <time>2018-02-18T08:19:48Z</time>
      </trkpt>
      <trkpt lat="45.13603" lon="5.76072">
        <ele>517.2</ele>
        <time>2018-02-18T08:19:50Z</time>
      </trkpt>
      <trkpt lat="45.136" lon="5.76067">
        <ele>517.5</ele>
        <time>2018-02-18T08:19:53Z</time>
      </trkpt>
      <trkpt lat="45.13593" lon="5.76054">
        <ele>518.4</ele>
        <time>2018-02-18T08:20:00Z</time>
      </trkpt>
      <trkpt lat="45.13586" lon="5.76043">
        <ele>519.4</ele>
        <time>2018-02-18T08:20:06Z</time>
      </trkpt>
      <trkpt lat="45.13578" lon="5.76032">
        <ele>520.7</ele>
        <time>2018-02-18T08:20:12Z</time>
      </trkpt>
      <trkpt lat="45.13569" lon="5.76023">
        <ele>521.5</ele>
        <time>2018-02-18T08:20:18Z</time>
      </trkpt>
      <trkpt lat="45.1356" lon="5.76016">
        <ele>522.5</ele>
        <time>2018-02-18T08:20:24Z</time>
      </trkpt>
      <trkpt lat="45.13552" lon="5.7601">
        <ele>523.4</ele>
        <time>2018-02-18T08:20:29Z</time>
      </trkpt>
      <trkpt lat="45.13544" lon="5.76003">
        <ele>524.2</ele>
        <time>2018-02-18T08:20:35Z</time>
      </trkpt>
      <trkpt lat="45.13537" lon="5.75994">
        <ele>525.4</ele>
        <time>2018-02-18T08:20:41Z</time>
      </trkpt>
      <trkpt lat="45.1353" lon="5.75985">
        <ele>526</ele>
        <time>2018-02-18T08:20:47Z</time>
      </trkpt>
      <trkpt lat="45.1352" lon="5.75971">
        <ele>526</ele>
        <time>2018-02-18T08:20:55Z</time>
      </trkpt>
      <trkpt lat="45.13514" lon="5.75959">
        <ele>526</ele>
        <time>2018-02-18T08:21:01Z</time>
      </trkpt>
      <trkpt lat="45.13508" lon="5.75945">
        <ele>526</ele>
        <time>2018-02-18T08:21:08Z</time>
      </trkpt>
      <trkpt lat="45.13504" lon="5.75934">
        <ele>526.7</ele>
        <time>2018-02-18T08:21:13Z</time>
      </trkpt>
      <trkpt lat="45.13498" lon="5.75921">
        <ele>527.5</ele>
        <time>2018-02-18T08:21:19Z</time>
      </trkpt>
      <trkpt lat="45.13492" lon="5.75911">
        <ele>527.6</ele>
        <time>2018-02-18T08:21:24Z</time>
      </trkpt>
      <trkpt lat="45.13486" lon="5.759">
        <ele>528.1</ele>
        <time>2018-02-18T08:21:30Z</time>
      </trkpt>
      <trkpt lat="45.13479" lon="5.75886">
        <ele>528.2</ele>
        <time>2018-02-18T08:21:37Z</time>
      </trkpt>
      <trkpt lat="45.13476" lon="5.75882">
        <ele>528.3</ele>
        <time>2018-02-18T08:21:39Z</time>
      </trkpt>
      <trkpt lat="45.1347" lon="5.75873">
        <ele>527.8</ele>
        <time>2018-02-18T08:21:45Z</time>
      </trkpt>
      <trkpt lat="45.13462" lon="5.75867">
        <ele>527.6</ele>
        <time>2018-02-18T08:21:52Z</time>
      </trkpt>
      <trkpt lat="45.13462" lon="5.75866">
        <ele>527.6</ele>
        <time>2018-02-18T08:21:53Z</time>
      </trkpt>
      <trkpt lat="45.13461" lon="5.75866">
        <ele>527.5</ele>
        <time>2018-02-18T08:21:55Z</time>
      </trkpt>
      <trkpt lat="45.13455" lon="5.75861">
        <ele>527.2</ele>
        <time>2018-02-18T08:22:00Z</time>
      </trkpt>
      <trkpt lat="45.13447" lon="5.75863">
        <ele>526.4</ele>
        <time>2018-02-18T08:22:06Z</time>
      </trkpt>
      <trkpt lat="45.13446" lon="5.75863">
        <ele>526.3</ele>
        <time>2018-02-18T08:22:07Z</time>
      </trkpt>
      <trkpt lat="45.13441" lon="5.75858">
        <ele>525.8</ele>
        <time>2018-02-18T08:22:12Z</time>
      </trkpt>
      <trkpt lat="45.13431" lon="5.75855">
        <ele>525.4</ele>
        <time>2018-02-18T08:22:18Z</time>
      </trkpt>
      <trkpt lat="45.13419" lon="5.7585">
        <ele>526.8</ele>
        <time>2018-02-18T08:22:24Z</time>
      </trkpt>
      <trkpt lat="45.13408" lon="5.75844">
        <ele>527.3</ele>
        <time>2018-02-18T08:22:30Z</time>
      </trkpt>
      <trkpt lat="45.13406" lon="5.75843">
        <ele>527.3</ele>
        <time>2018-02-18T08:22:31Z</time>
      </trkpt>
      <trkpt lat="45.13397" lon="5.75837">
        <ele>527.6</ele>
        <time>2018-02-18T08:22:36Z</time>
      </trkpt>
      <trkpt lat="45.13394" lon="5.75837">
        <ele>527.6</ele>
        <time>2018-02-18T08:22:38Z</time>
      </trkpt>
      <trkpt lat="45.13388" lon="5.75843">
        <ele>527.3</ele>
        <time>2018-02-18T08:22:42Z</time>
      </trkpt>
      <trkpt lat="45.13383" lon="5.75851">
        <ele>527.6</ele>
        <time>2018-02-18T08:22:47Z</time>
      </trkpt>
      <trkpt lat="45.13375" lon="5.75865">
        <ele>529</ele>
        <time>2018-02-18T08:22:55Z</time>
      </trkpt>
      <trkpt lat="45.13367" lon="5.75878">
        <ele>530.5</ele>
        <time>2018-02-18T08:23:01Z</time>
      </trkpt>
      <trkpt lat="45.13365" lon="5.75879">
        <ele>530.8</ele>
        <time>2018-02-18T08:23:02Z</time>
      </trkpt>
      <trkpt lat="45.13364" lon="5.7588">
        <ele>530.9</ele>
        <time>2018-02-18T08:23:03Z</time>
      </trkpt>
      <trkpt lat="45.13354" lon="5.75878">
        <ele>531.8</ele>
        <time>2018-02-18T08:23:08Z</time>
      </trkpt>
      <trkpt lat="45.13352" lon="5.75878">
        <ele>532</ele>
        <time>2018-02-18T08:23:09Z</time>
      </trkpt>
      <trkpt lat="45.13345" lon="5.75875">
        <ele>532</ele>
        <time>2018-02-18T08:23:13Z</time>
      </trkpt>
      <trkpt lat="45.13334" lon="5.7587">
        <ele>530.9</ele>
        <time>2018-02-18T08:23:21Z</time>
      </trkpt>
      <trkpt lat="45.13332" lon="5.7587">
        <ele>530.9</ele>
        <time>2018-02-18T08:23:22Z</time>
      </trkpt>
      <trkpt lat="45.1333" lon="5.75867">
        <ele>530.4</ele>
        <time>2018-02-18T08:23:26Z</time>
      </trkpt>
      <trkpt lat="45.13328" lon="5.75865">
        <ele>530.1</ele>
        <time>2018-02-18T08:23:31Z</time>
      </trkpt>
      <trkpt lat="45.13325" lon="5.75861">
        <ele>529.6</ele>
        <time>2018-02-18T08:23:36Z</time>
      </trkpt>
      <trkpt lat="45.13327" lon="5.75862">
        <ele>529.8</ele>
        <time>2018-02-18T08:23:39Z</time>
      </trkpt>
      <trkpt lat="45.1333" lon="5.75867">
        <ele>530.2</ele>
        <time>2018-02-18T08:23:44Z</time>
      </trkpt>
      <trkpt lat="45.13333" lon="5.7587">
        <ele>530.6</ele>
        <time>2018-02-18T08:23:48Z</time>
      </trkpt>
      <trkpt lat="45.13337" lon="5.7587">
        <ele>530.8</ele>
        <time>2018-02-18T08:23:51Z</time>
      </trkpt>
      <trkpt lat="45.13342" lon="5.75873">
        <ele>531.4</ele>
        <time>2018-02-18T08:23:55Z</time>
      </trkpt>
      <trkpt lat="45.13352" lon="5.7588">
        <ele>532</ele>
        <time>2018-02-18T08:24:02Z</time>
      </trkpt>
      <trkpt lat="45.13353" lon="5.75882">
        <ele>532</ele>
        <time>2018-02-18T08:24:03Z</time>
      </trkpt>
      <trkpt lat="45.13356" lon="5.75886">
        <ele>532</ele>
        <time>2018-02-18T08:24:05Z</time>
      </trkpt>
      <trkpt lat="45.13365" lon="5.75877">
        <ele>532</ele>
        <time>2018-02-18T08:24:11Z</time>
      </trkpt>
      <trkpt lat="45.1337" lon="5.75871">
        <ele>531.7</ele>
        <time>2018-02-18T08:24:14Z</time>
      </trkpt>
      <trkpt lat="45.13378" lon="5.75869">
        <ele>531.4</ele>
        <time>2018-02-18T08:24:18Z</time>
      </trkpt>
      <trkpt lat="45.13381" lon="5.75869">
        <ele>531.3</ele>
        <time>2018-02-18T08:24:23Z</time>
      </trkpt>
      <trkpt lat="45.13382" lon="5.75868">
        <ele>531.2</ele>
        <time>2018-02-18T08:24:27Z</time>
      </trkpt>
      <trkpt lat="45.13385" lon="5.75869">
        <ele>531.1</ele>
        <time>2018-02-18T08:24:32Z</time>
      </trkpt>
      <trkpt lat="45.13387" lon="5.75869">
        <ele>531</ele>
        <time>2018-02-18T08:24:37Z</time>
      </trkpt>
      <trkpt lat="45.1339" lon="5.75869">
        <ele>530.8</ele>
        <time>2018-02-18T08:24:41Z</time>
      </trkpt>
      <trkpt lat="45.13392" lon="5.75869">
        <ele>530.9</ele>
        <time>2018-02-18T08:24:45Z</time>
      </trkpt>
      <trkpt lat="45.13394" lon="5.75872">
        <ele>530.8</ele>
        <time>2018-02-18T08:24:51Z</time>
      </trkpt>
      <trkpt lat="45.13396" lon="5.75874">
        <ele>531</ele>
        <time>2018-02-18T08:24:56Z</time>
      </trkpt>
      <trkpt lat="45.13397" lon="5.75873">
        <ele>531.1</ele>
        <time>2018-02-18T08:25:01Z</time>
      </trkpt>
      <trkpt lat="45.13401" lon="5.75872">
        <ele>530.6</ele>
        <time>2018-02-18T08:25:10Z</time>
      </trkpt>
      <trkpt lat="45.13403" lon="5.75871">
        <ele>530.6</ele>
        <time>2018-02-18T08:25:11Z</time>
      </trkpt>
      <trkpt lat="45.13407" lon="5.75868">
        <ele>530.1</ele>
        <time>2018-02-18T08:25:15Z</time>
      </trkpt>
      <trkpt lat="45.13409" lon="5.75868">
        <ele>530.2</ele>
        <time>2018-02-18T08:25:17Z</time>
      </trkpt>
      <trkpt lat="45.13414" lon="5.75874">
        <ele>530.6</ele>
        <time>2018-02-18T08:25:24Z</time>
      </trkpt>
      <trkpt lat="45.13417" lon="5.75878">
        <ele>530.8</ele>
        <time>2018-02-18T08:25:29Z</time>
      </trkpt>
      <trkpt lat="45.13418" lon="5.7588">
        <ele>530.9</ele>
        <time>2018-02-18T08:25:38Z</time>
      </trkpt>
      <trkpt lat="45.13418" lon="5.7588">
        <ele>530.9</ele>
        <time>2018-02-18T08:25:45Z</time>
      </trkpt>
      <trkpt lat="45.13418" lon="5.7588">
        <ele>530.9</ele>
        <time>2018-02-18T08:28:58Z</time>
      </trkpt>
      <trkpt lat="45.13461" lon="5.75948">
        <ele>530.9</ele>
        <time>2018-02-18T08:29:02Z</time>
      </trkpt>
      <trkpt lat="45.13457" lon="5.75938">
        <ele>531.2</ele>
        <time>2018-02-18T08:29:14Z</time>
      </trkpt>
      <trkpt lat="45.13456" lon="5.75936">
        <ele>531.3</ele>
        <time>2018-02-18T08:29:21Z</time>
      </trkpt>
      <trkpt lat="45.13456" lon="5.75936">
        <ele>531.4</ele>
        <time>2018-02-18T08:29:23Z</time>
      </trkpt>
      <trkpt lat="45.13452" lon="5.75937">
        <ele>531.6</ele>
        <time>2018-02-18T08:29:28Z</time>
      </trkpt>
      <trkpt lat="45.13456" lon="5.75931">
        <ele>531.4</ele>
        <time>2018-02-18T08:29:35Z</time>
      </trkpt>
      <trkpt lat="45.13456" lon="5.7593">
        <ele>531.4</ele>
        <time>2018-02-18T08:29:45Z</time>
      </trkpt>
      <trkpt lat="45.13456" lon="5.7593">
        <ele>531.6</ele>
        <time>2018-02-18T08:30:10Z</time>
      </trkpt>
      <trkpt lat="45.13458" lon="5.75927">
        <ele>531.5</ele>
        <time>2018-02-18T08:30:17Z</time>
      </trkpt>
      <trkpt lat="45.1346" lon="5.75925">
        <ele>531.3</ele>
        <time>2018-02-18T08:30:19Z</time>
      </trkpt>
      <trkpt lat="45.13465" lon="5.75926">
        <ele>530.9</ele>
        <time>2018-02-18T08:30:25Z</time>
      </trkpt>
      <trkpt lat="45.13466" lon="5.75926">
        <ele>530.9</ele>
        <time>2018-02-18T08:30:26Z</time>
      </trkpt>
      <trkpt lat="45.13469" lon="5.75925">
        <ele>530.6</ele>
        <time>2018-02-18T08:30:28Z</time>
      </trkpt>
      <trkpt lat="45.13469" lon="5.75917">
        <ele>530.4</ele>
        <time>2018-02-18T08:30:33Z</time>
      </trkpt>
      <trkpt lat="45.13468" lon="5.75915">
        <ele>530.3</ele>
        <time>2018-02-18T08:30:34Z</time>
      </trkpt>
      <trkpt lat="45.13464" lon="5.75899">
        <ele>530.4</ele>
        <time>2018-02-18T08:30:41Z</time>
      </trkpt>
      <trkpt lat="45.13462" lon="5.75892">
        <ele>529.8</ele>
        <time>2018-02-18T08:30:44Z</time>
      </trkpt>
      <trkpt lat="45.13461" lon="5.75886">
        <ele>529.7</ele>
        <time>2018-02-18T08:30:48Z</time>
      </trkpt>
      <trkpt lat="45.13461" lon="5.75878">
        <ele>528.8</ele>
        <time>2018-02-18T08:30:52Z</time>
      </trkpt>
      <trkpt lat="45.13463" lon="5.75872">
        <ele>527.6</ele>
        <time>2018-02-18T08:30:55Z</time>
      </trkpt>
      <trkpt lat="45.13465" lon="5.7587">
        <ele>527.7</ele>
        <time>2018-02-18T08:30:57Z</time>
      </trkpt>
      <trkpt lat="45.13465" lon="5.7587">
        <ele>527.7</ele>
        <time>2018-02-18T08:31:00Z</time>
      </trkpt>
      <trkpt lat="45.13468" lon="5.75881">
        <ele>528</ele>
        <time>2018-02-18T08:31:06Z</time>
      </trkpt>
      <trkpt lat="45.13469" lon="5.75883">
        <ele>528</ele>
        <time>2018-02-18T08:31:07Z</time>
      </trkpt>
      <trkpt lat="45.13469" lon="5.75883">
        <ele>528</ele>
        <time>2018-02-18T08:31:09Z</time>
      </trkpt>
      <trkpt lat="45.13474" lon="5.75896">
        <ele>528.2</ele>
        <time>2018-02-18T08:31:14Z</time>
      </trkpt>
      <trkpt lat="45.13475" lon="5.75899">
        <ele>528.2</ele>
        <time>2018-02-18T08:31:15Z</time>
      </trkpt>
      <trkpt lat="45.13477" lon="5.75906">
        <ele>528.1</ele>
        <time>2018-02-18T08:31:19Z</time>
      </trkpt>
      <trkpt lat="45.13483" lon="5.75918">
        <ele>527.7</ele>
        <time>2018-02-18T08:31:25Z</time>
      </trkpt>
      <trkpt lat="45.13483" lon="5.7592">
        <ele>527.6</ele>
        <time>2018-02-18T08:31:26Z</time>
      </trkpt>
      <trkpt lat="45.13487" lon="5.75933">
        <ele>527.5</ele>
        <time>2018-02-18T08:31:31Z</time>
      </trkpt>
      <trkpt lat="45.1349" lon="5.75946">
        <ele>526.8</ele>
        <time>2018-02-18T08:31:36Z</time>
      </trkpt>
      <trkpt lat="45.13494" lon="5.75955">
        <ele>526.1</ele>
        <time>2018-02-18T08:31:40Z</time>
      </trkpt>
      <trkpt lat="45.13494" lon="5.75957">
        <ele>526</ele>
        <time>2018-02-18T08:31:41Z</time>
      </trkpt>
      <trkpt lat="45.13499" lon="5.75969">
        <ele>526</ele>
        <time>2018-02-18T08:31:46Z</time>
      </trkpt>
      <trkpt lat="45.13506" lon="5.7598">
        <ele>526</ele>
        <time>2018-02-18T08:31:51Z</time>
      </trkpt>
      <trkpt lat="45.13509" lon="5.75988">
        <ele>526</ele>
        <time>2018-02-18T08:31:54Z</time>
      </trkpt>
      <trkpt lat="45.13507" lon="5.75992">
        <ele>526</ele>
        <time>2018-02-18T08:31:56Z</time>
      </trkpt>
      <trkpt lat="45.13501" lon="5.75997">
        <ele>527.2</ele>
        <time>2018-02-18T08:32:01Z</time>
      </trkpt>
      <trkpt lat="45.13499" lon="5.76001">
        <ele>527.4</ele>
        <time>2018-02-18T08:32:03Z</time>
      </trkpt>
      <trkpt lat="45.13499" lon="5.76001">
        <ele>527.4</ele>
        <time>2018-02-18T08:32:05Z</time>
      </trkpt>
      <trkpt lat="45.13502" lon="5.76021">
        <ele>528.1</ele>
        <time>2018-02-18T08:32:11Z</time>
      </trkpt>
      <trkpt lat="45.13506" lon="5.76031">
        <ele>527.2</ele>
        <time>2018-02-18T08:32:16Z</time>
      </trkpt>
      <trkpt lat="45.13506" lon="5.76032">
        <ele>527.2</ele>
        <time>2018-02-18T08:32:17Z</time>
      </trkpt>
      <trkpt lat="45.13506" lon="5.76033">
        <ele>527.1</ele>
        <time>2018-02-18T08:32:18Z</time>
      </trkpt>
      <trkpt lat="45.13506" lon="5.76036">
        <ele>527</ele>
        <time>2018-02-18T08:32:25Z</time>
      </trkpt>
      <trkpt lat="45.13506" lon="5.76039">
        <ele>527</ele>
        <time>2018-02-18T08:32:29Z</time>
      </trkpt>
      <trkpt lat="45.13509" lon="5.76043">
        <ele>526.8</ele>
        <time>2018-02-18T08:32:33Z</time>
      </trkpt>
      <trkpt lat="45.13508" lon="5.76047">
        <ele>526.6</ele>
        <time>2018-02-18T08:32:35Z</time>
      </trkpt>
      <trkpt lat="45.13509" lon="5.76053">
        <ele>526.4</ele>
        <time>2018-02-18T08:32:38Z</time>
      </trkpt>
      <trkpt lat="45.13513" lon="5.76058">
        <ele>526.1</ele>
        <time>2018-02-18T08:32:43Z</time>
      </trkpt>
      <trkpt lat="45.13514" lon="5.76062">
        <ele>526</ele>
        <time>2018-02-18T08:32:45Z</time>
      </trkpt>
      <trkpt lat="45.13518" lon="5.76069">
        <ele>525.6</ele>
        <time>2018-02-18T08:32:49Z</time>
      </trkpt>
      <trkpt lat="45.13519" lon="5.76075">
        <ele>525.1</ele>
        <time>2018-02-18T08:32:51Z</time>
      </trkpt>
      <trkpt lat="45.13521" lon="5.76086">
        <ele>524.4</ele>
        <time>2018-02-18T08:32:56Z</time>
      </trkpt>
      <trkpt lat="45.13525" lon="5.76094">
        <ele>524</ele>
        <time>2018-02-18T08:33:00Z</time>
      </trkpt>
      <trkpt lat="45.13526" lon="5.761">
        <ele>523.7</ele>
        <time>2018-02-18T08:33:02Z</time>
      </trkpt>
      <trkpt lat="45.13528" lon="5.76108">
        <ele>523.1</ele>
        <time>2018-02-18T08:33:05Z</time>
      </trkpt>
      <trkpt lat="45.13529" lon="5.76126">
        <ele>522</ele>
        <time>2018-02-18T08:33:11Z</time>
      </trkpt>
      <trkpt lat="45.13532" lon="5.76146">
        <ele>521.1</ele>
        <time>2018-02-18T08:33:17Z</time>
      </trkpt>
      <trkpt lat="45.13536" lon="5.76162">
        <ele>520</ele>
        <time>2018-02-18T08:33:22Z</time>
      </trkpt>
      <trkpt lat="45.13537" lon="5.76173">
        <ele>519.6</ele>
        <time>2018-02-18T08:33:26Z</time>
      </trkpt>
      <trkpt lat="45.13538" lon="5.76175">
        <ele>519.4</ele>
        <time>2018-02-18T08:33:27Z</time>
      </trkpt>
      <trkpt lat="45.13538" lon="5.76178">
        <ele>519.2</ele>
        <time>2018-02-18T08:33:28Z</time>
      </trkpt>
      <trkpt lat="45.1354" lon="5.76186">
        <ele>518.6</ele>
        <time>2018-02-18T08:33:31Z</time>
      </trkpt>
      <trkpt lat="45.13545" lon="5.76196">
        <ele>517.2</ele>
        <time>2018-02-18T08:33:35Z</time>
      </trkpt>
      <trkpt lat="45.13554" lon="5.76211">
        <ele>514.7</ele>
        <time>2018-02-18T08:33:41Z</time>
      </trkpt>
      <trkpt lat="45.13559" lon="5.76215">
        <ele>513.8</ele>
        <time>2018-02-18T08:33:43Z</time>
      </trkpt>
      <trkpt lat="45.13568" lon="5.76224">
        <ele>512.3</ele>
        <time>2018-02-18T08:33:48Z</time>
      </trkpt>
      <trkpt lat="45.13579" lon="5.76231">
        <ele>511.2</ele>
        <time>2018-02-18T08:33:53Z</time>
      </trkpt>
      <trkpt lat="45.13587" lon="5.76237">
        <ele>510.8</ele>
        <time>2018-02-18T08:33:57Z</time>
      </trkpt>
      <trkpt lat="45.13591" lon="5.7624">
        <ele>510.6</ele>
        <time>2018-02-18T08:33:59Z</time>
      </trkpt>
      <trkpt lat="45.13597" lon="5.76245">
        <ele>510.3</ele>
        <time>2018-02-18T08:34:02Z</time>
      </trkpt>
      <trkpt lat="45.13609" lon="5.76255">
        <ele>509</ele>
        <time>2018-02-18T08:34:08Z</time>
      </trkpt>
      <trkpt lat="45.1362" lon="5.76262">
        <ele>508.5</ele>
        <time>2018-02-18T08:34:13Z</time>
      </trkpt>
      <trkpt lat="45.13629" lon="5.76265">
        <ele>507.9</ele>
        <time>2018-02-18T08:34:17Z</time>
      </trkpt>
      <trkpt lat="45.13645" lon="5.76266">
        <ele>506.9</ele>
        <time>2018-02-18T08:34:24Z</time>
      </trkpt>
      <trkpt lat="45.13655" lon="5.76268">
        <ele>505.2</ele>
        <time>2018-02-18T08:34:29Z</time>
      </trkpt>
      <trkpt lat="45.13661" lon="5.76272">
        <ele>504.7</ele>
        <time>2018-02-18T08:34:32Z</time>
      </trkpt>
      <trkpt lat="45.13668" lon="5.76281">
        <ele>502.8</ele>
        <time>2018-02-18T08:34:38Z</time>
      </trkpt>
      <trkpt lat="45.1367" lon="5.76282">
        <ele>502.4</ele>
        <time>2018-02-18T08:34:39Z</time>
      </trkpt>
      <trkpt lat="45.13673" lon="5.76282">
        <ele>501.9</ele>
        <time>2018-02-18T08:34:40Z</time>
      </trkpt>
      <trkpt lat="45.1368" lon="5.76289">
        <ele>500</ele>
        <time>2018-02-18T08:34:44Z</time>
      </trkpt>
      <trkpt lat="45.13686" lon="5.76293">
        <ele>497.6</ele>
        <time>2018-02-18T08:34:48Z</time>
      </trkpt>
      <trkpt lat="45.13691" lon="5.763">
        <ele>495.9</ele>
        <time>2018-02-18T08:34:52Z</time>
      </trkpt>
      <trkpt lat="45.13691" lon="5.76301">
        <ele>495.7</ele>
        <time>2018-02-18T08:34:53Z</time>
      </trkpt>
      <trkpt lat="45.13692" lon="5.76305">
        <ele>495</ele>
        <time>2018-02-18T08:34:54Z</time>
      </trkpt>
      <trkpt lat="45.13692" lon="5.76305">
        <ele>495</ele>
        <time>2018-02-18T08:35:00Z</time>
      </trkpt>
      <trkpt lat="45.13698" lon="5.76329">
        <ele>491.5</ele>
        <time>2018-02-18T08:35:04Z</time>
      </trkpt>
      <trkpt lat="45.1371" lon="5.76339">
        <ele>487.1</ele>
        <time>2018-02-18T08:35:12Z</time>
      </trkpt>
      <trkpt lat="45.13712" lon="5.76341">
        <ele>486.5</ele>
        <time>2018-02-18T08:35:13Z</time>
      </trkpt>
      <trkpt lat="45.13722" lon="5.76342">
        <ele>483.9</ele>
        <time>2018-02-18T08:35:18Z</time>
      </trkpt>
      <trkpt lat="45.13727" lon="5.76343">
        <ele>482.3</ele>
        <time>2018-02-18T08:35:21Z</time>
      </trkpt>
      <trkpt lat="45.13733" lon="5.76342">
        <ele>480.7</ele>
        <time>2018-02-18T08:35:24Z</time>
      </trkpt>
      <trkpt lat="45.1374" lon="5.76343">
        <ele>478.7</ele>
        <time>2018-02-18T08:35:29Z</time>
      </trkpt>
      <trkpt lat="45.13742" lon="5.76343">
        <ele>478.3</ele>
        <time>2018-02-18T08:35:30Z</time>
      </trkpt>
      <trkpt lat="45.13747" lon="5.76342">
        <ele>477.1</ele>
        <time>2018-02-18T08:35:33Z</time>
      </trkpt>
      <trkpt lat="45.13758" lon="5.76344">
        <ele>474.2</ele>
        <time>2018-02-18T08:35:39Z</time>
      </trkpt>
      <trkpt lat="45.1377" lon="5.76346">
        <ele>470.4</ele>
        <time>2018-02-18T08:35:44Z</time>
      </trkpt>
      <trkpt lat="45.13779" lon="5.7635">
        <ele>467.5</ele>
        <time>2018-02-18T08:35:49Z</time>
      </trkpt>
      <trkpt lat="45.13785" lon="5.76354">
        <ele>465.6</ele>
        <time>2018-02-18T08:35:53Z</time>
      </trkpt>
      <trkpt lat="45.13797" lon="5.7636">
        <ele>462.7</ele>
        <time>2018-02-18T08:35:59Z</time>
      </trkpt>
      <trkpt lat="45.13804" lon="5.76362">
        <ele>461.3</ele>
        <time>2018-02-18T08:36:03Z</time>
      </trkpt>
      <trkpt lat="45.13815" lon="5.76369">
        <ele>458.8</ele>
        <time>2018-02-18T08:36:09Z</time>
      </trkpt>
      <trkpt lat="45.13822" lon="5.76375">
        <ele>456.7</ele>
        <time>2018-02-18T08:36:13Z</time>
      </trkpt>
      <trkpt lat="45.1383" lon="5.76385">
        <ele>454.4</ele>
        <time>2018-02-18T08:36:18Z</time>
      </trkpt>
      <trkpt lat="45.13831" lon="5.76387">
        <ele>454.1</ele>
        <time>2018-02-18T08:36:19Z</time>
      </trkpt>
      <trkpt lat="45.13835" lon="5.76392">
        <ele>452.9</ele>
        <time>2018-02-18T08:36:22Z</time>
      </trkpt>
      <trkpt lat="45.13841" lon="5.76399">
        <ele>451.3</ele>
        <time>2018-02-18T08:36:26Z</time>
      </trkpt>
      <trkpt lat="45.13848" lon="5.76406">
        <ele>449.2</ele>
        <time>2018-02-18T08:36:31Z</time>
      </trkpt>
      <trkpt lat="45.13851" lon="5.76407">
        <ele>448.6</ele>
        <time>2018-02-18T08:36:33Z</time>
      </trkpt>
      <trkpt lat="45.13855" lon="5.76404">
        <ele>447.8</ele>
        <time>2018-02-18T08:36:35Z</time>
      </trkpt>
      <trkpt lat="45.13858" lon="5.76402">
        <ele>447.1</ele>
        <time>2018-02-18T08:36:39Z</time>
      </trkpt>
      <trkpt lat="45.13859" lon="5.76402">
        <ele>446.8</ele>
        <time>2018-02-18T08:36:40Z</time>
      </trkpt>
      <trkpt lat="45.13867" lon="5.76398">
        <ele>445.5</ele>
        <time>2018-02-18T08:36:45Z</time>
      </trkpt>
      <trkpt lat="45.13868" lon="5.76398">
        <ele>445.2</ele>
        <time>2018-02-18T08:36:46Z</time>
      </trkpt>
      <trkpt lat="45.1387" lon="5.76398">
        <ele>444.9</ele>
        <time>2018-02-18T08:36:47Z</time>
      </trkpt>
      <trkpt lat="45.13878" lon="5.76393">
        <ele>443.5</ele>
        <time>2018-02-18T08:36:52Z</time>
      </trkpt>
      <trkpt lat="45.13892" lon="5.76392">
        <ele>441.3</ele>
        <time>2018-02-18T08:36:59Z</time>
      </trkpt>
      <trkpt lat="45.13894" lon="5.76393">
        <ele>441</ele>
        <time>2018-02-18T08:37:00Z</time>
      </trkpt>
      <trkpt lat="45.13899" lon="5.76409">
        <ele>438.2</ele>
        <time>2018-02-18T08:37:05Z</time>
      </trkpt>
      <trkpt lat="45.13899" lon="5.76412">
        <ele>437.8</ele>
        <time>2018-02-18T08:37:06Z</time>
      </trkpt>
      <trkpt lat="45.13906" lon="5.7643">
        <ele>435.5</ele>
        <time>2018-02-18T08:37:12Z</time>
      </trkpt>
      <trkpt lat="45.13913" lon="5.76448">
        <ele>433.2</ele>
        <time>2018-02-18T08:37:18Z</time>
      </trkpt>
      <trkpt lat="45.13921" lon="5.76469">
        <ele>430.9</ele>
        <time>2018-02-18T08:37:25Z</time>
      </trkpt>
      <trkpt lat="45.13927" lon="5.76487">
        <ele>428.7</ele>
        <time>2018-02-18T08:37:31Z</time>
      </trkpt>
      <trkpt lat="45.1393" lon="5.76505">
        <ele>426.5</ele>
        <time>2018-02-18T08:37:36Z</time>
      </trkpt>
      <trkpt lat="45.13933" lon="5.76516">
        <ele>425.2</ele>
        <time>2018-02-18T08:37:39Z</time>
      </trkpt>
      <trkpt lat="45.13934" lon="5.76537">
        <ele>421.8</ele>
        <time>2018-02-18T08:37:45Z</time>
      </trkpt>
      <trkpt lat="45.13936" lon="5.76552">
        <ele>419.5</ele>
        <time>2018-02-18T08:37:50Z</time>
      </trkpt>
      <trkpt lat="45.13937" lon="5.76556">
        <ele>419</ele>
        <time>2018-02-18T08:37:51Z</time>
      </trkpt>
      <trkpt lat="45.1394" lon="5.76584">
        <ele>416</ele>
        <time>2018-02-18T08:37:59Z</time>
      </trkpt>
      <trkpt lat="45.1394" lon="5.76603">
        <ele>413.8</ele>
        <time>2018-02-18T08:38:05Z</time>
      </trkpt>
      <trkpt lat="45.13941" lon="5.76622">
        <ele>410.8</ele>
        <time>2018-02-18T08:38:11Z</time>
      </trkpt>
      <trkpt lat="45.13942" lon="5.76624">
        <ele>410.6</ele>
        <time>2018-02-18T08:38:12Z</time>
      </trkpt>
      <trkpt lat="45.13942" lon="5.76627">
        <ele>410.2</ele>
        <time>2018-02-18T08:38:20Z</time>
      </trkpt>
      <trkpt lat="45.13942" lon="5.76628">
        <ele>410.2</ele>
        <time>2018-02-18T08:38:36Z</time>
      </trkpt>
      <trkpt lat="45.13943" lon="5.76624">
        <ele>410.4</ele>
        <time>2018-02-18T08:38:51Z</time>
      </trkpt>
      <trkpt lat="45.13948" lon="5.76614">
        <ele>410.8</ele>
        <time>2018-02-18T08:38:56Z</time>
      </trkpt>
      <trkpt lat="45.13954" lon="5.76603">
        <ele>411.5</ele>
        <time>2018-02-18T08:39:01Z</time>
      </trkpt>
      <trkpt lat="45.1396" lon="5.76589">
        <ele>412</ele>
        <time>2018-02-18T08:39:07Z</time>
      </trkpt>
      <trkpt lat="45.13967" lon="5.76577">
        <ele>412.5</ele>
        <time>2018-02-18T08:39:13Z</time>
      </trkpt>
      <trkpt lat="45.13973" lon="5.76569">
        <ele>412.6</ele>
        <time>2018-02-18T08:39:18Z</time>
      </trkpt>
      <trkpt lat="45.1398" lon="5.76563">
        <ele>412.8</ele>
        <time>2018-02-18T08:39:23Z</time>
      </trkpt>
      <trkpt lat="45.13986" lon="5.76556">
        <ele>412.1</ele>
        <time>2018-02-18T08:39:28Z</time>
      </trkpt>
      <trkpt lat="45.13992" lon="5.76551">
        <ele>411.6</ele>
        <time>2018-02-18T08:39:32Z</time>
      </trkpt>
      <trkpt lat="45.13995" lon="5.76548">
        <ele>411.3</ele>
        <time>2018-02-18T08:39:34Z</time>
      </trkpt>
      <trkpt lat="45.14003" lon="5.76541">
        <ele>410.9</ele>
        <time>2018-02-18T08:39:39Z</time>
      </trkpt>
      <trkpt lat="45.14005" lon="5.7654">
        <ele>410.7</ele>
        <time>2018-02-18T08:39:40Z</time>
      </trkpt>
      <trkpt lat="45.14007" lon="5.76537">
        <ele>410.4</ele>
        <time>2018-02-18T08:39:42Z</time>
      </trkpt>
      <trkpt lat="45.14007" lon="5.76536">
        <ele>410.3</ele>
        <time>2018-02-18T08:39:43Z</time>
      </trkpt>
      <trkpt lat="45.14009" lon="5.76534">
        <ele>410.1</ele>
        <time>2018-02-18T08:39:45Z</time>
      </trkpt>
      <trkpt lat="45.14014" lon="5.7653">
        <ele>410</ele>
        <time>2018-02-18T08:39:51Z</time>
      </trkpt>
      <trkpt lat="45.14018" lon="5.76525">
        <ele>409.9</ele>
        <time>2018-02-18T08:39:55Z</time>
      </trkpt>
      <trkpt lat="45.14025" lon="5.76514">
        <ele>409.7</ele>
        <time>2018-02-18T08:40:01Z</time>
      </trkpt>
      <trkpt lat="45.14032" lon="5.76501">
        <ele>410.1</ele>
        <time>2018-02-18T08:40:07Z</time>
      </trkpt>
      <trkpt lat="45.14035" lon="5.76491">
        <ele>410.7</ele>
        <time>2018-02-18T08:40:12Z</time>
      </trkpt>
      <trkpt lat="45.1404" lon="5.76475">
        <ele>411.8</ele>
        <time>2018-02-18T08:40:18Z</time>
      </trkpt>
      <trkpt lat="45.14045" lon="5.76466">
        <ele>412.7</ele>
        <time>2018-02-18T08:40:23Z</time>
      </trkpt>
      <trkpt lat="45.1405" lon="5.76457">
        <ele>413.2</ele>
        <time>2018-02-18T08:40:27Z</time>
      </trkpt>
      <trkpt lat="45.14056" lon="5.76449">
        <ele>413.8</ele>
        <time>2018-02-18T08:40:33Z</time>
      </trkpt>
      <trkpt lat="45.14058" lon="5.76447">
        <ele>414</ele>
        <time>2018-02-18T08:40:34Z</time>
      </trkpt>
      <trkpt lat="45.14063" lon="5.76437">
        <ele>414.8</ele>
        <time>2018-02-18T08:40:39Z</time>
      </trkpt>
      <trkpt lat="45.14068" lon="5.76429">
        <ele>415.3</ele>
        <time>2018-02-18T08:40:43Z</time>
      </trkpt>
      <trkpt lat="45.14075" lon="5.76419">
        <ele>415.9</ele>
        <time>2018-02-18T08:40:49Z</time>
      </trkpt>
      <trkpt lat="45.14081" lon="5.76407">
        <ele>416.3</ele>
        <time>2018-02-18T08:40:54Z</time>
      </trkpt>
      <trkpt lat="45.14089" lon="5.76392">
        <ele>416.7</ele>
        <time>2018-02-18T08:41:01Z</time>
      </trkpt>
      <trkpt lat="45.1409" lon="5.76387">
        <ele>416.8</ele>
        <time>2018-02-18T08:41:03Z</time>
      </trkpt>
      <trkpt lat="45.14095" lon="5.76374">
        <ele>417</ele>
        <time>2018-02-18T08:41:09Z</time>
      </trkpt>
      <trkpt lat="45.141" lon="5.76359">
        <ele>417.4</ele>
        <time>2018-02-18T08:41:16Z</time>
      </trkpt>
      <trkpt lat="45.14104" lon="5.76345">
        <ele>417.9</ele>
        <time>2018-02-18T08:41:22Z</time>
      </trkpt>
      <trkpt lat="45.14104" lon="5.76343">
        <ele>418.1</ele>
        <time>2018-02-18T08:41:23Z</time>
      </trkpt>
      <trkpt lat="45.14108" lon="5.76332">
        <ele>418.6</ele>
        <time>2018-02-18T08:41:27Z</time>
      </trkpt>
      <trkpt lat="45.14112" lon="5.76321">
        <ele>419</ele>
        <time>2018-02-18T08:41:32Z</time>
      </trkpt>
      <trkpt lat="45.14115" lon="5.76305">
        <ele>419.2</ele>
        <time>2018-02-18T08:41:38Z</time>
      </trkpt>
      <trkpt lat="45.14114" lon="5.76304">
        <ele>419.2</ele>
        <time>2018-02-18T08:41:39Z</time>
      </trkpt>
      <trkpt lat="45.14116" lon="5.76296">
        <ele>419.2</ele>
        <time>2018-02-18T08:41:43Z</time>
      </trkpt>
      <trkpt lat="45.14117" lon="5.76284">
        <ele>419.1</ele>
        <time>2018-02-18T08:41:47Z</time>
      </trkpt>
      <trkpt lat="45.14117" lon="5.76282">
        <ele>419.1</ele>
        <time>2018-02-18T08:41:48Z</time>
      </trkpt>
      <trkpt lat="45.14122" lon="5.76263">
        <ele>418.9</ele>
        <time>2018-02-18T08:41:55Z</time>
      </trkpt>
      <trkpt lat="45.14123" lon="5.76258">
        <ele>418.8</ele>
        <time>2018-02-18T08:41:57Z</time>
      </trkpt>
      <trkpt lat="45.1413" lon="5.76254">
        <ele>418.4</ele>
        <time>2018-02-18T08:42:02Z</time>
      </trkpt>
      <trkpt lat="45.14131" lon="5.76254">
        <ele>418.3</ele>
        <time>2018-02-18T08:42:03Z</time>
      </trkpt>
      <trkpt lat="45.14144" lon="5.76251">
        <ele>417.1</ele>
        <time>2018-02-18T08:42:09Z</time>
      </trkpt>
      <trkpt lat="45.14157" lon="5.7625">
        <ele>416</ele>
        <time>2018-02-18T08:42:15Z</time>
      </trkpt>
      <trkpt lat="45.14168" lon="5.76249">
        <ele>415.1</ele>
        <time>2018-02-18T08:42:21Z</time>
      </trkpt>
      <trkpt lat="45.1417" lon="5.76249">
        <ele>414.8</ele>
        <time>2018-02-18T08:42:29Z</time>
      </trkpt>
      <trkpt lat="45.14173" lon="5.76245">
        <ele>414.5</ele>
        <time>2018-02-18T08:42:58Z</time>
      </trkpt>
      <trkpt lat="45.14172" lon="5.76245">
        <ele>414.4</ele>
        <time>2018-02-18T08:43:07Z</time>
      </trkpt>
      <trkpt lat="45.1417" lon="5.76245">
        <ele>414.6</ele>
        <time>2018-02-18T08:43:15Z</time>
      </trkpt>
      <trkpt lat="45.14166" lon="5.76244">
        <ele>414.8</ele>
        <time>2018-02-18T08:43:19Z</time>
      </trkpt>
      <trkpt lat="45.1416" lon="5.76244">
        <ele>415.2</ele>
        <time>2018-02-18T08:43:24Z</time>
      </trkpt>
      <trkpt lat="45.14158" lon="5.76244">
        <ele>415.2</ele>
        <time>2018-02-18T08:43:25Z</time>
      </trkpt>
      <trkpt lat="45.14148" lon="5.76242">
        <ele>416</ele>
        <time>2018-02-18T08:43:31Z</time>
      </trkpt>
      <trkpt lat="45.14142" lon="5.76242">
        <ele>416.4</ele>
        <time>2018-02-18T08:43:35Z</time>
      </trkpt>
      <trkpt lat="45.14134" lon="5.76241">
        <ele>416.7</ele>
        <time>2018-02-18T08:43:42Z</time>
      </trkpt>
      <trkpt lat="45.14134" lon="5.7624">
        <ele>416.6</ele>
        <time>2018-02-18T08:43:43Z</time>
      </trkpt>
      <trkpt lat="45.14133" lon="5.76241">
        <ele>416.6</ele>
        <time>2018-02-18T08:43:44Z</time>
      </trkpt>
      <trkpt lat="45.14132" lon="5.76236">
        <ele>416.3</ele>
        <time>2018-02-18T08:43:48Z</time>
      </trkpt>
      <trkpt lat="45.14132" lon="5.76234">
        <ele>416.2</ele>
        <time>2018-02-18T08:43:49Z</time>
      </trkpt>
      <trkpt lat="45.14133" lon="5.76232">
        <ele>416.1</ele>
        <time>2018-02-18T08:43:50Z</time>
      </trkpt>
      <trkpt lat="45.14133" lon="5.76221">
        <ele>415.3</ele>
        <time>2018-02-18T08:43:56Z</time>
      </trkpt>
      <trkpt lat="45.14132" lon="5.76216">
        <ele>414.9</ele>
        <time>2018-02-18T08:43:58Z</time>
      </trkpt>
      <trkpt lat="45.14132" lon="5.76213">
        <ele>414.7</ele>
        <time>2018-02-18T08:44:00Z</time>
      </trkpt>
      <trkpt lat="45.1413" lon="5.76199">
        <ele>413.6</ele>
        <time>2018-02-18T08:44:06Z</time>
      </trkpt>
      <trkpt lat="45.14129" lon="5.76187">
        <ele>412.8</ele>
        <time>2018-02-18T08:44:10Z</time>
      </trkpt>
      <trkpt lat="45.14127" lon="5.76178">
        <ele>411.9</ele>
        <time>2018-02-18T08:44:14Z</time>
      </trkpt>
      <trkpt lat="45.14123" lon="5.76171">
        <ele>411</ele>
        <time>2018-02-18T08:44:17Z</time>
      </trkpt>
      <trkpt lat="45.14115" lon="5.76159">
        <ele>409.7</ele>
        <time>2018-02-18T08:44:22Z</time>
      </trkpt>
      <trkpt lat="45.14108" lon="5.76146">
        <ele>408.5</ele>
        <time>2018-02-18T08:44:27Z</time>
      </trkpt>
      <trkpt lat="45.14099" lon="5.76134">
        <ele>407.1</ele>
        <time>2018-02-18T08:44:33Z</time>
      </trkpt>
      <trkpt lat="45.14094" lon="5.76127">
        <ele>406.3</ele>
        <time>2018-02-18T08:44:36Z</time>
      </trkpt>
      <trkpt lat="45.14086" lon="5.76118">
        <ele>404.8</ele>
        <time>2018-02-18T08:44:40Z</time>
      </trkpt>
      <trkpt lat="45.14079" lon="5.7611">
        <ele>402.9</ele>
        <time>2018-02-18T08:44:44Z</time>
      </trkpt>
      <trkpt lat="45.14067" lon="5.76097">
        <ele>399.5</ele>
        <time>2018-02-18T08:44:50Z</time>
      </trkpt>
      <trkpt lat="45.14058" lon="5.76086">
        <ele>397.8</ele>
        <time>2018-02-18T08:44:55Z</time>
      </trkpt>
      <trkpt lat="45.14052" lon="5.7608">
        <ele>396.2</ele>
        <time>2018-02-18T08:44:58Z</time>
      </trkpt>
      <trkpt lat="45.14042" lon="5.76071">
        <ele>394.1</ele>
        <time>2018-02-18T08:45:04Z</time>
      </trkpt>
      <trkpt lat="45.14033" lon="5.76062">
        <ele>392.2</ele>
        <time>2018-02-18T08:45:09Z</time>
      </trkpt>
      <trkpt lat="45.14031" lon="5.76061">
        <ele>392</ele>
        <time>2018-02-18T08:45:10Z</time>
      </trkpt>
      <trkpt lat="45.14023" lon="5.76053">
        <ele>390.7</ele>
        <time>2018-02-18T08:45:14Z</time>
      </trkpt>
      <trkpt lat="45.14022" lon="5.76052">
        <ele>390.3</ele>
        <time>2018-02-18T08:45:15Z</time>
      </trkpt>
      <trkpt lat="45.14015" lon="5.76045">
        <ele>388.7</ele>
        <time>2018-02-18T08:45:19Z</time>
      </trkpt>
      <trkpt lat="45.14008" lon="5.76035">
        <ele>387.3</ele>
        <time>2018-02-18T08:45:23Z</time>
      </trkpt>
      <trkpt lat="45.14004" lon="5.76032">
        <ele>386.3</ele>
        <time>2018-02-18T08:45:25Z</time>
      </trkpt>
      <trkpt lat="45.13992" lon="5.76024">
        <ele>384.6</ele>
        <time>2018-02-18T08:45:31Z</time>
      </trkpt>
      <trkpt lat="45.13986" lon="5.76016">
        <ele>383.5</ele>
        <time>2018-02-18T08:45:35Z</time>
      </trkpt>
      <trkpt lat="45.13985" lon="5.76014">
        <ele>383.4</ele>
        <time>2018-02-18T08:45:36Z</time>
      </trkpt>
      <trkpt lat="45.13978" lon="5.76002">
        <ele>381.1</ele>
        <time>2018-02-18T08:45:41Z</time>
      </trkpt>
      <trkpt lat="45.13976" lon="5.75997">
        <ele>381</ele>
        <time>2018-02-18T08:45:43Z</time>
      </trkpt>
      <trkpt lat="45.13979" lon="5.75985">
        <ele>379.7</ele>
        <time>2018-02-18T08:45:49Z</time>
      </trkpt>
      <trkpt lat="45.1398" lon="5.75984">
        <ele>379.6</ele>
        <time>2018-02-18T08:45:50Z</time>
      </trkpt>
      <trkpt lat="45.13986" lon="5.75979">
        <ele>378.8</ele>
        <time>2018-02-18T08:45:55Z</time>
      </trkpt>
      <trkpt lat="45.13989" lon="5.75976">
        <ele>378.5</ele>
        <time>2018-02-18T08:45:57Z</time>
      </trkpt>
      <trkpt lat="45.14001" lon="5.75972">
        <ele>377</ele>
        <time>2018-02-18T08:46:04Z</time>
      </trkpt>
      <trkpt lat="45.14014" lon="5.75968">
        <ele>375.4</ele>
        <time>2018-02-18T08:46:11Z</time>
      </trkpt>
      <trkpt lat="45.14022" lon="5.75967">
        <ele>374.6</ele>
        <time>2018-02-18T08:46:14Z</time>
      </trkpt>
      <trkpt lat="45.14032" lon="5.75964">
        <ele>373.4</ele>
        <time>2018-02-18T08:46:19Z</time>
      </trkpt>
      <trkpt lat="45.14034" lon="5.75963">
        <ele>373.2</ele>
        <time>2018-02-18T08:46:20Z</time>
      </trkpt>
      <trkpt lat="45.14042" lon="5.75964">
        <ele>372.3</ele>
        <time>2018-02-18T08:46:24Z</time>
      </trkpt>
      <trkpt lat="45.14055" lon="5.75962">
        <ele>370.7</ele>
        <time>2018-02-18T08:46:29Z</time>
      </trkpt>
      <trkpt lat="45.14057" lon="5.75962">
        <ele>370.4</ele>
        <time>2018-02-18T08:46:30Z</time>
      </trkpt>
      <trkpt lat="45.14068" lon="5.75956">
        <ele>368.9</ele>
        <time>2018-02-18T08:46:35Z</time>
      </trkpt>
      <trkpt lat="45.14075" lon="5.75946">
        <ele>367.4</ele>
        <time>2018-02-18T08:46:40Z</time>
      </trkpt>
      <trkpt lat="45.14083" lon="5.75937">
        <ele>366.9</ele>
        <time>2018-02-18T08:46:45Z</time>
      </trkpt>
      <trkpt lat="45.14088" lon="5.75926">
        <ele>366.9</ele>
        <time>2018-02-18T08:46:50Z</time>
      </trkpt>
      <trkpt lat="45.14092" lon="5.75917">
        <ele>367</ele>
        <time>2018-02-18T08:46:54Z</time>
      </trkpt>
      <trkpt lat="45.14098" lon="5.75905">
        <ele>367.5</ele>
        <time>2018-02-18T08:47:01Z</time>
      </trkpt>
      <trkpt lat="45.14103" lon="5.75892">
        <ele>368.5</ele>
        <time>2018-02-18T08:47:07Z</time>
      </trkpt>
      <trkpt lat="45.1411" lon="5.75877">
        <ele>370.1</ele>
        <time>2018-02-18T08:47:13Z</time>
      </trkpt>
      <trkpt lat="45.14119" lon="5.75866">
        <ele>371.1</ele>
        <time>2018-02-18T08:47:18Z</time>
      </trkpt>
      <trkpt lat="45.14129" lon="5.75852">
        <ele>371.9</ele>
        <time>2018-02-18T08:47:24Z</time>
      </trkpt>
      <trkpt lat="45.14139" lon="5.75838">
        <ele>372.7</ele>
        <time>2018-02-18T08:47:30Z</time>
      </trkpt>
      <trkpt lat="45.14149" lon="5.75823">
        <ele>373.9</ele>
        <time>2018-02-18T08:47:36Z</time>
      </trkpt>
      <trkpt lat="45.14158" lon="5.75808">
        <ele>374.8</ele>
        <time>2018-02-18T08:47:42Z</time>
      </trkpt>
      <trkpt lat="45.14168" lon="5.75795">
        <ele>375.2</ele>
        <time>2018-02-18T08:47:48Z</time>
      </trkpt>
      <trkpt lat="45.1417" lon="5.75793">
        <ele>375.2</ele>
        <time>2018-02-18T08:47:49Z</time>
      </trkpt>
      <trkpt lat="45.14182" lon="5.75779">
        <ele>375.3</ele>
        <time>2018-02-18T08:47:56Z</time>
      </trkpt>
      <trkpt lat="45.14193" lon="5.75765">
        <ele>375.3</ele>
        <time>2018-02-18T08:48:02Z</time>
      </trkpt>
      <trkpt lat="45.14202" lon="5.75753">
        <ele>375.2</ele>
        <time>2018-02-18T08:48:07Z</time>
      </trkpt>
      <trkpt lat="45.1421" lon="5.75741">
        <ele>375</ele>
        <time>2018-02-18T08:48:12Z</time>
      </trkpt>
      <trkpt lat="45.14217" lon="5.75732">
        <ele>374.6</ele>
        <time>2018-02-18T08:48:16Z</time>
      </trkpt>
      <trkpt lat="45.14218" lon="5.7573">
        <ele>374.5</ele>
        <time>2018-02-18T08:48:17Z</time>
      </trkpt>
      <trkpt lat="45.14219" lon="5.75727">
        <ele>374.4</ele>
        <time>2018-02-18T08:48:18Z</time>
      </trkpt>
      <trkpt lat="45.14223" lon="5.75713">
        <ele>373.8</ele>
        <time>2018-02-18T08:48:23Z</time>
      </trkpt>
      <trkpt lat="45.14224" lon="5.7571">
        <ele>373.6</ele>
        <time>2018-02-18T08:48:24Z</time>
      </trkpt>
      <trkpt lat="45.14231" lon="5.75696">
        <ele>372.8</ele>
        <time>2018-02-18T08:48:29Z</time>
      </trkpt>
      <trkpt lat="45.14233" lon="5.75694">
        <ele>372.6</ele>
        <time>2018-02-18T08:48:30Z</time>
      </trkpt>
      <trkpt lat="45.14237" lon="5.75683">
        <ele>371.8</ele>
        <time>2018-02-18T08:48:34Z</time>
      </trkpt>
      <trkpt lat="45.14239" lon="5.75668">
        <ele>370.8</ele>
        <time>2018-02-18T08:48:40Z</time>
      </trkpt>
      <trkpt lat="45.14238" lon="5.75665">
        <ele>370.6</ele>
        <time>2018-02-18T08:48:41Z</time>
      </trkpt>
      <trkpt lat="45.14238" lon="5.7565">
        <ele>369.4</ele>
        <time>2018-02-18T08:48:46Z</time>
      </trkpt>
      <trkpt lat="45.14238" lon="5.75646">
        <ele>369.1</ele>
        <time>2018-02-18T08:48:47Z</time>
      </trkpt>
      <trkpt lat="45.14239" lon="5.75634">
        <ele>368.2</ele>
        <time>2018-02-18T08:48:51Z</time>
      </trkpt>
      <trkpt lat="45.14239" lon="5.75614">
        <ele>366.6</ele>
        <time>2018-02-18T08:48:57Z</time>
      </trkpt>
      <trkpt lat="45.14239" lon="5.75601">
        <ele>365.6</ele>
        <time>2018-02-18T08:49:02Z</time>
      </trkpt>
      <trkpt lat="45.14239" lon="5.7559">
        <ele>365.2</ele>
        <time>2018-02-18T08:49:05Z</time>
      </trkpt>
      <trkpt lat="45.14238" lon="5.75575">
        <ele>365.1</ele>
        <time>2018-02-18T08:49:10Z</time>
      </trkpt>
      <trkpt lat="45.14238" lon="5.7557">
        <ele>365.1</ele>
        <time>2018-02-18T08:49:12Z</time>
      </trkpt>
      <trkpt lat="45.14237" lon="5.75559">
        <ele>365.3</ele>
        <time>2018-02-18T08:49:16Z</time>
      </trkpt>
      <trkpt lat="45.14238" lon="5.75544">
        <ele>366.1</ele>
        <time>2018-02-18T08:49:22Z</time>
      </trkpt>
      <trkpt lat="45.1424" lon="5.75533">
        <ele>366.7</ele>
        <time>2018-02-18T08:49:26Z</time>
      </trkpt>
      <trkpt lat="45.14247" lon="5.75514">
        <ele>367.7</ele>
        <time>2018-02-18T08:49:34Z</time>
      </trkpt>
      <trkpt lat="45.1425" lon="5.75503">
        <ele>368.3</ele>
        <time>2018-02-18T08:49:39Z</time>
      </trkpt>
      <trkpt lat="45.14258" lon="5.75484">
        <ele>369.4</ele>
        <time>2018-02-18T08:49:47Z</time>
      </trkpt>
      <trkpt lat="45.14264" lon="5.75473">
        <ele>370</ele>
        <time>2018-02-18T08:49:52Z</time>
      </trkpt>
      <trkpt lat="45.14271" lon="5.75463">
        <ele>370.6</ele>
        <time>2018-02-18T08:49:57Z</time>
      </trkpt>
      <trkpt lat="45.1428" lon="5.75455">
        <ele>370.9</ele>
        <time>2018-02-18T08:50:02Z</time>
      </trkpt>
      <trkpt lat="45.1429" lon="5.75442">
        <ele>371.1</ele>
        <time>2018-02-18T08:50:08Z</time>
      </trkpt>
      <trkpt lat="45.14292" lon="5.75439">
        <ele>371.1</ele>
        <time>2018-02-18T08:50:09Z</time>
      </trkpt>
      <trkpt lat="45.14295" lon="5.75434">
        <ele>371</ele>
        <time>2018-02-18T08:50:12Z</time>
      </trkpt>
      <trkpt lat="45.14296" lon="5.75433">
        <ele>371</ele>
        <time>2018-02-18T08:50:16Z</time>
      </trkpt>
      <trkpt lat="45.14298" lon="5.75433">
        <ele>371</ele>
        <time>2018-02-18T08:50:21Z</time>
      </trkpt>
      <trkpt lat="45.14302" lon="5.7543">
        <ele>371</ele>
        <time>2018-02-18T08:50:29Z</time>
      </trkpt>
      <trkpt lat="45.14303" lon="5.75418">
        <ele>371</ele>
        <time>2018-02-18T08:50:35Z</time>
      </trkpt>
      <trkpt lat="45.14302" lon="5.75416">
        <ele>370.8</ele>
        <time>2018-02-18T08:50:36Z</time>
      </trkpt>
      <trkpt lat="45.143" lon="5.75413">
        <ele>368.8</ele>
        <time>2018-02-18T08:50:38Z</time>
      </trkpt>
      <trkpt lat="45.14296" lon="5.75405">
        <ele>364.3</ele>
        <time>2018-02-18T08:50:42Z</time>
      </trkpt>
      <trkpt lat="45.14292" lon="5.75398">
        <ele>362</ele>
        <time>2018-02-18T08:50:46Z</time>
      </trkpt>
      <trkpt lat="45.14288" lon="5.75396">
        <ele>361.4</ele>
        <time>2018-02-18T08:50:48Z</time>
      </trkpt>
      <trkpt lat="45.14284" lon="5.75396">
        <ele>360.9</ele>
        <time>2018-02-18T08:50:50Z</time>
      </trkpt>
      <trkpt lat="45.14279" lon="5.75395">
        <ele>359.7</ele>
        <time>2018-02-18T08:50:54Z</time>
      </trkpt>
      <trkpt lat="45.14277" lon="5.75393">
        <ele>359.3</ele>
        <time>2018-02-18T08:50:55Z</time>
      </trkpt>
      <trkpt lat="45.14274" lon="5.75391">
        <ele>358.5</ele>
        <time>2018-02-18T08:50:57Z</time>
      </trkpt>
      <trkpt lat="45.14272" lon="5.7539">
        <ele>358</ele>
        <time>2018-02-18T08:50:59Z</time>
      </trkpt>
      <trkpt lat="45.14263" lon="5.75392">
        <ele>356.7</ele>
        <time>2018-02-18T08:51:04Z</time>
      </trkpt>
      <trkpt lat="45.14258" lon="5.75393">
        <ele>355.7</ele>
        <time>2018-02-18T08:51:07Z</time>
      </trkpt>
      <trkpt lat="45.14252" lon="5.75392">
        <ele>355</ele>
        <time>2018-02-18T08:51:10Z</time>
      </trkpt>
      <trkpt lat="45.14244" lon="5.75386">
        <ele>354</ele>
        <time>2018-02-18T08:51:14Z</time>
      </trkpt>
      <trkpt lat="45.14238" lon="5.75374">
        <ele>352.5</ele>
        <time>2018-02-18T08:51:20Z</time>
      </trkpt>
      <trkpt lat="45.14238" lon="5.75373">
        <ele>352.4</ele>
        <time>2018-02-18T08:51:21Z</time>
      </trkpt>
      <trkpt lat="45.14238" lon="5.75368">
        <ele>351.9</ele>
        <time>2018-02-18T08:51:25Z</time>
      </trkpt>
      <trkpt lat="45.14238" lon="5.75367">
        <ele>351.7</ele>
        <time>2018-02-18T08:51:26Z</time>
      </trkpt>
      <trkpt lat="45.14239" lon="5.75357">
        <ele>350.8</ele>
        <time>2018-02-18T08:51:31Z</time>
      </trkpt>
      <trkpt lat="45.1424" lon="5.75351">
        <ele>349.9</ele>
        <time>2018-02-18T08:51:34Z</time>
      </trkpt>
      <trkpt lat="45.14242" lon="5.75345">
        <ele>349</ele>
        <time>2018-02-18T08:51:37Z</time>
      </trkpt>
      <trkpt lat="45.14243" lon="5.75341">
        <ele>348.2</ele>
        <time>2018-02-18T08:51:40Z</time>
      </trkpt>
      <trkpt lat="45.14245" lon="5.75329">
        <ele>346.1</ele>
        <time>2018-02-18T08:51:47Z</time>
      </trkpt>
      <trkpt lat="45.14247" lon="5.75321">
        <ele>344.6</ele>
        <time>2018-02-18T08:51:51Z</time>
      </trkpt>
      <trkpt lat="45.14249" lon="5.75313">
        <ele>343.2</ele>
        <time>2018-02-18T08:51:54Z</time>
      </trkpt>
      <trkpt lat="45.14259" lon="5.75306">
        <ele>342</ele>
        <time>2018-02-18T08:52:00Z</time>
      </trkpt>
      <trkpt lat="45.1426" lon="5.75305">
        <ele>342</ele>
        <time>2018-02-18T08:52:01Z</time>
      </trkpt>
      <trkpt lat="45.1427" lon="5.753">
        <ele>342</ele>
        <time>2018-02-18T08:52:06Z</time>
      </trkpt>
      <trkpt lat="45.14273" lon="5.75297">
        <ele>342</ele>
        <time>2018-02-18T08:52:08Z</time>
      </trkpt>
      <trkpt lat="45.14278" lon="5.75288">
        <ele>342</ele>
        <time>2018-02-18T08:52:13Z</time>
      </trkpt>
      <trkpt lat="45.14282" lon="5.7528">
        <ele>341.1</ele>
        <time>2018-02-18T08:52:17Z</time>
      </trkpt>
      <trkpt lat="45.14287" lon="5.75274">
        <ele>338.8</ele>
        <time>2018-02-18T08:52:21Z</time>
      </trkpt>
      <trkpt lat="45.14288" lon="5.75272">
        <ele>338.3</ele>
        <time>2018-02-18T08:52:22Z</time>
      </trkpt>
      <trkpt lat="45.1429" lon="5.75269">
        <ele>337.3</ele>
        <time>2018-02-18T08:52:24Z</time>
      </trkpt>
      <trkpt lat="45.14294" lon="5.75265">
        <ele>335.7</ele>
        <time>2018-02-18T08:52:27Z</time>
      </trkpt>
      <trkpt lat="45.143" lon="5.75256">
        <ele>333.1</ele>
        <time>2018-02-18T08:52:31Z</time>
      </trkpt>
      <trkpt lat="45.14304" lon="5.75249">
        <ele>331.4</ele>
        <time>2018-02-18T08:52:35Z</time>
      </trkpt>
      <trkpt lat="45.14308" lon="5.75241">
        <ele>329.5</ele>
        <time>2018-02-18T08:52:39Z</time>
      </trkpt>
      <trkpt lat="45.14309" lon="5.75239">
        <ele>329</ele>
        <time>2018-02-18T08:52:40Z</time>
      </trkpt>
      <trkpt lat="45.14312" lon="5.75231">
        <ele>327.4</ele>
        <time>2018-02-18T08:52:43Z</time>
      </trkpt>
      <trkpt lat="45.14317" lon="5.75216">
        <ele>324.8</ele>
        <time>2018-02-18T08:52:48Z</time>
      </trkpt>
      <trkpt lat="45.14326" lon="5.7521">
        <ele>322.6</ele>
        <time>2018-02-18T08:52:53Z</time>
      </trkpt>
      <trkpt lat="45.14328" lon="5.7521">
        <ele>322.3</ele>
        <time>2018-02-18T08:52:54Z</time>
      </trkpt>
      <trkpt lat="45.1434" lon="5.75202">
        <ele>321.4</ele>
        <time>2018-02-18T08:52:59Z</time>
      </trkpt>
      <trkpt lat="45.14353" lon="5.75198">
        <ele>321</ele>
        <time>2018-02-18T08:53:04Z</time>
      </trkpt>
      <trkpt lat="45.14362" lon="5.75194">
        <ele>320.5</ele>
        <time>2018-02-18T08:53:08Z</time>
      </trkpt>
      <trkpt lat="45.14375" lon="5.7519">
        <ele>319.7</ele>
        <time>2018-02-18T08:53:12Z</time>
      </trkpt>
      <trkpt lat="45.1438" lon="5.75186">
        <ele>319.3</ele>
        <time>2018-02-18T08:53:14Z</time>
      </trkpt>
      <trkpt lat="45.14387" lon="5.75182">
        <ele>318.7</ele>
        <time>2018-02-18T08:53:17Z</time>
      </trkpt>
      <trkpt lat="45.14399" lon="5.75175">
        <ele>318</ele>
        <time>2018-02-18T08:53:22Z</time>
      </trkpt>
      <trkpt lat="45.1441" lon="5.75165">
        <ele>317.7</ele>
        <time>2018-02-18T08:53:26Z</time>
      </trkpt>
      <trkpt lat="45.14415" lon="5.75162">
        <ele>317.6</ele>
        <time>2018-02-18T08:53:28Z</time>
      </trkpt>
      <trkpt lat="45.14422" lon="5.75155">
        <ele>317.4</ele>
        <time>2018-02-18T08:53:31Z</time>
      </trkpt>
      <trkpt lat="45.14432" lon="5.75146">
        <ele>317.2</ele>
        <time>2018-02-18T08:53:35Z</time>
      </trkpt>
      <trkpt lat="45.14445" lon="5.75137">
        <ele>317.1</ele>
        <time>2018-02-18T08:53:40Z</time>
      </trkpt>
      <trkpt lat="45.14451" lon="5.75127">
        <ele>317</ele>
        <time>2018-02-18T08:53:45Z</time>
      </trkpt>
      <trkpt lat="45.14451" lon="5.75127">
        <ele>317</ele>
        <time>2018-02-18T08:53:46Z</time>
      </trkpt>
      <trkpt lat="45.14454" lon="5.75127">
        <ele>317</ele>
        <time>2018-02-18T08:53:58Z</time>
      </trkpt>
      <trkpt lat="45.14454" lon="5.75127">
        <ele>317</ele>
        <time>2018-02-18T08:54:07Z</time>
      </trkpt>
      <trkpt lat="45.14452" lon="5.75127">
        <ele>316.6</ele>
        <time>2018-02-18T08:54:37Z</time>
      </trkpt>
      <trkpt lat="45.14447" lon="5.75122">
        <ele>314.9</ele>
        <time>2018-02-18T08:54:42Z</time>
      </trkpt>
      <trkpt lat="45.14437" lon="5.7511">
        <ele>311.4</ele>
        <time>2018-02-18T08:54:48Z</time>
      </trkpt>
      <trkpt lat="45.14436" lon="5.75108">
        <ele>311</ele>
        <time>2018-02-18T08:54:49Z</time>
      </trkpt>
      <trkpt lat="45.14425" lon="5.75103">
        <ele>308.2</ele>
        <time>2018-02-18T08:54:55Z</time>
      </trkpt>
      <trkpt lat="45.14412" lon="5.75098">
        <ele>305.4</ele>
        <time>2018-02-18T08:55:02Z</time>
      </trkpt>
      <trkpt lat="45.14409" lon="5.75097">
        <ele>304.8</ele>
        <time>2018-02-18T08:55:04Z</time>
      </trkpt>
      <trkpt lat="45.144" lon="5.75091">
        <ele>303.2</ele>
        <time>2018-02-18T08:55:09Z</time>
      </trkpt>
      <trkpt lat="45.14398" lon="5.75089">
        <ele>302.8</ele>
        <time>2018-02-18T08:55:10Z</time>
      </trkpt>
      <trkpt lat="45.14396" lon="5.75088">
        <ele>302.4</ele>
        <time>2018-02-18T08:55:11Z</time>
      </trkpt>
      <trkpt lat="45.14389" lon="5.75081">
        <ele>300.8</ele>
        <time>2018-02-18T08:55:15Z</time>
      </trkpt>
      <trkpt lat="45.14383" lon="5.75073">
        <ele>298.6</ele>
        <time>2018-02-18T08:55:19Z</time>
      </trkpt>
      <trkpt lat="45.14381" lon="5.75071">
        <ele>298.1</ele>
        <time>2018-02-18T08:55:20Z</time>
      </trkpt>
      <trkpt lat="45.14379" lon="5.75069">
        <ele>297.6</ele>
        <time>2018-02-18T08:55:21Z</time>
      </trkpt>
      <trkpt lat="45.14372" lon="5.75061">
        <ele>294.9</ele>
        <time>2018-02-18T08:55:25Z</time>
      </trkpt>
      <trkpt lat="45.14375" lon="5.75052">
        <ele>289.4</ele>
        <time>2018-02-18T08:55:28Z</time>
      </trkpt>
      <trkpt lat="45.14382" lon="5.75048">
        <ele>288.5</ele>
        <time>2018-02-18T08:55:32Z</time>
      </trkpt>
      <trkpt lat="45.14388" lon="5.75039">
        <ele>287.4</ele>
        <time>2018-02-18T08:55:36Z</time>
      </trkpt>
      <trkpt lat="45.14391" lon="5.75034">
        <ele>287</ele>
        <time>2018-02-18T08:55:38Z</time>
      </trkpt>
      <trkpt lat="45.14401" lon="5.75019">
        <ele>284.9</ele>
        <time>2018-02-18T08:55:45Z</time>
      </trkpt>
      <trkpt lat="45.14405" lon="5.75014">
        <ele>284.2</ele>
        <time>2018-02-18T08:55:47Z</time>
      </trkpt>
      <trkpt lat="45.14418" lon="5.75005">
        <ele>282.3</ele>
        <time>2018-02-18T08:55:53Z</time>
      </trkpt>
      <trkpt lat="45.14429" lon="5.74997">
        <ele>280.9</ele>
        <time>2018-02-18T08:55:58Z</time>
      </trkpt>
      <trkpt lat="45.14446" lon="5.74987">
        <ele>279</ele>
        <time>2018-02-18T08:56:05Z</time>
      </trkpt>
      <trkpt lat="45.14461" lon="5.74975">
        <ele>277.3</ele>
        <time>2018-02-18T08:56:12Z</time>
      </trkpt>
      <trkpt lat="45.14472" lon="5.74963">
        <ele>276</ele>
        <time>2018-02-18T08:56:17Z</time>
      </trkpt>
      <trkpt lat="45.14483" lon="5.7495">
        <ele>274.7</ele>
        <time>2018-02-18T08:56:22Z</time>
      </trkpt>
      <trkpt lat="45.14491" lon="5.74943">
        <ele>274</ele>
        <time>2018-02-18T08:56:26Z</time>
      </trkpt>
      <trkpt lat="45.14492" lon="5.74942">
        <ele>273.8</ele>
        <time>2018-02-18T08:56:27Z</time>
      </trkpt>
      <trkpt lat="45.145" lon="5.74932">
        <ele>272.5</ele>
        <time>2018-02-18T08:56:32Z</time>
      </trkpt>
      <trkpt lat="45.14512" lon="5.74923">
        <ele>270.9</ele>
        <time>2018-02-18T08:56:37Z</time>
      </trkpt>
      <trkpt lat="45.14527" lon="5.74914">
        <ele>268.8</ele>
        <time>2018-02-18T08:56:43Z</time>
      </trkpt>
      <trkpt lat="45.14539" lon="5.74909">
        <ele>267.2</ele>
        <time>2018-02-18T08:56:48Z</time>
      </trkpt>
      <trkpt lat="45.14552" lon="5.74899">
        <ele>265.2</ele>
        <time>2018-02-18T08:56:54Z</time>
      </trkpt>
      <trkpt lat="45.1457" lon="5.74889">
        <ele>262.1</ele>
        <time>2018-02-18T08:57:02Z</time>
      </trkpt>
      <trkpt lat="45.14581" lon="5.74884">
        <ele>260</ele>
        <time>2018-02-18T08:57:07Z</time>
      </trkpt>
      <trkpt lat="45.14595" lon="5.74878">
        <ele>257.2</ele>
        <time>2018-02-18T08:57:13Z</time>
      </trkpt>
      <trkpt lat="45.14595" lon="5.74876">
        <ele>257</ele>
        <time>2018-02-18T08:57:14Z</time>
      </trkpt>
      <trkpt lat="45.14591" lon="5.7487">
        <ele>257</ele>
        <time>2018-02-18T08:57:17Z</time>
      </trkpt>
      <trkpt lat="45.1459" lon="5.74867">
        <ele>257</ele>
        <time>2018-02-18T08:57:18Z</time>
      </trkpt>
      <trkpt lat="45.14583" lon="5.74856">
        <ele>253.7</ele>
        <time>2018-02-18T08:57:22Z</time>
      </trkpt>
      <trkpt lat="45.14582" lon="5.74852">
        <ele>252.8</ele>
        <time>2018-02-18T08:57:23Z</time>
      </trkpt>
      <trkpt lat="45.14578" lon="5.74843">
        <ele>249.9</ele>
        <time>2018-02-18T08:57:26Z</time>
      </trkpt>
      <trkpt lat="45.14576" lon="5.74837">
        <ele>247</ele>
        <time>2018-02-18T08:57:28Z</time>
      </trkpt>
      <trkpt lat="45.14579" lon="5.74819">
        <ele>247.2</ele>
        <time>2018-02-18T08:57:34Z</time>
      </trkpt>
      <trkpt lat="45.14583" lon="5.74805">
        <ele>247.7</ele>
        <time>2018-02-18T08:57:38Z</time>
      </trkpt>
      <trkpt lat="45.14586" lon="5.74798">
        <ele>248.1</ele>
        <time>2018-02-18T08:57:41Z</time>
      </trkpt>
      <trkpt lat="45.14593" lon="5.74795">
        <ele>248.4</ele>
        <time>2018-02-18T08:57:45Z</time>
      </trkpt>
      <trkpt lat="45.14596" lon="5.74792">
        <ele>248.6</ele>
        <time>2018-02-18T08:57:47Z</time>
      </trkpt>
      <trkpt lat="45.14605" lon="5.74786">
        <ele>248.8</ele>
        <time>2018-02-18T08:57:51Z</time>
      </trkpt>
      <trkpt lat="45.14612" lon="5.74782">
        <ele>249.3</ele>
        <time>2018-02-18T08:57:54Z</time>
      </trkpt>
      <trkpt lat="45.14633" lon="5.74769">
        <ele>250.3</ele>
        <time>2018-02-18T08:58:02Z</time>
      </trkpt>
      <trkpt lat="45.14644" lon="5.74764">
        <ele>250.9</ele>
        <time>2018-02-18T08:58:07Z</time>
      </trkpt>
      <trkpt lat="45.14658" lon="5.74759">
        <ele>251.4</ele>
        <time>2018-02-18T08:58:13Z</time>
      </trkpt>
      <trkpt lat="45.14674" lon="5.74758">
        <ele>252</ele>
        <time>2018-02-18T08:58:19Z</time>
      </trkpt>
      <trkpt lat="45.14686" lon="5.74759">
        <ele>252.3</ele>
        <time>2018-02-18T08:58:24Z</time>
      </trkpt>
      <trkpt lat="45.14706" lon="5.74764">
        <ele>253</ele>
        <time>2018-02-18T08:58:31Z</time>
      </trkpt>
      <trkpt lat="45.14721" lon="5.74774">
        <ele>253.5</ele>
        <time>2018-02-18T08:58:37Z</time>
      </trkpt>
      <trkpt lat="45.1473" lon="5.74786">
        <ele>253.8</ele>
        <time>2018-02-18T08:58:42Z</time>
      </trkpt>
      <trkpt lat="45.14735" lon="5.74804">
        <ele>254.1</ele>
        <time>2018-02-18T08:58:47Z</time>
      </trkpt>
      <trkpt lat="45.14735" lon="5.7483">
        <ele>254.5</ele>
        <time>2018-02-18T08:58:54Z</time>
      </trkpt>
      <trkpt lat="45.14732" lon="5.7485">
        <ele>254.9</ele>
        <time>2018-02-18T08:59:00Z</time>
      </trkpt>
      <trkpt lat="45.14727" lon="5.7487">
        <ele>255.9</ele>
        <time>2018-02-18T08:59:06Z</time>
      </trkpt>
      <trkpt lat="45.14723" lon="5.74886">
        <ele>256.5</ele>
        <time>2018-02-18T08:59:11Z</time>
      </trkpt>
      <trkpt lat="45.14719" lon="5.74905">
        <ele>257.8</ele>
        <time>2018-02-18T08:59:17Z</time>
      </trkpt>
      <trkpt lat="45.14713" lon="5.74917">
        <ele>259.1</ele>
        <time>2018-02-18T08:59:23Z</time>
      </trkpt>
      <trkpt lat="45.14714" lon="5.74933">
        <ele>259.5</ele>
        <time>2018-02-18T08:59:27Z</time>
      </trkpt>
      <trkpt lat="45.14715" lon="5.74936">
        <ele>259.4</ele>
        <time>2018-02-18T08:59:28Z</time>
      </trkpt>
      <trkpt lat="45.14722" lon="5.74953">
        <ele>258.5</ele>
        <time>2018-02-18T08:59:34Z</time>
      </trkpt>
      <trkpt lat="45.14723" lon="5.74957">
        <ele>258.4</ele>
        <time>2018-02-18T08:59:35Z</time>
      </trkpt>
      <trkpt lat="45.14732" lon="5.7497">
        <ele>257.9</ele>
        <time>2018-02-18T08:59:40Z</time>
      </trkpt>
      <trkpt lat="45.14735" lon="5.74987">
        <ele>257.6</ele>
        <time>2018-02-18T08:59:45Z</time>
      </trkpt>
      <trkpt lat="45.14735" lon="5.74996">
        <ele>257.5</ele>
        <time>2018-02-18T08:59:48Z</time>
      </trkpt>
      <trkpt lat="45.14734" lon="5.75017">
        <ele>257.1</ele>
        <time>2018-02-18T08:59:54Z</time>
      </trkpt>
      <trkpt lat="45.14734" lon="5.75021">
        <ele>257</ele>
        <time>2018-02-18T08:59:55Z</time>
      </trkpt>
      <trkpt lat="45.14735" lon="5.75035">
        <ele>257</ele>
        <time>2018-02-18T09:00:00Z</time>
      </trkpt>
      <trkpt lat="45.14737" lon="5.75051">
        <ele>257</ele>
        <time>2018-02-18T09:00:05Z</time>
      </trkpt>
      <trkpt lat="45.14739" lon="5.75066">
        <ele>254.6</ele>
        <time>2018-02-18T09:00:10Z</time>
      </trkpt>
      <trkpt lat="45.14739" lon="5.75069">
        <ele>254.1</ele>
        <time>2018-02-18T09:00:11Z</time>
      </trkpt>
      <trkpt lat="45.14742" lon="5.75081">
        <ele>252.4</ele>
        <time>2018-02-18T09:00:15Z</time>
      </trkpt>
      <trkpt lat="45.14743" lon="5.75091">
        <ele>252</ele>
        <time>2018-02-18T09:00:18Z</time>
      </trkpt>
      <trkpt lat="45.14743" lon="5.75097">
        <ele>252</ele>
        <time>2018-02-18T09:00:20Z</time>
      </trkpt>
      <trkpt lat="45.14741" lon="5.75111">
        <ele>252</ele>
        <time>2018-02-18T09:00:24Z</time>
      </trkpt>
      <trkpt lat="45.14732" lon="5.75128">
        <ele>252</ele>
        <time>2018-02-18T09:00:30Z</time>
      </trkpt>
      <trkpt lat="45.14726" lon="5.75141">
        <ele>252</ele>
        <time>2018-02-18T09:00:35Z</time>
      </trkpt>
      <trkpt lat="45.14722" lon="5.75147">
        <ele>252</ele>
        <time>2018-02-18T09:00:38Z</time>
      </trkpt>
      <trkpt lat="45.14719" lon="5.75168">
        <ele>252</ele>
        <time>2018-02-18T09:00:44Z</time>
      </trkpt>
      <trkpt lat="45.14718" lon="5.75171">
        <ele>252.4</ele>
        <time>2018-02-18T09:00:45Z</time>
      </trkpt>
      <trkpt lat="45.14714" lon="5.75198">
        <ele>253.2</ele>
        <time>2018-02-18T09:00:53Z</time>
      </trkpt>
      <trkpt lat="45.14713" lon="5.7522">
        <ele>253.5</ele>
        <time>2018-02-18T09:00:59Z</time>
      </trkpt>
      <trkpt lat="45.14711" lon="5.75239">
        <ele>253.5</ele>
        <time>2018-02-18T09:01:04Z</time>
      </trkpt>
      <trkpt lat="45.14708" lon="5.75261">
        <ele>253.5</ele>
        <time>2018-02-18T09:01:10Z</time>
      </trkpt>
      <trkpt lat="45.14707" lon="5.75276">
        <ele>253.5</ele>
        <time>2018-02-18T09:01:14Z</time>
      </trkpt>
      <trkpt lat="45.14705" lon="5.75302">
        <ele>253.5</ele>
        <time>2018-02-18T09:01:21Z</time>
      </trkpt>
      <trkpt lat="45.14702" lon="5.75323">
        <ele>253.5</ele>
        <time>2018-02-18T09:01:27Z</time>
      </trkpt>
      <trkpt lat="45.147" lon="5.75341">
        <ele>253.6</ele>
        <time>2018-02-18T09:01:32Z</time>
      </trkpt>
      <trkpt lat="45.14699" lon="5.75362">
        <ele>253.6</ele>
        <time>2018-02-18T09:01:38Z</time>
      </trkpt>
      <trkpt lat="45.14697" lon="5.75382">
        <ele>253.6</ele>
        <time>2018-02-18T09:01:44Z</time>
      </trkpt>
      <trkpt lat="45.14696" lon="5.75402">
        <ele>253.7</ele>
        <time>2018-02-18T09:01:50Z</time>
      </trkpt>
      <trkpt lat="45.14695" lon="5.75426">
        <ele>254</ele>
        <time>2018-02-18T09:01:57Z</time>
      </trkpt>
      <trkpt lat="45.14693" lon="5.75443">
        <ele>254</ele>
        <time>2018-02-18T09:02:02Z</time>
      </trkpt>
      <trkpt lat="45.14693" lon="5.75459">
        <ele>254</ele>
        <time>2018-02-18T09:02:07Z</time>
      </trkpt>
      <trkpt lat="45.14692" lon="5.75472">
        <ele>254.3</ele>
        <time>2018-02-18T09:02:11Z</time>
      </trkpt>
      <trkpt lat="45.14692" lon="5.75486">
        <ele>254.5</ele>
        <time>2018-02-18T09:02:15Z</time>
      </trkpt>
      <trkpt lat="45.1469" lon="5.75501">
        <ele>254.8</ele>
        <time>2018-02-18T09:02:20Z</time>
      </trkpt>
      <trkpt lat="45.1469" lon="5.75505">
        <ele>254.8</ele>
        <time>2018-02-18T09:02:21Z</time>
      </trkpt>
      <trkpt lat="45.14686" lon="5.75529">
        <ele>255</ele>
        <time>2018-02-18T09:02:28Z</time>
      </trkpt>
      <trkpt lat="45.14685" lon="5.7555">
        <ele>255.3</ele>
        <time>2018-02-18T09:02:34Z</time>
      </trkpt>
      <trkpt lat="45.14683" lon="5.7556">
        <ele>255.4</ele>
        <time>2018-02-18T09:02:37Z</time>
      </trkpt>
      <trkpt lat="45.1468" lon="5.75582">
        <ele>255.8</ele>
        <time>2018-02-18T09:02:44Z</time>
      </trkpt>
      <trkpt lat="45.14679" lon="5.75602">
        <ele>256.1</ele>
        <time>2018-02-18T09:02:50Z</time>
      </trkpt>
      <trkpt lat="45.14681" lon="5.75617">
        <ele>256.6</ele>
        <time>2018-02-18T09:02:55Z</time>
      </trkpt>
      <trkpt lat="45.14687" lon="5.7563">
        <ele>257.2</ele>
        <time>2018-02-18T09:03:00Z</time>
      </trkpt>
      <trkpt lat="45.14687" lon="5.75636">
        <ele>257.5</ele>
        <time>2018-02-18T09:03:02Z</time>
      </trkpt>
      <trkpt lat="45.14693" lon="5.75653">
        <ele>257.9</ele>
        <time>2018-02-18T09:03:08Z</time>
      </trkpt>
      <trkpt lat="45.14693" lon="5.75662">
        <ele>258.3</ele>
        <time>2018-02-18T09:03:11Z</time>
      </trkpt>
      <trkpt lat="45.14695" lon="5.75683">
        <ele>258.8</ele>
        <time>2018-02-18T09:03:18Z</time>
      </trkpt>
      <trkpt lat="45.14697" lon="5.75701">
        <ele>259.2</ele>
        <time>2018-02-18T09:03:24Z</time>
      </trkpt>
      <trkpt lat="45.14698" lon="5.75715">
        <ele>259.6</ele>
        <time>2018-02-18T09:03:29Z</time>
      </trkpt>
      <trkpt lat="45.14702" lon="5.75729">
        <ele>259.8</ele>
        <time>2018-02-18T09:03:34Z</time>
      </trkpt>
      <trkpt lat="45.14705" lon="5.75746">
        <ele>260.4</ele>
        <time>2018-02-18T09:03:40Z</time>
      </trkpt>
      <trkpt lat="45.14707" lon="5.75748">
        <ele>260.6</ele>
        <time>2018-02-18T09:03:41Z</time>
      </trkpt>
      <trkpt lat="45.14711" lon="5.7576">
        <ele>261.3</ele>
        <time>2018-02-18T09:03:45Z</time>
      </trkpt>
      <trkpt lat="45.14711" lon="5.75762">
        <ele>261.4</ele>
        <time>2018-02-18T09:03:46Z</time>
      </trkpt>
      <trkpt lat="45.14716" lon="5.75779">
        <ele>262.7</ele>
        <time>2018-02-18T09:03:52Z</time>
      </trkpt>
      <trkpt lat="45.14721" lon="5.75797">
        <ele>263.7</ele>
        <time>2018-02-18T09:03:58Z</time>
      </trkpt>
      <trkpt lat="45.14726" lon="5.75817">
        <ele>264.8</ele>
        <time>2018-02-18T09:04:05Z</time>
      </trkpt>
      <trkpt lat="45.14729" lon="5.75831">
        <ele>265.7</ele>
        <time>2018-02-18T09:04:09Z</time>
      </trkpt>
      <trkpt lat="45.14729" lon="5.75856">
        <ele>266.7</ele>
        <time>2018-02-18T09:04:18Z</time>
      </trkpt>
      <trkpt lat="45.1473" lon="5.75873">
        <ele>267.8</ele>
        <time>2018-02-18T09:04:23Z</time>
      </trkpt>
      <trkpt lat="45.14731" lon="5.75889">
        <ele>268.7</ele>
        <time>2018-02-18T09:04:28Z</time>
      </trkpt>
      <trkpt lat="45.14732" lon="5.75911">
        <ele>269.9</ele>
        <time>2018-02-18T09:04:35Z</time>
      </trkpt>
      <trkpt lat="45.14731" lon="5.7593">
        <ele>270.8</ele>
        <time>2018-02-18T09:04:41Z</time>
      </trkpt>
      <trkpt lat="45.1473" lon="5.75946">
        <ele>271.7</ele>
        <time>2018-02-18T09:04:46Z</time>
      </trkpt>
      <trkpt lat="45.1473" lon="5.75948">
        <ele>271.8</ele>
        <time>2018-02-18T09:04:47Z</time>
      </trkpt>
      <trkpt lat="45.1473" lon="5.75958">
        <ele>272.1</ele>
        <time>2018-02-18T09:04:50Z</time>
      </trkpt>
      <trkpt lat="45.14728" lon="5.75974">
        <ele>272.6</ele>
        <time>2018-02-18T09:04:55Z</time>
      </trkpt>
      <trkpt lat="45.14727" lon="5.75989">
        <ele>273</ele>
        <time>2018-02-18T09:05:00Z</time>
      </trkpt>
      <trkpt lat="45.14727" lon="5.75998">
        <ele>273.2</ele>
        <time>2018-02-18T09:05:03Z</time>
      </trkpt>
      <trkpt lat="45.14727" lon="5.76008">
        <ele>273.4</ele>
        <time>2018-02-18T09:05:07Z</time>
      </trkpt>
      <trkpt lat="45.14726" lon="5.76017">
        <ele>273.6</ele>
        <time>2018-02-18T09:05:10Z</time>
      </trkpt>
      <trkpt lat="45.14727" lon="5.76035">
        <ele>274.2</ele>
        <time>2018-02-18T09:05:16Z</time>
      </trkpt>
      <trkpt lat="45.14727" lon="5.76046">
        <ele>274.7</ele>
        <time>2018-02-18T09:05:20Z</time>
      </trkpt>
      <trkpt lat="45.14728" lon="5.76052">
        <ele>274.9</ele>
        <time>2018-02-18T09:05:22Z</time>
      </trkpt>
      <trkpt lat="45.14726" lon="5.76076">
        <ele>276.1</ele>
        <time>2018-02-18T09:05:30Z</time>
      </trkpt>
      <trkpt lat="45.14726" lon="5.76092">
        <ele>276.6</ele>
        <time>2018-02-18T09:05:36Z</time>
      </trkpt>
      <trkpt lat="45.14724" lon="5.76102">
        <ele>276.9</ele>
        <time>2018-02-18T09:05:40Z</time>
      </trkpt>
      <trkpt lat="45.14723" lon="5.76115">
        <ele>277.7</ele>
        <time>2018-02-18T09:05:45Z</time>
      </trkpt>
      <trkpt lat="45.14722" lon="5.76127">
        <ele>278.1</ele>
        <time>2018-02-18T09:05:49Z</time>
      </trkpt>
      <trkpt lat="45.14723" lon="5.76141">
        <ele>278.8</ele>
        <time>2018-02-18T09:05:55Z</time>
      </trkpt>
      <trkpt lat="45.14723" lon="5.76144">
        <ele>279</ele>
        <time>2018-02-18T09:05:56Z</time>
      </trkpt>
      <trkpt lat="45.1472" lon="5.76158">
        <ele>279.8</ele>
        <time>2018-02-18T09:06:01Z</time>
      </trkpt>
      <trkpt lat="45.14719" lon="5.7616">
        <ele>279.9</ele>
        <time>2018-02-18T09:06:02Z</time>
      </trkpt>
      <trkpt lat="45.14719" lon="5.76163">
        <ele>280</ele>
        <time>2018-02-18T09:06:03Z</time>
      </trkpt>
      <trkpt lat="45.14717" lon="5.76171">
        <ele>280.2</ele>
        <time>2018-02-18T09:06:06Z</time>
      </trkpt>
      <trkpt lat="45.14713" lon="5.76195">
        <ele>281.4</ele>
        <time>2018-02-18T09:06:13Z</time>
      </trkpt>
      <trkpt lat="45.14713" lon="5.76212">
        <ele>282.1</ele>
        <time>2018-02-18T09:06:19Z</time>
      </trkpt>
      <trkpt lat="45.14714" lon="5.76215">
        <ele>282.2</ele>
        <time>2018-02-18T09:06:20Z</time>
      </trkpt>
      <trkpt lat="45.14713" lon="5.76224">
        <ele>282.7</ele>
        <time>2018-02-18T09:06:23Z</time>
      </trkpt>
      <trkpt lat="45.14712" lon="5.76249">
        <ele>284</ele>
        <time>2018-02-18T09:06:31Z</time>
      </trkpt>
      <trkpt lat="45.14707" lon="5.76266">
        <ele>285.1</ele>
        <time>2018-02-18T09:06:36Z</time>
      </trkpt>
      <trkpt lat="45.14707" lon="5.76272">
        <ele>285.4</ele>
        <time>2018-02-18T09:06:39Z</time>
      </trkpt>
      <trkpt lat="45.14705" lon="5.76276">
        <ele>285.6</ele>
        <time>2018-02-18T09:06:45Z</time>
      </trkpt>
      <trkpt lat="45.14705" lon="5.76285">
        <ele>286</ele>
        <time>2018-02-18T09:07:00Z</time>
      </trkpt>
      <trkpt lat="45.14706" lon="5.76301">
        <ele>286</ele>
        <time>2018-02-18T09:07:06Z</time>
      </trkpt>
      <trkpt lat="45.14713" lon="5.76323">
        <ele>286</ele>
        <time>2018-02-18T09:07:13Z</time>
      </trkpt>
      <trkpt lat="45.14717" lon="5.7633">
        <ele>286</ele>
        <time>2018-02-18T09:07:16Z</time>
      </trkpt>
      <trkpt lat="45.14716" lon="5.76339">
        <ele>286</ele>
        <time>2018-02-18T09:07:21Z</time>
      </trkpt>
      <trkpt lat="45.14714" lon="5.7635">
        <ele>286</ele>
        <time>2018-02-18T09:07:25Z</time>
      </trkpt>
      <trkpt lat="45.14714" lon="5.76353">
        <ele>286</ele>
        <time>2018-02-18T09:07:26Z</time>
      </trkpt>
      <trkpt lat="45.14714" lon="5.76364">
        <ele>288.7</ele>
        <time>2018-02-18T09:07:31Z</time>
      </trkpt>
      <trkpt lat="45.14713" lon="5.76373">
        <ele>290.7</ele>
        <time>2018-02-18T09:07:36Z</time>
      </trkpt>
      <trkpt lat="45.14713" lon="5.76375">
        <ele>292.1</ele>
        <time>2018-02-18T09:07:38Z</time>
      </trkpt>
      <trkpt lat="45.14712" lon="5.76378">
        <ele>292.9</ele>
        <time>2018-02-18T09:07:40Z</time>
      </trkpt>
      <trkpt lat="45.14712" lon="5.76381">
        <ele>294.3</ele>
        <time>2018-02-18T09:07:43Z</time>
      </trkpt>
      <trkpt lat="45.14709" lon="5.76386">
        <ele>295.6</ele>
        <time>2018-02-18T09:07:47Z</time>
      </trkpt>
      <trkpt lat="45.14707" lon="5.7639">
        <ele>296.9</ele>
        <time>2018-02-18T09:07:49Z</time>
      </trkpt>
      <trkpt lat="45.14705" lon="5.76396">
        <ele>298.7</ele>
        <time>2018-02-18T09:07:56Z</time>
      </trkpt>
      <trkpt lat="45.14703" lon="5.76403">
        <ele>300</ele>
        <time>2018-02-18T09:08:02Z</time>
      </trkpt>
      <trkpt lat="45.147" lon="5.76407">
        <ele>301.2</ele>
        <time>2018-02-18T09:08:05Z</time>
      </trkpt>
      <trkpt lat="45.14695" lon="5.76409">
        <ele>302.3</ele>
        <time>2018-02-18T09:08:09Z</time>
      </trkpt>
      <trkpt lat="45.14689" lon="5.76411">
        <ele>302.8</ele>
        <time>2018-02-18T09:08:13Z</time>
      </trkpt>
      <trkpt lat="45.14686" lon="5.76412">
        <ele>303.6</ele>
        <time>2018-02-18T09:08:15Z</time>
      </trkpt>
      <trkpt lat="45.14681" lon="5.76415">
        <ele>304.7</ele>
        <time>2018-02-18T09:08:18Z</time>
      </trkpt>
      <trkpt lat="45.1468" lon="5.76416">
        <ele>305.5</ele>
        <time>2018-02-18T09:08:19Z</time>
      </trkpt>
      <trkpt lat="45.14678" lon="5.76418">
        <ele>306.7</ele>
        <time>2018-02-18T09:08:21Z</time>
      </trkpt>
      <trkpt lat="45.14674" lon="5.7642">
        <ele>307.5</ele>
        <time>2018-02-18T09:08:24Z</time>
      </trkpt>
      <trkpt lat="45.1467" lon="5.76425">
        <ele>308.8</ele>
        <time>2018-02-18T09:08:28Z</time>
      </trkpt>
      <trkpt lat="45.14664" lon="5.76428">
        <ele>310.2</ele>
        <time>2018-02-18T09:08:33Z</time>
      </trkpt>
      <trkpt lat="45.14662" lon="5.76429">
        <ele>311.1</ele>
        <time>2018-02-18T09:08:34Z</time>
      </trkpt>
      <trkpt lat="45.14659" lon="5.7643">
        <ele>311.9</ele>
        <time>2018-02-18T09:08:36Z</time>
      </trkpt>
      <trkpt lat="45.1465" lon="5.76434">
        <ele>313.6</ele>
        <time>2018-02-18T09:08:41Z</time>
      </trkpt>
      <trkpt lat="45.14648" lon="5.76436">
        <ele>315</ele>
        <time>2018-02-18T09:08:42Z</time>
      </trkpt>
      <trkpt lat="45.14645" lon="5.76439">
        <ele>315.9</ele>
        <time>2018-02-18T09:08:44Z</time>
      </trkpt>
      <trkpt lat="45.1464" lon="5.76444">
        <ele>317.5</ele>
        <time>2018-02-18T09:08:48Z</time>
      </trkpt>
      <trkpt lat="45.1464" lon="5.76446">
        <ele>318.4</ele>
        <time>2018-02-18T09:08:50Z</time>
      </trkpt>
      <trkpt lat="45.14638" lon="5.7645">
        <ele>319.5</ele>
        <time>2018-02-18T09:08:53Z</time>
      </trkpt>
      <trkpt lat="45.14634" lon="5.76454">
        <ele>320.7</ele>
        <time>2018-02-18T09:08:57Z</time>
      </trkpt>
      <trkpt lat="45.14633" lon="5.76452">
        <ele>320.5</ele>
        <time>2018-02-18T09:09:02Z</time>
      </trkpt>
      <trkpt lat="45.14632" lon="5.76446">
        <ele>320.1</ele>
        <time>2018-02-18T09:09:07Z</time>
      </trkpt>
      <trkpt lat="45.14632" lon="5.76441">
        <ele>319.7</ele>
        <time>2018-02-18T09:09:12Z</time>
      </trkpt>
      <trkpt lat="45.14633" lon="5.76435">
        <ele>319.3</ele>
        <time>2018-02-18T09:09:16Z</time>
      </trkpt>
      <trkpt lat="45.14635" lon="5.76427">
        <ele>318.7</ele>
        <time>2018-02-18T09:09:23Z</time>
      </trkpt>
      <trkpt lat="45.14635" lon="5.76424">
        <ele>318.5</ele>
        <time>2018-02-18T09:09:30Z</time>
      </trkpt>
      <trkpt lat="45.14635" lon="5.76424">
        <ele>318.4</ele>
        <time>2018-02-18T09:09:36Z</time>
      </trkpt>
      <trkpt lat="45.14634" lon="5.76424">
        <ele>318.7</ele>
        <time>2018-02-18T09:09:47Z</time>
      </trkpt>
      <trkpt lat="45.14633" lon="5.76423">
        <ele>318.9</ele>
        <time>2018-02-18T09:10:01Z</time>
      </trkpt>
      <trkpt lat="45.14632" lon="5.76424">
        <ele>319</ele>
        <time>2018-02-18T09:10:02Z</time>
      </trkpt>
      <trkpt lat="45.14629" lon="5.76425">
        <ele>319.4</ele>
        <time>2018-02-18T09:10:04Z</time>
      </trkpt>
      <trkpt lat="45.14623" lon="5.76432">
        <ele>320.4</ele>
        <time>2018-02-18T09:10:09Z</time>
      </trkpt>
      <trkpt lat="45.14614" lon="5.7645">
        <ele>322.3</ele>
        <time>2018-02-18T09:10:17Z</time>
      </trkpt>
      <trkpt lat="45.1461" lon="5.76456">
        <ele>323.4</ele>
        <time>2018-02-18T09:10:21Z</time>
      </trkpt>
      <trkpt lat="45.14603" lon="5.76465">
        <ele>324.7</ele>
        <time>2018-02-18T09:10:27Z</time>
      </trkpt>
      <trkpt lat="45.14602" lon="5.76468">
        <ele>324.9</ele>
        <time>2018-02-18T09:10:28Z</time>
      </trkpt>
      <trkpt lat="45.14594" lon="5.76483">
        <ele>326.3</ele>
        <time>2018-02-18T09:10:35Z</time>
      </trkpt>
      <trkpt lat="45.14585" lon="5.76499">
        <ele>327.9</ele>
        <time>2018-02-18T09:10:42Z</time>
      </trkpt>
      <trkpt lat="45.14581" lon="5.76508">
        <ele>328.6</ele>
        <time>2018-02-18T09:10:46Z</time>
      </trkpt>
      <trkpt lat="45.14575" lon="5.76518">
        <ele>329.3</ele>
        <time>2018-02-18T09:10:51Z</time>
      </trkpt>
      <trkpt lat="45.14564" lon="5.76532">
        <ele>330.5</ele>
        <time>2018-02-18T09:10:58Z</time>
      </trkpt>
      <trkpt lat="45.14557" lon="5.76546">
        <ele>331.3</ele>
        <time>2018-02-18T09:11:04Z</time>
      </trkpt>
      <trkpt lat="45.1455" lon="5.76558">
        <ele>332.2</ele>
        <time>2018-02-18T09:11:10Z</time>
      </trkpt>
      <trkpt lat="45.14544" lon="5.76565">
        <ele>333</ele>
        <time>2018-02-18T09:11:15Z</time>
      </trkpt>
      <trkpt lat="45.14535" lon="5.76572">
        <ele>334.2</ele>
        <time>2018-02-18T09:11:21Z</time>
      </trkpt>
      <trkpt lat="45.14528" lon="5.7658">
        <ele>335.9</ele>
        <time>2018-02-18T09:11:27Z</time>
      </trkpt>
      <trkpt lat="45.14522" lon="5.76587">
        <ele>337.5</ele>
        <time>2018-02-18T09:11:32Z</time>
      </trkpt>
      <trkpt lat="45.14514" lon="5.76595">
        <ele>339.2</ele>
        <time>2018-02-18T09:11:38Z</time>
      </trkpt>
      <trkpt lat="45.14507" lon="5.76602">
        <ele>340.9</ele>
        <time>2018-02-18T09:11:44Z</time>
      </trkpt>
      <trkpt lat="45.14504" lon="5.76605">
        <ele>341.7</ele>
        <time>2018-02-18T09:11:46Z</time>
      </trkpt>
      <trkpt lat="45.14499" lon="5.76612">
        <ele>343.7</ele>
        <time>2018-02-18T09:11:51Z</time>
      </trkpt>
      <trkpt lat="45.14498" lon="5.76613">
        <ele>344.3</ele>
        <time>2018-02-18T09:11:52Z</time>
      </trkpt>
      <trkpt lat="45.14497" lon="5.76615">
        <ele>344.9</ele>
        <time>2018-02-18T09:11:53Z</time>
      </trkpt>
      <trkpt lat="45.14495" lon="5.76619">
        <ele>345.6</ele>
        <time>2018-02-18T09:11:55Z</time>
      </trkpt>
      <trkpt lat="45.14488" lon="5.76632">
        <ele>348</ele>
        <time>2018-02-18T09:12:01Z</time>
      </trkpt>
      <trkpt lat="45.14481" lon="5.76646">
        <ele>350.1</ele>
        <time>2018-02-18T09:12:07Z</time>
      </trkpt>
      <trkpt lat="45.14476" lon="5.76656">
        <ele>351.6</ele>
        <time>2018-02-18T09:12:11Z</time>
      </trkpt>
      <trkpt lat="45.14468" lon="5.76671">
        <ele>352.5</ele>
        <time>2018-02-18T09:12:17Z</time>
      </trkpt>
      <trkpt lat="45.14466" lon="5.76677">
        <ele>353.1</ele>
        <time>2018-02-18T09:12:19Z</time>
      </trkpt>
      <trkpt lat="45.14457" lon="5.76689">
        <ele>354.3</ele>
        <time>2018-02-18T09:12:25Z</time>
      </trkpt>
      <trkpt lat="45.14454" lon="5.76696">
        <ele>355</ele>
        <time>2018-02-18T09:12:28Z</time>
      </trkpt>
      <trkpt lat="45.14452" lon="5.76699">
        <ele>355.4</ele>
        <time>2018-02-18T09:12:30Z</time>
      </trkpt>
      <trkpt lat="45.1445" lon="5.76704">
        <ele>355.8</ele>
        <time>2018-02-18T09:12:34Z</time>
      </trkpt>
      <trkpt lat="45.14447" lon="5.76706">
        <ele>356</ele>
        <time>2018-02-18T09:12:38Z</time>
      </trkpt>
      <trkpt lat="45.14446" lon="5.76706">
        <ele>356</ele>
        <time>2018-02-18T09:12:44Z</time>
      </trkpt>
      <trkpt lat="45.14444" lon="5.76707">
        <ele>356</ele>
        <time>2018-02-18T09:12:49Z</time>
      </trkpt>
      <trkpt lat="45.14444" lon="5.76708">
        <ele>356</ele>
        <time>2018-02-18T09:13:01Z</time>
      </trkpt>
      <trkpt lat="45.14444" lon="5.76704">
        <ele>356</ele>
        <time>2018-02-18T09:13:07Z</time>
      </trkpt>
      <trkpt lat="45.14445" lon="5.76703">
        <ele>356</ele>
        <time>2018-02-18T09:13:11Z</time>
      </trkpt>
      <trkpt lat="45.14444" lon="5.76704">
        <ele>356</ele>
        <time>2018-02-18T09:13:45Z</time>
      </trkpt>
      <trkpt lat="45.14444" lon="5.76704">
        <ele>356</ele>
        <time>2018-02-18T09:13:47Z</time>
      </trkpt>
      <trkpt lat="45.14447" lon="5.76696">
        <ele>355.7</ele>
        <time>2018-02-18T09:13:53Z</time>
      </trkpt>
      <trkpt lat="45.14448" lon="5.76694">
        <ele>355.5</ele>
        <time>2018-02-18T09:13:54Z</time>
      </trkpt>
      <trkpt lat="45.14451" lon="5.7669">
        <ele>355</ele>
        <time>2018-02-18T09:13:56Z</time>
      </trkpt>
      <trkpt lat="45.14458" lon="5.76678">
        <ele>353.7</ele>
        <time>2018-02-18T09:14:01Z</time>
      </trkpt>
      <trkpt lat="45.14459" lon="5.76675">
        <ele>353.5</ele>
        <time>2018-02-18T09:14:02Z</time>
      </trkpt>
      <trkpt lat="45.14469" lon="5.7666">
        <ele>352</ele>
        <time>2018-02-18T09:14:08Z</time>
      </trkpt>
      <trkpt lat="45.14472" lon="5.76649">
        <ele>351.7</ele>
        <time>2018-02-18T09:14:11Z</time>
      </trkpt>
      <trkpt lat="45.14479" lon="5.76636">
        <ele>349.9</ele>
        <time>2018-02-18T09:14:16Z</time>
      </trkpt>
      <trkpt lat="45.14481" lon="5.76631">
        <ele>349.2</ele>
        <time>2018-02-18T09:14:18Z</time>
      </trkpt>
      <trkpt lat="45.1449" lon="5.76616">
        <ele>346.5</ele>
        <time>2018-02-18T09:14:24Z</time>
      </trkpt>
      <trkpt lat="45.14494" lon="5.76613">
        <ele>345.6</ele>
        <time>2018-02-18T09:14:26Z</time>
      </trkpt>
      <trkpt lat="45.14503" lon="5.76605">
        <ele>342.4</ele>
        <time>2018-02-18T09:14:31Z</time>
      </trkpt>
      <trkpt lat="45.1451" lon="5.766">
        <ele>340.8</ele>
        <time>2018-02-18T09:14:34Z</time>
      </trkpt>
      <trkpt lat="45.14511" lon="5.76598">
        <ele>340.3</ele>
        <time>2018-02-18T09:14:35Z</time>
      </trkpt>
      <trkpt lat="45.14517" lon="5.76591">
        <ele>339</ele>
        <time>2018-02-18T09:14:38Z</time>
      </trkpt>
      <trkpt lat="45.14526" lon="5.7658">
        <ele>336.8</ele>
        <time>2018-02-18T09:14:43Z</time>
      </trkpt>
      <trkpt lat="45.14529" lon="5.76575">
        <ele>335.8</ele>
        <time>2018-02-18T09:14:45Z</time>
      </trkpt>
      <trkpt lat="45.14539" lon="5.76567">
        <ele>334</ele>
        <time>2018-02-18T09:14:49Z</time>
      </trkpt>
      <trkpt lat="45.1455" lon="5.76558">
        <ele>332.6</ele>
        <time>2018-02-18T09:14:54Z</time>
      </trkpt>
      <trkpt lat="45.14561" lon="5.76551">
        <ele>331.5</ele>
        <time>2018-02-18T09:14:59Z</time>
      </trkpt>
      <trkpt lat="45.14569" lon="5.7654">
        <ele>330.9</ele>
        <time>2018-02-18T09:15:04Z</time>
      </trkpt>
      <trkpt lat="45.14575" lon="5.76526">
        <ele>329.9</ele>
        <time>2018-02-18T09:15:09Z</time>
      </trkpt>
      <trkpt lat="45.14579" lon="5.76519">
        <ele>329.3</ele>
        <time>2018-02-18T09:15:12Z</time>
      </trkpt>
      <trkpt lat="45.14582" lon="5.76514">
        <ele>329</ele>
        <time>2018-02-18T09:15:14Z</time>
      </trkpt>
      <trkpt lat="45.14589" lon="5.76502">
        <ele>328.1</ele>
        <time>2018-02-18T09:15:19Z</time>
      </trkpt>
      <trkpt lat="45.14596" lon="5.76492">
        <ele>327.2</ele>
        <time>2018-02-18T09:15:23Z</time>
      </trkpt>
      <trkpt lat="45.146" lon="5.76484">
        <ele>326.3</ele>
        <time>2018-02-18T09:15:26Z</time>
      </trkpt>
      <trkpt lat="45.14602" lon="5.76479">
        <ele>325.9</ele>
        <time>2018-02-18T09:15:28Z</time>
      </trkpt>
      <trkpt lat="45.14605" lon="5.76468">
        <ele>325.2</ele>
        <time>2018-02-18T09:15:31Z</time>
      </trkpt>
      <trkpt lat="45.14611" lon="5.76456">
        <ele>323.8</ele>
        <time>2018-02-18T09:15:36Z</time>
      </trkpt>
      <trkpt lat="45.14619" lon="5.76444">
        <ele>321.9</ele>
        <time>2018-02-18T09:15:41Z</time>
      </trkpt>
      <trkpt lat="45.14623" lon="5.76438">
        <ele>321.4</ele>
        <time>2018-02-18T09:15:44Z</time>
      </trkpt>
      <trkpt lat="45.1463" lon="5.76431">
        <ele>320.3</ele>
        <time>2018-02-18T09:15:48Z</time>
      </trkpt>
      <trkpt lat="45.14645" lon="5.76418">
        <ele>318</ele>
        <time>2018-02-18T09:15:55Z</time>
      </trkpt>
      <trkpt lat="45.14652" lon="5.76413">
        <ele>316.6</ele>
        <time>2018-02-18T09:15:58Z</time>
      </trkpt>
      <trkpt lat="45.14658" lon="5.76403">
        <ele>314.6</ele>
        <time>2018-02-18T09:16:02Z</time>
      </trkpt>
      <trkpt lat="45.14668" lon="5.76385">
        <ele>311.8</ele>
        <time>2018-02-18T09:16:08Z</time>
      </trkpt>
      <trkpt lat="45.14673" lon="5.76366">
        <ele>309.5</ele>
        <time>2018-02-18T09:16:14Z</time>
      </trkpt>
      <trkpt lat="45.14676" lon="5.76351">
        <ele>307.7</ele>
        <time>2018-02-18T09:16:19Z</time>
      </trkpt>
      <trkpt lat="45.14677" lon="5.76344">
        <ele>306.4</ele>
        <time>2018-02-18T09:16:21Z</time>
      </trkpt>
      <trkpt lat="45.14673" lon="5.76322">
        <ele>303.4</ele>
        <time>2018-02-18T09:16:27Z</time>
      </trkpt>
      <trkpt lat="45.1467" lon="5.76306">
        <ele>302.4</ele>
        <time>2018-02-18T09:16:31Z</time>
      </trkpt>
      <trkpt lat="45.14664" lon="5.76288">
        <ele>301.2</ele>
        <time>2018-02-18T09:16:36Z</time>
      </trkpt>
      <trkpt lat="45.14663" lon="5.76285">
        <ele>301</ele>
        <time>2018-02-18T09:16:37Z</time>
      </trkpt>
      <trkpt lat="45.14657" lon="5.76277">
        <ele>300.3</ele>
        <time>2018-02-18T09:16:40Z</time>
      </trkpt>
      <trkpt lat="45.14647" lon="5.76262">
        <ele>299.7</ele>
        <time>2018-02-18T09:16:46Z</time>
      </trkpt>
      <trkpt lat="45.14638" lon="5.76251">
        <ele>299</ele>
        <time>2018-02-18T09:16:51Z</time>
      </trkpt>
      <trkpt lat="45.1463" lon="5.76239">
        <ele>300</ele>
        <time>2018-02-18T09:16:56Z</time>
      </trkpt>
      <trkpt lat="45.14623" lon="5.76228">
        <ele>300.3</ele>
        <time>2018-02-18T09:17:01Z</time>
      </trkpt>
      <trkpt lat="45.14621" lon="5.76224">
        <ele>300.6</ele>
        <time>2018-02-18T09:17:03Z</time>
      </trkpt>
      <trkpt lat="45.14614" lon="5.76217">
        <ele>299.3</ele>
        <time>2018-02-18T09:17:08Z</time>
      </trkpt>
      <trkpt lat="45.14611" lon="5.76213">
        <ele>298.3</ele>
        <time>2018-02-18T09:17:10Z</time>
      </trkpt>
      <trkpt lat="45.14609" lon="5.76207">
        <ele>297</ele>
        <time>2018-02-18T09:17:12Z</time>
      </trkpt>
      <trkpt lat="45.14613" lon="5.76202">
        <ele>296.9</ele>
        <time>2018-02-18T09:17:15Z</time>
      </trkpt>
      <trkpt lat="45.14619" lon="5.76206">
        <ele>296.4</ele>
        <time>2018-02-18T09:17:18Z</time>
      </trkpt>
      <trkpt lat="45.1463" lon="5.76217">
        <ele>294.2</ele>
        <time>2018-02-18T09:17:24Z</time>
      </trkpt>
      <trkpt lat="45.14639" lon="5.76226">
        <ele>292.5</ele>
        <time>2018-02-18T09:17:29Z</time>
      </trkpt>
      <trkpt lat="45.1465" lon="5.76236">
        <ele>290.8</ele>
        <time>2018-02-18T09:17:34Z</time>
      </trkpt>
      <trkpt lat="45.14661" lon="5.76245">
        <ele>289.3</ele>
        <time>2018-02-18T09:17:40Z</time>
      </trkpt>
      <trkpt lat="45.14674" lon="5.76257">
        <ele>287.9</ele>
        <time>2018-02-18T09:17:46Z</time>
      </trkpt>
      <trkpt lat="45.14689" lon="5.76269">
        <ele>287.1</ele>
        <time>2018-02-18T09:17:53Z</time>
      </trkpt>
      <trkpt lat="45.14697" lon="5.7627">
        <ele>285.4</ele>
        <time>2018-02-18T09:17:57Z</time>
      </trkpt>
      <trkpt lat="45.14701" lon="5.76266">
        <ele>285.1</ele>
        <time>2018-02-18T09:17:59Z</time>
      </trkpt>
      <trkpt lat="45.14707" lon="5.76243">
        <ele>283.5</ele>
        <time>2018-02-18T09:18:06Z</time>
      </trkpt>
      <trkpt lat="45.1471" lon="5.76221">
        <ele>282.4</ele>
        <time>2018-02-18T09:18:12Z</time>
      </trkpt>
      <trkpt lat="45.14712" lon="5.76202">
        <ele>281.6</ele>
        <time>2018-02-18T09:18:17Z</time>
      </trkpt>
      <trkpt lat="45.14713" lon="5.76176">
        <ele>280.4</ele>
        <time>2018-02-18T09:18:24Z</time>
      </trkpt>
      <trkpt lat="45.14716" lon="5.76153">
        <ele>279.6</ele>
        <time>2018-02-18T09:18:30Z</time>
      </trkpt>
      <trkpt lat="45.14717" lon="5.76134">
        <ele>278.4</ele>
        <time>2018-02-18T09:18:35Z</time>
      </trkpt>
      <trkpt lat="45.14718" lon="5.76107">
        <ele>277.2</ele>
        <time>2018-02-18T09:18:42Z</time>
      </trkpt>
      <trkpt lat="45.14721" lon="5.76082">
        <ele>276.2</ele>
        <time>2018-02-18T09:18:48Z</time>
      </trkpt>
      <trkpt lat="45.14723" lon="5.76059">
        <ele>275.2</ele>
        <time>2018-02-18T09:18:54Z</time>
      </trkpt>
      <trkpt lat="45.14724" lon="5.76036">
        <ele>274.3</ele>
        <time>2018-02-18T09:19:00Z</time>
      </trkpt>
      <trkpt lat="45.14724" lon="5.76014">
        <ele>273.5</ele>
        <time>2018-02-18T09:19:06Z</time>
      </trkpt>
      <trkpt lat="45.14723" lon="5.75987">
        <ele>272.9</ele>
        <time>2018-02-18T09:19:13Z</time>
      </trkpt>
      <trkpt lat="45.14725" lon="5.75969">
        <ele>272.4</ele>
        <time>2018-02-18T09:19:18Z</time>
      </trkpt>
      <trkpt lat="45.14727" lon="5.7595">
        <ele>271.9</ele>
        <time>2018-02-18T09:19:24Z</time>
      </trkpt>
      <trkpt lat="45.14727" lon="5.75929">
        <ele>270.7</ele>
        <time>2018-02-18T09:19:30Z</time>
      </trkpt>
      <trkpt lat="45.14728" lon="5.75908">
        <ele>269.7</ele>
        <time>2018-02-18T09:19:36Z</time>
      </trkpt>
      <trkpt lat="45.14727" lon="5.7589">
        <ele>268.7</ele>
        <time>2018-02-18T09:19:41Z</time>
      </trkpt>
      <trkpt lat="45.14725" lon="5.75869">
        <ele>267.3</ele>
        <time>2018-02-18T09:19:47Z</time>
      </trkpt>
      <trkpt lat="45.14724" lon="5.75847">
        <ele>266.3</ele>
        <time>2018-02-18T09:19:53Z</time>
      </trkpt>
      <trkpt lat="45.14721" lon="5.7582">
        <ele>264.8</ele>
        <time>2018-02-18T09:20:00Z</time>
      </trkpt>
      <trkpt lat="45.14717" lon="5.75802">
        <ele>263.8</ele>
        <time>2018-02-18T09:20:05Z</time>
      </trkpt>
      <trkpt lat="45.14711" lon="5.75781">
        <ele>262.6</ele>
        <time>2018-02-18T09:20:11Z</time>
      </trkpt>
      <trkpt lat="45.14705" lon="5.75765">
        <ele>261.3</ele>
        <time>2018-02-18T09:20:16Z</time>
      </trkpt>
      <trkpt lat="45.14699" lon="5.75744">
        <ele>260.2</ele>
        <time>2018-02-18T09:20:22Z</time>
      </trkpt>
      <trkpt lat="45.14694" lon="5.75731">
        <ele>259.8</ele>
        <time>2018-02-18T09:20:26Z</time>
      </trkpt>
      <trkpt lat="45.1469" lon="5.75709">
        <ele>259.3</ele>
        <time>2018-02-18T09:20:32Z</time>
      </trkpt>
      <trkpt lat="45.14688" lon="5.75681">
        <ele>258.6</ele>
        <time>2018-02-18T09:20:39Z</time>
      </trkpt>
      <trkpt lat="45.14688" lon="5.75678">
        <ele>258.6</ele>
        <time>2018-02-18T09:20:40Z</time>
      </trkpt>
      <trkpt lat="45.14685" lon="5.75653">
        <ele>257.8</ele>
        <time>2018-02-18T09:20:47Z</time>
      </trkpt>
      <trkpt lat="45.14684" lon="5.75628">
        <ele>256.9</ele>
        <time>2018-02-18T09:20:54Z</time>
      </trkpt>
      <trkpt lat="45.14683" lon="5.75599">
        <ele>256</ele>
        <time>2018-02-18T09:21:02Z</time>
      </trkpt>
      <trkpt lat="45.14681" lon="5.75573">
        <ele>255.6</ele>
        <time>2018-02-18T09:21:09Z</time>
      </trkpt>
      <trkpt lat="45.14683" lon="5.75555">
        <ele>255.3</ele>
        <time>2018-02-18T09:21:14Z</time>
      </trkpt>
      <trkpt lat="45.14685" lon="5.75535">
        <ele>255.1</ele>
        <time>2018-02-18T09:21:20Z</time>
      </trkpt>
      <trkpt lat="45.14687" lon="5.75518">
        <ele>255</ele>
        <time>2018-02-18T09:21:25Z</time>
      </trkpt>
      <trkpt lat="45.14695" lon="5.75513">
        <ele>255</ele>
        <time>2018-02-18T09:21:29Z</time>
      </trkpt>
      <trkpt lat="45.14697" lon="5.75513">
        <ele>255</ele>
        <time>2018-02-18T09:21:30Z</time>
      </trkpt>
      <trkpt lat="45.14699" lon="5.75512">
        <ele>255</ele>
        <time>2018-02-18T09:21:31Z</time>
      </trkpt>
      <trkpt lat="45.14706" lon="5.75501">
        <ele>254.5</ele>
        <time>2018-02-18T09:21:35Z</time>
      </trkpt>
      <trkpt lat="45.14707" lon="5.75498">
        <ele>254</ele>
        <time>2018-02-18T09:21:36Z</time>
      </trkpt>
      <trkpt lat="45.14709" lon="5.75495">
        <ele>254</ele>
        <time>2018-02-18T09:21:37Z</time>
      </trkpt>
      <trkpt lat="45.14714" lon="5.7549">
        <ele>254</ele>
        <time>2018-02-18T09:21:40Z</time>
      </trkpt>
      <trkpt lat="45.14727" lon="5.7548">
        <ele>254</ele>
        <time>2018-02-18T09:21:46Z</time>
      </trkpt>
      <trkpt lat="45.14733" lon="5.75459">
        <ele>254.3</ele>
        <time>2018-02-18T09:21:52Z</time>
      </trkpt>
      <trkpt lat="45.14737" lon="5.75442">
        <ele>254</ele>
        <time>2018-02-18T09:21:57Z</time>
      </trkpt>
      <trkpt lat="45.14747" lon="5.75428">
        <ele>254.6</ele>
        <time>2018-02-18T09:22:02Z</time>
      </trkpt>
      <trkpt lat="45.14758" lon="5.75405">
        <ele>255.1</ele>
        <time>2018-02-18T09:22:09Z</time>
      </trkpt>
      <trkpt lat="45.1477" lon="5.75391">
        <ele>255.3</ele>
        <time>2018-02-18T09:22:15Z</time>
      </trkpt>
      <trkpt lat="45.14783" lon="5.75377">
        <ele>256.5</ele>
        <time>2018-02-18T09:22:21Z</time>
      </trkpt>
      <trkpt lat="45.14792" lon="5.75359">
        <ele>255.4</ele>
        <time>2018-02-18T09:22:27Z</time>
      </trkpt>
      <trkpt lat="45.14801" lon="5.75341">
        <ele>253.6</ele>
        <time>2018-02-18T09:22:33Z</time>
      </trkpt>
      <trkpt lat="45.1481" lon="5.75321">
        <ele>251.4</ele>
        <time>2018-02-18T09:22:39Z</time>
      </trkpt>
      <trkpt lat="45.14815" lon="5.753">
        <ele>248.8</ele>
        <time>2018-02-18T09:22:45Z</time>
      </trkpt>
      <trkpt lat="45.14824" lon="5.75284">
        <ele>246.7</ele>
        <time>2018-02-18T09:22:50Z</time>
      </trkpt>
      <trkpt lat="45.14838" lon="5.75276">
        <ele>243.7</ele>
        <time>2018-02-18T09:22:56Z</time>
      </trkpt>
      <trkpt lat="45.14854" lon="5.75264">
        <ele>241</ele>
        <time>2018-02-18T09:23:03Z</time>
      </trkpt>
      <trkpt lat="45.14866" lon="5.7526">
        <ele>240.1</ele>
        <time>2018-02-18T09:23:08Z</time>
      </trkpt>
      <trkpt lat="45.14875" lon="5.75265">
        <ele>240.2</ele>
        <time>2018-02-18T09:23:12Z</time>
      </trkpt>
      <trkpt lat="45.14891" lon="5.75282">
        <ele>240.4</ele>
        <time>2018-02-18T09:23:20Z</time>
      </trkpt>
      <trkpt lat="45.14893" lon="5.75283">
        <ele>240.4</ele>
        <time>2018-02-18T09:23:21Z</time>
      </trkpt>
      <trkpt lat="45.14904" lon="5.75296">
        <ele>240.7</ele>
        <time>2018-02-18T09:23:27Z</time>
      </trkpt>
      <trkpt lat="45.14908" lon="5.753">
        <ele>240.7</ele>
        <time>2018-02-18T09:23:29Z</time>
      </trkpt>
      <trkpt lat="45.14914" lon="5.75299">
        <ele>241</ele>
        <time>2018-02-18T09:23:32Z</time>
      </trkpt>
      <trkpt lat="45.14927" lon="5.7528">
        <ele>239.8</ele>
        <time>2018-02-18T09:23:39Z</time>
      </trkpt>
      <trkpt lat="45.14938" lon="5.75263">
        <ele>238.8</ele>
        <time>2018-02-18T09:23:45Z</time>
      </trkpt>
      <trkpt lat="45.14951" lon="5.75245">
        <ele>238.1</ele>
        <time>2018-02-18T09:23:52Z</time>
      </trkpt>
      <trkpt lat="45.14955" lon="5.75228">
        <ele>237.8</ele>
        <time>2018-02-18T09:23:58Z</time>
      </trkpt>
      <trkpt lat="45.14949" lon="5.75216">
        <ele>237.5</ele>
        <time>2018-02-18T09:24:02Z</time>
      </trkpt>
      <trkpt lat="45.14935" lon="5.752">
        <ele>237.1</ele>
        <time>2018-02-18T09:24:09Z</time>
      </trkpt>
      <trkpt lat="45.14928" lon="5.75185">
        <ele>237</ele>
        <time>2018-02-18T09:24:14Z</time>
      </trkpt>
      <trkpt lat="45.14929" lon="5.75182">
        <ele>236.9</ele>
        <time>2018-02-18T09:24:15Z</time>
      </trkpt>
      <trkpt lat="45.14938" lon="5.75165">
        <ele>236.4</ele>
        <time>2018-02-18T09:24:21Z</time>
      </trkpt>
      <trkpt lat="45.14949" lon="5.75151">
        <ele>236</ele>
        <time>2018-02-18T09:24:27Z</time>
      </trkpt>
      <trkpt lat="45.14958" lon="5.7514">
        <ele>236</ele>
        <time>2018-02-18T09:24:32Z</time>
      </trkpt>
      <trkpt lat="45.14967" lon="5.75123">
        <ele>236.1</ele>
        <time>2018-02-18T09:24:38Z</time>
      </trkpt>
      <trkpt lat="45.14976" lon="5.75106">
        <ele>236.3</ele>
        <time>2018-02-18T09:24:44Z</time>
      </trkpt>
      <trkpt lat="45.14981" lon="5.75088">
        <ele>236.4</ele>
        <time>2018-02-18T09:24:50Z</time>
      </trkpt>
      <trkpt lat="45.14984" lon="5.75068">
        <ele>236.4</ele>
        <time>2018-02-18T09:24:57Z</time>
      </trkpt>
      <trkpt lat="45.14989" lon="5.75051">
        <ele>236.5</ele>
        <time>2018-02-18T09:25:02Z</time>
      </trkpt>
      <trkpt lat="45.14991" lon="5.75041">
        <ele>236.5</ele>
        <time>2018-02-18T09:25:05Z</time>
      </trkpt>
      <trkpt lat="45.14994" lon="5.75025">
        <ele>236.6</ele>
        <time>2018-02-18T09:25:10Z</time>
      </trkpt>
      <trkpt lat="45.15" lon="5.75023">
        <ele>236.7</ele>
        <time>2018-02-18T09:25:13Z</time>
      </trkpt>
      <trkpt lat="45.15002" lon="5.75024">
        <ele>236.6</ele>
        <time>2018-02-18T09:25:14Z</time>
      </trkpt>
      <trkpt lat="45.15011" lon="5.75027">
        <ele>236.2</ele>
        <time>2018-02-18T09:25:19Z</time>
      </trkpt>
      <trkpt lat="45.15026" lon="5.7503">
        <ele>235.6</ele>
        <time>2018-02-18T09:25:25Z</time>
      </trkpt>
      <trkpt lat="45.15042" lon="5.75036">
        <ele>235.1</ele>
        <time>2018-02-18T09:25:32Z</time>
      </trkpt>
      <trkpt lat="45.15056" lon="5.75039">
        <ele>235.3</ele>
        <time>2018-02-18T09:25:38Z</time>
      </trkpt>
      <trkpt lat="45.1507" lon="5.75042">
        <ele>235.5</ele>
        <time>2018-02-18T09:25:44Z</time>
      </trkpt>
      <trkpt lat="45.15085" lon="5.75047">
        <ele>235.6</ele>
        <time>2018-02-18T09:25:50Z</time>
      </trkpt>
      <trkpt lat="45.15094" lon="5.7505">
        <ele>235.6</ele>
        <time>2018-02-18T09:25:54Z</time>
      </trkpt>
      <trkpt lat="45.15106" lon="5.75056">
        <ele>235.6</ele>
        <time>2018-02-18T09:26:00Z</time>
      </trkpt>
      <trkpt lat="45.15121" lon="5.75066">
        <ele>235.4</ele>
        <time>2018-02-18T09:26:07Z</time>
      </trkpt>
      <trkpt lat="45.15135" lon="5.75073">
        <ele>235.1</ele>
        <time>2018-02-18T09:26:14Z</time>
      </trkpt>
      <trkpt lat="45.15146" lon="5.75076">
        <ele>234.9</ele>
        <time>2018-02-18T09:26:19Z</time>
      </trkpt>
      <trkpt lat="45.15156" lon="5.75068">
        <ele>234.3</ele>
        <time>2018-02-18T09:26:24Z</time>
      </trkpt>
      <trkpt lat="45.15168" lon="5.75058">
        <ele>233.6</ele>
        <time>2018-02-18T09:26:30Z</time>
      </trkpt>
      <trkpt lat="45.1518" lon="5.75053">
        <ele>232.9</ele>
        <time>2018-02-18T09:26:35Z</time>
      </trkpt>
      <trkpt lat="45.15191" lon="5.75055">
        <ele>232.3</ele>
        <time>2018-02-18T09:26:40Z</time>
      </trkpt>
      <trkpt lat="45.15203" lon="5.75062">
        <ele>231.3</ele>
        <time>2018-02-18T09:26:45Z</time>
      </trkpt>
      <trkpt lat="45.15217" lon="5.75067">
        <ele>230.1</ele>
        <time>2018-02-18T09:26:51Z</time>
      </trkpt>
      <trkpt lat="45.15232" lon="5.7507">
        <ele>228.9</ele>
        <time>2018-02-18T09:26:57Z</time>
      </trkpt>
      <trkpt lat="45.15246" lon="5.75072">
        <ele>228</ele>
        <time>2018-02-18T09:27:03Z</time>
      </trkpt>
      <trkpt lat="45.15256" lon="5.75076">
        <ele>227.6</ele>
        <time>2018-02-18T09:27:08Z</time>
      </trkpt>
      <trkpt lat="45.15257" lon="5.75087">
        <ele>227.3</ele>
        <time>2018-02-18T09:27:12Z</time>
      </trkpt>
      <trkpt lat="45.15256" lon="5.7509">
        <ele>227.8</ele>
        <time>2018-02-18T09:27:13Z</time>
      </trkpt>
      <trkpt lat="45.15246" lon="5.75112">
        <ele>229.5</ele>
        <time>2018-02-18T09:27:20Z</time>
      </trkpt>
      <trkpt lat="45.15241" lon="5.75123">
        <ele>230.4</ele>
        <time>2018-02-18T09:27:24Z</time>
      </trkpt>
      <trkpt lat="45.15234" lon="5.75143">
        <ele>231.9</ele>
        <time>2018-02-18T09:27:30Z</time>
      </trkpt>
      <trkpt lat="45.15229" lon="5.75163">
        <ele>233.4</ele>
        <time>2018-02-18T09:27:36Z</time>
      </trkpt>
      <trkpt lat="45.15222" lon="5.75181">
        <ele>234.9</ele>
        <time>2018-02-18T09:27:42Z</time>
      </trkpt>
      <trkpt lat="45.15217" lon="5.75199">
        <ele>236.3</ele>
        <time>2018-02-18T09:27:47Z</time>
      </trkpt>
      <trkpt lat="45.15217" lon="5.75203">
        <ele>236.6</ele>
        <time>2018-02-18T09:27:48Z</time>
      </trkpt>
      <trkpt lat="45.15219" lon="5.75219">
        <ele>237.7</ele>
        <time>2018-02-18T09:27:52Z</time>
      </trkpt>
      <trkpt lat="45.15218" lon="5.75222">
        <ele>237.9</ele>
        <time>2018-02-18T09:27:53Z</time>
      </trkpt>
      <trkpt lat="45.15217" lon="5.75235">
        <ele>239</ele>
        <time>2018-02-18T09:27:57Z</time>
      </trkpt>
      <trkpt lat="45.1522" lon="5.75254">
        <ele>240.9</ele>
        <time>2018-02-18T09:28:03Z</time>
      </trkpt>
      <trkpt lat="45.1522" lon="5.75263">
        <ele>240.2</ele>
        <time>2018-02-18T09:28:06Z</time>
      </trkpt>
      <trkpt lat="45.1522" lon="5.75281">
        <ele>237.9</ele>
        <time>2018-02-18T09:28:11Z</time>
      </trkpt>
      <trkpt lat="45.15221" lon="5.75283">
        <ele>237.5</ele>
        <time>2018-02-18T09:28:12Z</time>
      </trkpt>
      <trkpt lat="45.15224" lon="5.75306">
        <ele>234.7</ele>
        <time>2018-02-18T09:28:19Z</time>
      </trkpt>
      <trkpt lat="45.15228" lon="5.75318">
        <ele>233.4</ele>
        <time>2018-02-18T09:28:23Z</time>
      </trkpt>
      <trkpt lat="45.15238" lon="5.7533">
        <ele>231.6</ele>
        <time>2018-02-18T09:28:28Z</time>
      </trkpt>
      <trkpt lat="45.15242" lon="5.75335">
        <ele>231.1</ele>
        <time>2018-02-18T09:28:30Z</time>
      </trkpt>
      <trkpt lat="45.15251" lon="5.75349">
        <ele>229.6</ele>
        <time>2018-02-18T09:28:36Z</time>
      </trkpt>
      <trkpt lat="45.15262" lon="5.75364">
        <ele>228.9</ele>
        <time>2018-02-18T09:28:42Z</time>
      </trkpt>
      <trkpt lat="45.15273" lon="5.75378">
        <ele>228.8</ele>
        <time>2018-02-18T09:28:48Z</time>
      </trkpt>
      <trkpt lat="45.15284" lon="5.75396">
        <ele>228.7</ele>
        <time>2018-02-18T09:28:55Z</time>
      </trkpt>
      <trkpt lat="45.15294" lon="5.75412">
        <ele>228.6</ele>
        <time>2018-02-18T09:29:01Z</time>
      </trkpt>
      <trkpt lat="45.15302" lon="5.75431">
        <ele>228.6</ele>
        <time>2018-02-18T09:29:07Z</time>
      </trkpt>
      <trkpt lat="45.1531" lon="5.75446">
        <ele>228.5</ele>
        <time>2018-02-18T09:29:12Z</time>
      </trkpt>
      <trkpt lat="45.15318" lon="5.75464">
        <ele>228.4</ele>
        <time>2018-02-18T09:29:18Z</time>
      </trkpt>
      <trkpt lat="45.15322" lon="5.75485">
        <ele>228.3</ele>
        <time>2018-02-18T09:29:24Z</time>
      </trkpt>
      <trkpt lat="45.15327" lon="5.7551">
        <ele>228.2</ele>
        <time>2018-02-18T09:29:31Z</time>
      </trkpt>
      <trkpt lat="45.1533" lon="5.75531">
        <ele>228.2</ele>
        <time>2018-02-18T09:29:37Z</time>
      </trkpt>
      <trkpt lat="45.15332" lon="5.75548">
        <ele>228.1</ele>
        <time>2018-02-18T09:29:42Z</time>
      </trkpt>
      <trkpt lat="45.15335" lon="5.75572">
        <ele>228</ele>
        <time>2018-02-18T09:29:49Z</time>
      </trkpt>
      <trkpt lat="45.15337" lon="5.75592">
        <ele>228</ele>
        <time>2018-02-18T09:29:55Z</time>
      </trkpt>
      <trkpt lat="45.15338" lon="5.75613">
        <ele>227.9</ele>
        <time>2018-02-18T09:30:01Z</time>
      </trkpt>
      <trkpt lat="45.15339" lon="5.75631">
        <ele>228</ele>
        <time>2018-02-18T09:30:06Z</time>
      </trkpt>
      <trkpt lat="45.15339" lon="5.75648">
        <ele>228.3</ele>
        <time>2018-02-18T09:30:11Z</time>
      </trkpt>
      <trkpt lat="45.15338" lon="5.75667">
        <ele>228.7</ele>
        <time>2018-02-18T09:30:17Z</time>
      </trkpt>
      <trkpt lat="45.15338" lon="5.75683">
        <ele>229.1</ele>
        <time>2018-02-18T09:30:22Z</time>
      </trkpt>
      <trkpt lat="45.15341" lon="5.75699">
        <ele>229.4</ele>
        <time>2018-02-18T09:30:27Z</time>
      </trkpt>
      <trkpt lat="45.15344" lon="5.75713">
        <ele>229.5</ele>
        <time>2018-02-18T09:30:32Z</time>
      </trkpt>
      <trkpt lat="45.15351" lon="5.7573">
        <ele>229.3</ele>
        <time>2018-02-18T09:30:38Z</time>
      </trkpt>
      <trkpt lat="45.15358" lon="5.75748">
        <ele>232.6</ele>
        <time>2018-02-18T09:30:44Z</time>
      </trkpt>
      <trkpt lat="45.15359" lon="5.75751">
        <ele>233.7</ele>
        <time>2018-02-18T09:30:45Z</time>
      </trkpt>
      <trkpt lat="45.15366" lon="5.75764">
        <ele>239.2</ele>
        <time>2018-02-18T09:30:50Z</time>
      </trkpt>
      <trkpt lat="45.15378" lon="5.75768">
        <ele>241</ele>
        <time>2018-02-18T09:30:56Z</time>
      </trkpt>
      <trkpt lat="45.15388" lon="5.75759">
        <ele>240.3</ele>
        <time>2018-02-18T09:31:01Z</time>
      </trkpt>
      <trkpt lat="45.15397" lon="5.75748">
        <ele>234.5</ele>
        <time>2018-02-18T09:31:06Z</time>
      </trkpt>
      <trkpt lat="45.1541" lon="5.75731">
        <ele>226.7</ele>
        <time>2018-02-18T09:31:13Z</time>
      </trkpt>
      <trkpt lat="45.15421" lon="5.75718">
        <ele>222</ele>
        <time>2018-02-18T09:31:19Z</time>
      </trkpt>
      <trkpt lat="45.15433" lon="5.75717">
        <ele>222</ele>
        <time>2018-02-18T09:31:24Z</time>
      </trkpt>
      <trkpt lat="45.15449" lon="5.7572">
        <ele>222</ele>
        <time>2018-02-18T09:31:30Z</time>
      </trkpt>
      <trkpt lat="45.15461" lon="5.75723">
        <ele>222</ele>
        <time>2018-02-18T09:31:35Z</time>
      </trkpt>
      <trkpt lat="45.15473" lon="5.75724">
        <ele>222</ele>
        <time>2018-02-18T09:31:40Z</time>
      </trkpt>
      <trkpt lat="45.15488" lon="5.75727">
        <ele>222</ele>
        <time>2018-02-18T09:31:46Z</time>
      </trkpt>
      <trkpt lat="45.155" lon="5.7573">
        <ele>222</ele>
        <time>2018-02-18T09:31:51Z</time>
      </trkpt>
      <trkpt lat="45.15509" lon="5.75731">
        <ele>222.1</ele>
        <time>2018-02-18T09:31:55Z</time>
      </trkpt>
      <trkpt lat="45.15521" lon="5.75731">
        <ele>222.1</ele>
        <time>2018-02-18T09:32:00Z</time>
      </trkpt>
      <trkpt lat="45.15533" lon="5.75736">
        <ele>222.1</ele>
        <time>2018-02-18T09:32:05Z</time>
      </trkpt>
      <trkpt lat="45.15545" lon="5.75738">
        <ele>222.1</ele>
        <time>2018-02-18T09:32:10Z</time>
      </trkpt>
      <trkpt lat="45.1556" lon="5.75744">
        <ele>222</ele>
        <time>2018-02-18T09:32:16Z</time>
      </trkpt>
      <trkpt lat="45.15562" lon="5.75746">
        <ele>222.1</ele>
        <time>2018-02-18T09:32:17Z</time>
      </trkpt>
      <trkpt lat="45.15566" lon="5.75761">
        <ele>222.4</ele>
        <time>2018-02-18T09:32:22Z</time>
      </trkpt>
      <trkpt lat="45.15572" lon="5.75774">
        <ele>222.8</ele>
        <time>2018-02-18T09:32:26Z</time>
      </trkpt>
      <trkpt lat="45.15578" lon="5.75789">
        <ele>222.7</ele>
        <time>2018-02-18T09:32:31Z</time>
      </trkpt>
      <trkpt lat="45.15587" lon="5.75811">
        <ele>221</ele>
        <time>2018-02-18T09:32:38Z</time>
      </trkpt>
      <trkpt lat="45.15595" lon="5.75829">
        <ele>221</ele>
        <time>2018-02-18T09:32:44Z</time>
      </trkpt>
      <trkpt lat="45.156" lon="5.75846">
        <ele>221</ele>
        <time>2018-02-18T09:32:49Z</time>
      </trkpt>
      <trkpt lat="45.15599" lon="5.75864">
        <ele>220.9</ele>
        <time>2018-02-18T09:32:54Z</time>
      </trkpt>
      <trkpt lat="45.15594" lon="5.7589">
        <ele>220.9</ele>
        <time>2018-02-18T09:33:01Z</time>
      </trkpt>
      <trkpt lat="45.15589" lon="5.75911">
        <ele>221</ele>
        <time>2018-02-18T09:33:07Z</time>
      </trkpt>
      <trkpt lat="45.15585" lon="5.75929">
        <ele>221</ele>
        <time>2018-02-18T09:33:12Z</time>
      </trkpt>
      <trkpt lat="45.15581" lon="5.75943">
        <ele>221</ele>
        <time>2018-02-18T09:33:16Z</time>
      </trkpt>
      <trkpt lat="45.15584" lon="5.7596">
        <ele>221</ele>
        <time>2018-02-18T09:33:22Z</time>
      </trkpt>
      <trkpt lat="45.15594" lon="5.75962">
        <ele>221</ele>
        <time>2018-02-18T09:33:27Z</time>
      </trkpt>
      <trkpt lat="45.15595" lon="5.7596">
        <ele>221</ele>
        <time>2018-02-18T09:33:28Z</time>
      </trkpt>
      <trkpt lat="45.15604" lon="5.75951">
        <ele>221</ele>
        <time>2018-02-18T09:33:33Z</time>
      </trkpt>
      <trkpt lat="45.15612" lon="5.75948">
        <ele>221</ele>
        <time>2018-02-18T09:33:37Z</time>
      </trkpt>
      <trkpt lat="45.15617" lon="5.75943">
        <ele>221.1</ele>
        <time>2018-02-18T09:33:40Z</time>
      </trkpt>
      <trkpt lat="45.15626" lon="5.75935">
        <ele>221.1</ele>
        <time>2018-02-18T09:33:45Z</time>
      </trkpt>
      <trkpt lat="45.15628" lon="5.75933">
        <ele>221.1</ele>
        <time>2018-02-18T09:33:46Z</time>
      </trkpt>
      <trkpt lat="45.15644" lon="5.75921">
        <ele>221</ele>
        <time>2018-02-18T09:33:54Z</time>
      </trkpt>
      <trkpt lat="45.15659" lon="5.75911">
        <ele>221</ele>
        <time>2018-02-18T09:34:01Z</time>
      </trkpt>
      <trkpt lat="45.15675" lon="5.759">
        <ele>220.4</ele>
        <time>2018-02-18T09:34:08Z</time>
      </trkpt>
      <trkpt lat="45.15684" lon="5.7589">
        <ele>220.1</ele>
        <time>2018-02-18T09:34:13Z</time>
      </trkpt>
      <trkpt lat="45.157" lon="5.75874">
        <ele>219.3</ele>
        <time>2018-02-18T09:34:21Z</time>
      </trkpt>
      <trkpt lat="45.15702" lon="5.75873">
        <ele>219.2</ele>
        <time>2018-02-18T09:34:22Z</time>
      </trkpt>
      <trkpt lat="45.15708" lon="5.7588">
        <ele>219</ele>
        <time>2018-02-18T09:34:26Z</time>
      </trkpt>
      <trkpt lat="45.15714" lon="5.7589">
        <ele>219.3</ele>
        <time>2018-02-18T09:34:30Z</time>
      </trkpt>
      <trkpt lat="45.15726" lon="5.75909">
        <ele>219.8</ele>
        <time>2018-02-18T09:34:38Z</time>
      </trkpt>
      <trkpt lat="45.15734" lon="5.75925">
        <ele>219.9</ele>
        <time>2018-02-18T09:34:44Z</time>
      </trkpt>
      <trkpt lat="45.15736" lon="5.75928">
        <ele>219.8</ele>
        <time>2018-02-18T09:34:45Z</time>
      </trkpt>
      <trkpt lat="45.1574" lon="5.75936">
        <ele>219.6</ele>
        <time>2018-02-18T09:34:48Z</time>
      </trkpt>
      <trkpt lat="45.15742" lon="5.75941">
        <ele>219.5</ele>
        <time>2018-02-18T09:34:50Z</time>
      </trkpt>
      <trkpt lat="45.15754" lon="5.75966">
        <ele>218.8</ele>
        <time>2018-02-18T09:34:59Z</time>
      </trkpt>
      <trkpt lat="45.15762" lon="5.75983">
        <ele>218.5</ele>
        <time>2018-02-18T09:35:05Z</time>
      </trkpt>
      <trkpt lat="45.1577" lon="5.76">
        <ele>218.3</ele>
        <time>2018-02-18T09:35:11Z</time>
      </trkpt>
      <trkpt lat="45.15776" lon="5.76013">
        <ele>218.2</ele>
        <time>2018-02-18T09:35:16Z</time>
      </trkpt>
      <trkpt lat="45.15784" lon="5.76034">
        <ele>218</ele>
        <time>2018-02-18T09:35:23Z</time>
      </trkpt>
      <trkpt lat="45.15789" lon="5.76052">
        <ele>218</ele>
        <time>2018-02-18T09:35:29Z</time>
      </trkpt>
      <trkpt lat="45.15796" lon="5.76071">
        <ele>218</ele>
        <time>2018-02-18T09:35:35Z</time>
      </trkpt>
      <trkpt lat="45.15802" lon="5.76087">
        <ele>218</ele>
        <time>2018-02-18T09:35:40Z</time>
      </trkpt>
      <trkpt lat="45.15811" lon="5.76109">
        <ele>218.3</ele>
        <time>2018-02-18T09:35:47Z</time>
      </trkpt>
      <trkpt lat="45.15819" lon="5.76126">
        <ele>218.3</ele>
        <time>2018-02-18T09:35:53Z</time>
      </trkpt>
      <trkpt lat="45.15819" lon="5.76129">
        <ele>218.3</ele>
        <time>2018-02-18T09:35:54Z</time>
      </trkpt>
      <trkpt lat="45.15833" lon="5.76156">
        <ele>218.1</ele>
        <time>2018-02-18T09:36:03Z</time>
      </trkpt>
      <trkpt lat="45.15842" lon="5.76177">
        <ele>218</ele>
        <time>2018-02-18T09:36:10Z</time>
      </trkpt>
      <trkpt lat="45.15852" lon="5.76197">
        <ele>218.2</ele>
        <time>2018-02-18T09:36:17Z</time>
      </trkpt>
      <trkpt lat="45.15861" lon="5.76217">
        <ele>218.6</ele>
        <time>2018-02-18T09:36:24Z</time>
      </trkpt>
      <trkpt lat="45.15869" lon="5.76233">
        <ele>218.9</ele>
        <time>2018-02-18T09:36:30Z</time>
      </trkpt>
      <trkpt lat="45.15881" lon="5.7624">
        <ele>219</ele>
        <time>2018-02-18T09:36:36Z</time>
      </trkpt>
      <trkpt lat="45.15895" lon="5.76234">
        <ele>219</ele>
        <time>2018-02-18T09:36:42Z</time>
      </trkpt>
      <trkpt lat="45.1591" lon="5.76225">
        <ele>218.8</ele>
        <time>2018-02-18T09:36:49Z</time>
      </trkpt>
      <trkpt lat="45.15922" lon="5.76219">
        <ele>218.8</ele>
        <time>2018-02-18T09:36:54Z</time>
      </trkpt>
      <trkpt lat="45.15937" lon="5.7622">
        <ele>219.2</ele>
        <time>2018-02-18T09:37:00Z</time>
      </trkpt>
      <trkpt lat="45.15942" lon="5.76235">
        <ele>219.5</ele>
        <time>2018-02-18T09:37:05Z</time>
      </trkpt>
      <trkpt lat="45.15947" lon="5.76257">
        <ele>220</ele>
        <time>2018-02-18T09:37:11Z</time>
      </trkpt>
      <trkpt lat="45.15951" lon="5.76275">
        <ele>220</ele>
        <time>2018-02-18T09:37:16Z</time>
      </trkpt>
      <trkpt lat="45.15954" lon="5.76293">
        <ele>220</ele>
        <time>2018-02-18T09:37:21Z</time>
      </trkpt>
      <trkpt lat="45.15958" lon="5.76314">
        <ele>220</ele>
        <time>2018-02-18T09:37:27Z</time>
      </trkpt>
      <trkpt lat="45.15964" lon="5.7634">
        <ele>220.8</ele>
        <time>2018-02-18T09:37:35Z</time>
      </trkpt>
      <trkpt lat="45.1597" lon="5.76361">
        <ele>221.5</ele>
        <time>2018-02-18T09:37:41Z</time>
      </trkpt>
      <trkpt lat="45.15973" lon="5.76373">
        <ele>221.9</ele>
        <time>2018-02-18T09:37:45Z</time>
      </trkpt>
      <trkpt lat="45.15974" lon="5.76386">
        <ele>222.4</ele>
        <time>2018-02-18T09:37:50Z</time>
      </trkpt>
      <trkpt lat="45.15978" lon="5.76404">
        <ele>222.8</ele>
        <time>2018-02-18T09:37:56Z</time>
      </trkpt>
      <trkpt lat="45.15984" lon="5.76423">
        <ele>223</ele>
        <time>2018-02-18T09:38:02Z</time>
      </trkpt>
      <trkpt lat="45.15987" lon="5.76446">
        <ele>223</ele>
        <time>2018-02-18T09:38:09Z</time>
      </trkpt>
      <trkpt lat="45.15991" lon="5.76461">
        <ele>223</ele>
        <time>2018-02-18T09:38:14Z</time>
      </trkpt>
      <trkpt lat="45.15997" lon="5.76478">
        <ele>223</ele>
        <time>2018-02-18T09:38:20Z</time>
      </trkpt>
      <trkpt lat="45.15998" lon="5.76481">
        <ele>223</ele>
        <time>2018-02-18T09:38:21Z</time>
      </trkpt>
      <trkpt lat="45.16004" lon="5.76491">
        <ele>223</ele>
        <time>2018-02-18T09:38:26Z</time>
      </trkpt>
      <trkpt lat="45.16002" lon="5.76504">
        <ele>223.2</ele>
        <time>2018-02-18T09:38:31Z</time>
      </trkpt>
      <trkpt lat="45.16" lon="5.76512">
        <ele>223.3</ele>
        <time>2018-02-18T09:38:36Z</time>
      </trkpt>
      <trkpt lat="45.16003" lon="5.76515">
        <ele>222.8</ele>
        <time>2018-02-18T09:38:38Z</time>
      </trkpt>
      <trkpt lat="45.16014" lon="5.76529">
        <ele>222</ele>
        <time>2018-02-18T09:38:45Z</time>
      </trkpt>
      <trkpt lat="45.16015" lon="5.76531">
        <ele>222</ele>
        <time>2018-02-18T09:38:46Z</time>
      </trkpt>
      <trkpt lat="45.16011" lon="5.76543">
        <ele>222</ele>
        <time>2018-02-18T09:38:51Z</time>
      </trkpt>
      <trkpt lat="45.16006" lon="5.76556">
        <ele>222</ele>
        <time>2018-02-18T09:38:56Z</time>
      </trkpt>
      <trkpt lat="45.15999" lon="5.76572">
        <ele>222.4</ele>
        <time>2018-02-18T09:39:02Z</time>
      </trkpt>
      <trkpt lat="45.15994" lon="5.7658">
        <ele>222.4</ele>
        <time>2018-02-18T09:39:06Z</time>
      </trkpt>
      <trkpt lat="45.15988" lon="5.76592">
        <ele>222.4</ele>
        <time>2018-02-18T09:39:11Z</time>
      </trkpt>
      <trkpt lat="45.15984" lon="5.766">
        <ele>222.5</ele>
        <time>2018-02-18T09:39:14Z</time>
      </trkpt>
      <trkpt lat="45.15984" lon="5.76606">
        <ele>222.7</ele>
        <time>2018-02-18T09:39:16Z</time>
      </trkpt>
      <trkpt lat="45.15991" lon="5.76611">
        <ele>223</ele>
        <time>2018-02-18T09:39:20Z</time>
      </trkpt>
      <trkpt lat="45.16" lon="5.76614">
        <ele>223</ele>
        <time>2018-02-18T09:39:24Z</time>
      </trkpt>
      <trkpt lat="45.16006" lon="5.76618">
        <ele>221.3</ele>
        <time>2018-02-18T09:39:28Z</time>
      </trkpt>
      <trkpt lat="45.16018" lon="5.76624">
        <ele>220</ele>
        <time>2018-02-18T09:39:33Z</time>
      </trkpt>
      <trkpt lat="45.16031" lon="5.76631">
        <ele>220</ele>
        <time>2018-02-18T09:39:38Z</time>
      </trkpt>
      <trkpt lat="45.16043" lon="5.76641">
        <ele>220</ele>
        <time>2018-02-18T09:39:44Z</time>
      </trkpt>
      <trkpt lat="45.16055" lon="5.76648">
        <ele>220.6</ele>
        <time>2018-02-18T09:39:49Z</time>
      </trkpt>
    </trkseg>
  </trk>
</gpx>